Provisional Data: Conodoguinet Creek near Schlusser, PA


Please select a monitoring station.
Please select start date.
Please select start date.

Toggle Unit: C/F Toggle Unit: C/F
Sample Time Temperature (C) Temperature (F) Specific Conductivity (mS/cm) pH   Turbidity (NTU+) DO (mg/L)
4/7/2021 12:00:00 AM 15.15 59.27 0.311 8.36 4.86 9.41
4/7/2021 12:15:00 AM 15.13 59.234 0.314 8.37 20.76 9.36
4/7/2021 12:30:00 AM 15.11 59.198 0.305 8.37 488.5 9.4
4/7/2021 12:45:00 AM 15.08 59.144 0.305 8.33 5.35 9.38
4/7/2021 1:00:00 AM 15.06 59.108 0.315 8.36 6.39 9.29
4/7/2021 1:15:00 AM 15.03 59.054 0.295 8.37 5.17 9.35
4/7/2021 1:30:00 AM 15.01 59.018 0.318 8.36 7.81 9.35
4/7/2021 1:45:00 AM 14.99 58.982 0.319 8.36 5.41 9.35
4/7/2021 2:00:00 AM 14.95 58.91 0.319 8.35 6.65 9.34
4/7/2021 2:15:00 AM 14.92 58.856 0.319 8.35 6.9 9.34
4/7/2021 2:30:00 AM 14.87 58.766 0.319 8.33 4.32 9.3
4/7/2021 2:45:00 AM 14.82 58.676 0.316 8.3 4.97 9.27
4/7/2021 3:00:00 AM 14.78 58.604 0.319 8.29 5.11 9.23
4/7/2021 3:15:00 AM 14.74 58.532 0.319 8.28 5.39 9.23
4/7/2021 3:30:00 AM 14.7 58.46 0.319 8.26 4.36 9.21
4/7/2021 3:45:00 AM 14.65 58.37 0.287 8.25 9.86 9.17
4/7/2021 4:00:00 AM 14.6 58.28 0.32 8.24 5.2 9.18
4/7/2021 4:15:00 AM 14.56 58.208 0.32 8.22 7.2 9.13
4/7/2021 4:30:00 AM 14.52 58.136 0.32 8.2 79.82 9.12
4/7/2021 4:45:00 AM 14.48 58.064 0.32 8.19 80.63 9.07
4/7/2021 5:00:00 AM 14.43 57.974 0.311 8.18 108.5 9.08
4/7/2021 5:15:00 AM 14.38 57.884 0.321 8.16 591.2 9.03
4/7/2021 5:30:00 AM 14.33 57.794 0.321 8.14 13.65 9.02
4/7/2021 5:45:00 AM 14.28 57.704 0.321 8.13 8.61 9.02
4/7/2021 6:00:00 AM 14.23 57.614 0.321 8.11 7.21 8.99
4/7/2021 6:15:00 AM 14.19 57.542 0.321 8.11 6.46 8.98
4/7/2021 6:30:00 AM 14.15 57.47 0.321 8.1 6.9 8.95
4/7/2021 6:45:00 AM 14.11 57.398 0.321 8.09 8.97 8.93
4/7/2021 7:00:00 AM 14.08 57.344 0.321 8.08 10.53 8.94
4/7/2021 7:15:00 AM 14.05 57.29 0.321 8.07 11.88 8.92
4/7/2021 7:30:00 AM 14.02 57.236 0.322 8.06 12.6 8.94
4/7/2021 7:45:00 AM 14 57.2 0.322 8.05 12.74 8.96
4/7/2021 8:00:00 AM 13.99 57.182 0.322 8.05 12.84 8.97
4/7/2021 8:15:00 AM 13.97 57.146 0.322 8.04 10.14 9.02
4/7/2021 8:30:00 AM 13.95 57.11 0.322 8.04 10.74 9.06
4/7/2021 8:45:00 AM 13.94 57.092 0.322 8.04 10.68 9.11
4/7/2021 9:00:00 AM 13.97 57.146 0.322 8.05 10.93 9.19
4/7/2021 9:15:00 AM 14.01 57.218 0.303 8.06 11 9.32
4/7/2021 9:30:00 AM 14.03 57.254 0.302 8.06 10.76 9.39
4/7/2021 9:45:00 AM 14.06 57.308 0.322 8.08 10.79 9.52
4/7/2021 10:00:00 AM 14.11 57.398 0.322 8.09 13.43 9.63
4/7/2021 10:15:00 AM 14.23 57.614 0.322 8.11 11.06 9.72
4/7/2021 10:30:00 AM 14.32 57.776 0.321 8.11 11.23 9.82
4/7/2021 10:45:00 AM 14.35 57.83 0.314 8.13 10.75 9.91
4/7/2021 11:00:00 AM 14.4 57.92 0.3 8.14 10.83 9.96
4/7/2021 11:15:00 AM 14.45 58.01 0.291 8.15 11.09 9.97
4/7/2021 11:30:00 AM 14.51 58.118 0.292 8.15 10.79 10.04
4/7/2021 11:45:00 AM 14.59 58.262 0.3 8.16 10.3 10.09
4/7/2021 12:00:00 PM 14.64 58.352 0.295 8.17 10.44 10.11
4/7/2021 12:15:00 PM 14.64 58.352 0.315 8.16 11.11 10.09
4/7/2021 12:30:00 PM 14.7 58.46 0.316 8.17 11.28 10.1
4/7/2021 12:45:00 PM 14.8 58.64 0.323 8.17 11.29 10.1
4/7/2021 1:00:00 PM 14.95 58.91 0.315 8.17 11.03 10.11
4/7/2021 1:15:00 PM 15.09 59.162 0.316 8.17 11.24 10.13
4/7/2021 1:30:00 PM 15.25 59.45 0.31 8.18 11.03 10.16
4/7/2021 1:45:00 PM 15.42 59.756 0.308 8.18 14 10.17
4/7/2021 2:00:00 PM 15.61 60.098 0.309 8.18 11 10.17
4/7/2021 2:15:00 PM 15.77 60.386 0.321 8.18 11.32 10.22
4/7/2021 2:30:00 PM 15.92 60.656 0.32 8.19 11.33 10.22
4/7/2021 2:45:00 PM 16.03 60.854 0.32 8.19 11.65 10.24
4/7/2021 3:00:00 PM 16.14 61.052 0.318 8.2 12.17 10.25
4/7/2021 3:15:00 PM 16.22 61.196 0.32 8.2 12.34 10.23
4/7/2021 3:30:00 PM 16.31 61.358 0.317 8.21 12.4 10.26
4/7/2021 3:45:00 PM 16.35 61.43 0.287 8.22 12.77 10.25
4/7/2021 4:00:00 PM 16.45 61.61 0.324 8.22 12.57 10.25
4/7/2021 4:15:00 PM 16.47 61.646 0.32 8.23 13.87 10.24
4/7/2021 4:30:00 PM 16.53 61.754 0.272 8.23 13.45 10.21
4/7/2021 4:45:00 PM 16.53 61.754 0.276 8.24 14.6 10.18
4/7/2021 5:00:00 PM 16.5 61.7 0.325 8.25 14.49 10.16
4/7/2021 5:15:00 PM 16.48 61.664 0.326 8.25 15.23 10.14
4/7/2021 5:30:00 PM 16.43 61.574 0.326 8.25 15.96 10.1
4/7/2021 5:45:00 PM 16.36 61.448 0.326 8.25 16.02 10.04
4/7/2021 6:00:00 PM 16.28 61.304 0.326 8.25 15.97 9.95
4/7/2021 6:15:00 PM 16.19 61.142 0.327 8.25 15.96 9.82
4/7/2021 6:30:00 PM 16.12 61.016 0.327 8.24 16.14 9.68
4/7/2021 6:45:00 PM 16.08 60.944 0.326 8.23 15.99 9.52
4/7/2021 7:00:00 PM 16.07 60.926 0.326 8.23 16.06 9.48
4/7/2021 7:15:00 PM 16.06 60.908 0.326 8.22 15.9 9.39
4/7/2021 7:30:00 PM 16.05 60.89 0.327 8.22 15.85 9.29
4/7/2021 7:45:00 PM 16.06 60.908 0.327 8.22 15.89 9.22
4/7/2021 8:00:00 PM 16.06 60.908 0.294 8.22 15.67 9.17
4/7/2021 8:15:00 PM 16.08 60.944 0.306 8.22 15.46 9.13
4/7/2021 8:30:00 PM 16.08 60.944 0.287 8.22 15.33 9.07
4/7/2021 8:45:00 PM 16.1 60.98 0.318 8.22 15.25 9.04
4/7/2021 9:00:00 PM 16.12 61.016 0.31 8.23 15.17 9.02
4/7/2021 9:15:00 PM 16.14 61.052 0.31 8.23 15.21 9.01
4/7/2021 9:30:00 PM 16.17 61.106 0.329 8.24 15.3 8.98
4/7/2021 9:45:00 PM 16.18 61.124 0.323 8.25 15.27 8.98
4/7/2021 10:00:00 PM 16.2 61.16 0.316 8.26 15.53 9.01
4/7/2021 10:15:00 PM 16.24 61.232 0.322 8.28 15.47 9.03
4/7/2021 10:30:00 PM 16.25 61.25 0.289 8.29 15.45 9.03
4/7/2021 10:45:00 PM 16.25 61.25 0.309 8.29 15.43 9.02
4/7/2021 11:00:00 PM 16.27 61.286 0.305 8.3 15.58 9.02
4/7/2021 11:15:00 PM 16.28 61.304 0.321 8.31 15.64 9.03
4/7/2021 11:30:00 PM 16.3 61.34 0.318 8.32 15.53 9.02
4/7/2021 11:45:00 PM 16.28 61.304 0.31 8.33 15.33 9.04
4/8/2021 12:00:00 AM 16.29 61.322 0.325 8.34 15.29 9.05
4/8/2021 12:15:00 AM 16.27 61.286 0.32 8.35 15.38 9.03
4/8/2021 12:30:00 AM 16.25 61.25 0.322 8.35 15.41 9.03
4/8/2021 12:45:00 AM 16.23 61.214 0.315 8.35 15.43 9.05
4/8/2021 1:00:00 AM 16.2 61.16 0.307 8.35 15.49 9.03
4/8/2021 1:15:00 AM 16.17 61.106 0.325 8.35 15.39 9.01
4/8/2021 1:30:00 AM 16.15 61.07 0.327 8.34 15.37 9.01
4/8/2021 1:45:00 AM 16.11 60.998 0.324 8.35 15.38 9
4/8/2021 2:00:00 AM 16.08 60.944 0.314 8.34 15.45 8.99
4/8/2021 2:15:00 AM 16.04 60.872 0.321 8.33 15.4 8.97
4/8/2021 2:30:00 AM 16.01 60.818 0.317 8.33 15.38 8.95
4/8/2021 2:45:00 AM 15.96 60.728 0.316 8.32 15.52 8.95
4/8/2021 3:00:00 AM 15.91 60.638 0.321 8.31 15.37 8.94
4/8/2021 3:15:00 AM 15.87 60.566 0.327 8.3 15.35 8.88
4/8/2021 3:30:00 AM 15.82 60.476 0.315 8.29 15.51 8.91
4/8/2021 3:45:00 AM 15.78 60.404 0.318 8.27 15.41 8.88
4/8/2021 4:00:00 AM 15.72 60.296 0.323 8.26 15.45 8.88
4/8/2021 4:15:00 AM 15.68 60.224 0.289 8.24 15.25 8.85
4/8/2021 4:30:00 AM 15.63 60.134 0.328 8.24 15.33 8.82
4/8/2021 4:45:00 AM 15.59 60.062 0.326 8.22 15.52 8.82
4/8/2021 5:00:00 AM 15.53 59.954 0.328 8.21 15.63 8.8
4/8/2021 5:15:00 AM 15.48 59.864 0.326 8.2 15.73 8.76
4/8/2021 5:30:00 AM 15.42 59.756 0.326 8.19 16.04 8.74
4/8/2021 5:45:00 AM 15.37 59.666 0.325 8.18 16.18 8.72
4/8/2021 6:00:00 AM 15.31 59.558 0.328 8.17 16.33 8.71
4/8/2021 6:15:00 AM 15.24 59.432 0.329 8.16 16.36 8.7
4/8/2021 6:30:00 AM 15.18 59.324 0.33 8.15 16.54 8.68
4/8/2021 6:45:00 AM 15.12 59.216 0.33 8.13 16.8 8.64
4/8/2021 7:00:00 AM 15.07 59.126 0.328 8.13 16.61 8.68
4/8/2021 7:15:00 AM 15.01 59.018 0.33 8.12 17.47 8.65
4/8/2021 7:30:00 AM 14.96 58.928 0.33 8.11 17.23 8.69
4/8/2021 7:45:00 AM 14.92 58.856 0.331 8.1 17.31 8.7
4/8/2021 8:00:00 AM 14.88 58.784 0.331 8.1 17.45 8.79
4/8/2021 8:15:00 AM 14.84 58.712 0.331 8.1 17.25 8.82
4/8/2021 8:30:00 AM 14.83 58.694 0.331 8.11 17.58 8.88
4/8/2021 8:45:00 AM 14.82 58.676 0.328 8.11 17.37 8.99
4/8/2021 9:00:00 AM 14.82 58.676 0.326 8.12 17.58 9.11
4/8/2021 9:15:00 AM 14.84 58.712 0.303 8.13 17.45 9.21
4/8/2021 9:30:00 AM 14.86 58.748 0.32 8.14 18.34 9.3
4/8/2021 9:45:00 AM 14.89 58.802 0.311 8.15 18.35 9.39
4/8/2021 10:00:00 AM 14.93 58.874 0.318 8.16 18.26 9.47
4/8/2021 10:15:00 AM 14.97 58.946 0.312 8.17 18.49 9.54
4/8/2021 10:30:00 AM 15.02 59.036 0.324 8.16 3.91 9.53
4/8/2021 10:45:00 AM 15.08 59.144 0.279 8.17 5.15 9.52
4/8/2021 11:00:00 AM 15.15 59.27 0.327 8.18 1171 9.58
4/8/2021 11:15:00 AM 15.25 59.45 0.327 8.19 4.58 9.8
4/8/2021 11:30:00 AM 15.3 59.54 0.295 8.19 1327 9.76
4/8/2021 11:45:00 AM 15.41 59.738 0.312 8.2 3.49 9.85
4/8/2021 12:00:00 PM 15.51 59.918 0.307 8.2 4.72 9.87
4/8/2021 12:15:00 PM 15.6 60.08 0.313 8.21 6.6 9.85
4/8/2021 12:30:00 PM 15.71 60.278 0.315 8.21 42.97 9.63
4/8/2021 12:45:00 PM 15.86 60.548 0.315 8.22 21.21 9.96
4/8/2021 1:00:00 PM 16.01 60.818 0.304 8.22 4.32 10.02
4/8/2021 1:15:00 PM 16.16 61.088 0.306 8.23 61.89 10.01
4/8/2021 1:30:00 PM 16.28 61.304 0.307 8.23 4.5 10.07
4/8/2021 1:45:00 PM 16.43 61.574 0.299 8.24 85.73 10.01
4/8/2021 2:00:00 PM 16.55 61.79 0.316 8.24 4.13 10.12
4/8/2021 2:15:00 PM 16.66 61.988 0.308 8.24 52.89 10.07
4/8/2021 2:30:00 PM 16.74 62.132 0.304 8.24 4.21 10.1
4/8/2021 2:45:00 PM 16.84 62.312 0.307 8.25 104.5 10.08
4/8/2021 3:00:00 PM 16.96 62.528 0.285 8.25 4.74 10.12
4/8/2021 3:15:00 PM 17.05 62.69 0.337 8.25 65.68 10.1
4/8/2021 3:30:00 PM 17.05 62.69 0.308 8.26 3.67 10.16
4/8/2021 3:45:00 PM 17.12 62.816 0.337 8.25 51.81 10.07
4/8/2021 4:00:00 PM 17.14 62.852 0.338 8.24 5.99 10.12
4/8/2021 4:15:00 PM 17.18 62.924 0.332 8.24 53.71 10.04
4/8/2021 4:30:00 PM 17.17 62.906 0.317 8.27 3.77 10.06
4/8/2021 4:45:00 PM 17.14 62.852 0.322 8.29 34.02 10.01
4/8/2021 5:00:00 PM 17.1 62.78 0.309 8.29 7.81 9.99
4/8/2021 5:15:00 PM 17.11 62.798 0.322 8.29 3.73 9.97
4/8/2021 5:30:00 PM 17.03 62.654 0.29 8.29 32.7 9.89
4/8/2021 5:45:00 PM 16.96 62.528 0.295 8.28 3.31 9.88
4/8/2021 6:00:00 PM 16.87 62.366 0.324 8.28 3.4 9.8
4/8/2021 6:15:00 PM 16.79 62.222 0.29 8.28 3.59 9.71
4/8/2021 6:30:00 PM 16.7 62.06 0.298 8.28 6.24 9.6
4/8/2021 6:45:00 PM 16.65 61.97 0.314 8.27 780.5 9.5
4/8/2021 7:00:00 PM 16.6 61.88 0.312 8.27 5.04 9.35
4/8/2021 7:15:00 PM 16.57 61.826 0.336 8.26 5.73 9.24
4/8/2021 7:30:00 PM 16.55 61.79 0.299 8.26 3306 9.16
4/8/2021 7:45:00 PM 16.53 61.754 0.335 8.25 3.78 9.05
4/8/2021 8:00:00 PM 16.53 61.754 0.292 8.25 4.65 8.96
4/8/2021 8:15:00 PM 16.54 61.772 0.297 8.25 2649 8.86
4/8/2021 8:30:00 PM 16.54 61.772 0.34 8.24 7.33 8.82
4/8/2021 8:45:00 PM 16.56 61.808 0.34 8.24 4.35 8.8
4/8/2021 9:00:00 PM 16.58 61.844 0.341 8.23 381.3 8.71
4/8/2021 9:15:00 PM 16.6 61.88 0.33 8.25 5.83 8.74
4/8/2021 9:30:00 PM 16.64 61.952 0.331 8.25 466.7 8.69
4/8/2021 9:45:00 PM 16.67 62.006 0.331 8.26 3.97 8.72
4/8/2021 10:00:00 PM 16.66 61.988 0.335 8.26 795.1 8.67
4/8/2021 10:15:00 PM 16.71 62.078 0.325 8.27 4.26 8.72
4/8/2021 10:30:00 PM 16.72 62.096 0.333 8.28 4.28 8.73
4/8/2021 10:45:00 PM 16.76 62.168 0.335 8.3 1417 8.74
4/8/2021 11:00:00 PM 16.79 62.222 0.329 8.31 994.9 8.75
4/8/2021 11:15:00 PM 16.82 62.276 0.331 8.32 867.7 8.78
4/8/2021 11:30:00 PM 16.82 62.276 0.334 8.31 916.6 8.74
4/8/2021 11:45:00 PM 16.84 62.312 0.326 8.3 768.4 8.77
4/9/2021 12:00:00 AM 16.84 62.312 0.341 8.31 750.4 8.75
4/9/2021 12:15:00 AM 16.84 62.312 0.341 8.33 670 8.78
4/9/2021 12:30:00 AM 16.85 62.33 0.341 8.34 659.1 8.8
4/9/2021 12:45:00 AM 16.84 62.312 0.286 8.35 658.3 8.82
4/9/2021 1:00:00 AM 16.83 62.294 0.32 8.34 635.4 8.78
4/9/2021 1:15:00 AM 16.82 62.276 0.322 8.35 550.7 8.8
4/9/2021 1:30:00 AM 16.8 62.24 0.323 8.34 513.1 8.79
4/9/2021 1:45:00 AM 16.78 62.204 0.304 8.35 500.4 8.81
4/9/2021 2:00:00 AM 16.75 62.15 0.32 8.33 452.7 8.79
4/9/2021 2:15:00 AM 16.73 62.114 0.321 8.35 444 8.81
4/9/2021 2:30:00 AM 16.7 62.06 0.329 8.33 410.4 8.81
4/9/2021 2:45:00 AM 16.67 62.006 0.326 8.34 402.8 8.77
4/9/2021 3:00:00 AM 16.63 61.934 0.325 8.33 13.9 8.77
4/9/2021 3:15:00 AM 16.6 61.88 0.339 8.32 94.59 8.78
4/9/2021 3:30:00 AM 16.56 61.808 0.312 8.29 3369 8.64
4/9/2021 3:45:00 AM 16.52 61.736 0.301 8.31 19.48 8.76
4/9/2021 4:00:00 AM 16.47 61.646 0.325 8.31 35.1 8.73
4/9/2021 4:15:00 AM 16.42 61.556 0.323 8.29 20.35 8.7
4/9/2021 4:30:00 AM 16.36 61.448 0.329 8.29 34.33 8.72
4/9/2021 4:45:00 AM 16.3 61.34 0.342 8.27 30.63 8.66
4/9/2021 5:00:00 AM 16.24 61.232 0.342 8.27 15.89 8.58
4/9/2021 5:15:00 AM 16.19 61.142 0.322 8.26 332.3 8.56
4/9/2021 5:30:00 AM 16.13 61.034 0.335 8.24 16.67 8.6
4/9/2021 5:45:00 AM 16.08 60.944 0.321 8.22 129.8 8.54
4/9/2021 6:00:00 AM 16.04 60.872 0.333 8.21 30.41 8.57
4/9/2021 6:15:00 AM 15.99 60.782 0.343 8.2 6.4 8.54
4/9/2021 6:30:00 AM 15.94 60.692 0.344 8.19 8.71 8.53
4/9/2021 6:45:00 AM 15.9 60.62 0.344 8.18 5.9 8.43
4/9/2021 7:00:00 AM 15.86 60.548 0.334 8.17 364.3 8.49
4/9/2021 7:15:00 AM 15.82 60.476 0.345 8.16 6.22 8.49
4/9/2021 7:30:00 AM 15.78 60.404 0.346 8.15 5.44 8.41
4/9/2021 7:45:00 AM 15.73 60.314 0.346 8.14 393.5 8.47
4/9/2021 8:00:00 AM 15.7 60.26 0.346 8.13 7.18 8.44
4/9/2021 8:15:00 AM 15.66 60.188 0.346 8.12 7.86 8.41
4/9/2021 8:30:00 AM 15.61 60.098 0.346 8.11 9.43 8.5
4/9/2021 8:45:00 AM 15.57 60.026 0.347 8.1 5 8.4
4/9/2021 9:00:00 AM 15.53 59.954 0.347 8.1 6.94 8.44
4/9/2021 9:15:00 AM 15.5 59.9 0.347 8.1 6.61 8.45
4/9/2021 9:30:00 AM 15.48 59.864 0.347 8.09 44.48 8.43
4/9/2021 9:45:00 AM 15.46 59.828 0.335 8.09 9.04 8.58
4/9/2021 10:00:00 AM 15.44 59.792 0.316 8.09 8.12 8.55
4/9/2021 10:15:00 AM 15.4 59.72 0.348 8.09 8.06 8.57
4/9/2021 10:30:00 AM 15.38 59.684 0.348 8.08 14.17 8.62
4/9/2021 10:45:00 AM 15.35 59.63 0.347 8.09 3622 8.42
4/9/2021 11:00:00 AM 15.33 59.594 0.33 8.08 16.34 8.71
4/9/2021 11:15:00 AM 15.31 59.558 0.348 8.08 8.15 8.77
4/9/2021 11:30:00 AM 15.29 59.522 0.319 8.09 4214 8.76
4/9/2021 11:45:00 AM 15.27 59.486 0.331 8.09 8.83 8.86
4/9/2021 12:00:00 PM 15.25 59.45 0.338 8.09 8.65 8.85
4/9/2021 12:15:00 PM 15.24 59.432 0.338 8.08 10.01 8.9
4/9/2021 12:30:00 PM 15.23 59.414 0.339 8.08 9.72 8.94
4/9/2021 12:45:00 PM 15.2 59.36 0.343 8.09 9.41 8.99
4/9/2021 1:00:00 PM 15.19 59.342 0.343 8.09 9.48 8.98
4/9/2021 1:15:00 PM 15.2 59.36 0.342 8.1 10.4 9.04
4/9/2021 1:30:00 PM 15.21 59.378 0.343 8.11 10.91 9.12
4/9/2021 1:45:00 PM 15.21 59.378 0.343 8.11 11.7 9.17
4/9/2021 2:00:00 PM 15.2 59.36 0.332 8.11 175.4 9.16
4/9/2021 2:15:00 PM 15.18 59.324 0.329 8.11 179.3 9.21
4/9/2021 2:30:00 PM 15.17 59.306 0.343 8.12 179.2 9.2
4/9/2021 2:45:00 PM 15.15 59.27 0.347 8.11 177.9 9.18
4/9/2021 3:00:00 PM 15.12 59.216 0.336 8.11 10.78 9.13
4/9/2021 3:15:00 PM 15.1 59.18 0.342 8.11 270.9 9.1
4/9/2021 3:30:00 PM 15.08 59.144 0.344 8.1 200.3 9.12
4/9/2021 3:45:00 PM 15.08 59.144 0.334 8.1 55.54 9.1
4/9/2021 4:00:00 PM 15.06 59.108 0.32 8.09 9.27 9.1
4/9/2021 4:15:00 PM 15.05 59.09 0.341 8.09 10.27 9.09
4/9/2021 4:30:00 PM 15.05 59.09 0.341 8.08 99.17 9.05
4/9/2021 4:45:00 PM 15.05 59.09 0.342 8.08 1121 9.07
4/9/2021 5:00:00 PM 15.04 59.072 0.343 8.08 4033 9.08
4/9/2021 5:15:00 PM 15.02 59.036 0.343 8.08 22.95 9.06
4/9/2021 5:30:00 PM 15 59 0.343 8.08 8.85 8.98
4/9/2021 5:45:00 PM 14.98 58.964 0.343 8.07 14.71 8.96
4/9/2021 6:00:00 PM 14.96 58.928 0.336 8.07 9.15 8.76
4/9/2021 6:15:00 PM 14.94 58.892 0.341 8.06 16.87 8.84
4/9/2021 6:30:00 PM 14.92 58.856 0.342 8.05 15.06 8.64
4/9/2021 6:45:00 PM 14.9 58.82 0.342 8.05 11.16 8.58
4/9/2021 7:00:00 PM 14.88 58.784 0.343 8.04 10.92 8.67
4/9/2021 7:15:00 PM 14.87 58.766 0.345 8.03 3820 8.64
4/9/2021 7:30:00 PM 14.85 58.73 0.347 8.03 9.45 8.65
4/9/2021 7:45:00 PM 14.83 58.694 0.349 8.03 10.84 8.57
4/9/2021 8:00:00 PM 14.82 58.676 0.346 8.03 9.28 8.57
4/9/2021 8:15:00 PM 14.81 58.658 0.352 8.02 8.13 8.44
4/9/2021 8:30:00 PM 14.79 58.622 0.336 8.02 9.03 8.49
4/9/2021 8:45:00 PM 14.77 58.586 0.352 8.01 8.21 8.5
4/9/2021 9:00:00 PM 14.77 58.586 0.352 8.02 8.46 8.51
4/9/2021 9:15:00 PM 14.76 58.568 0.352 8.02 8.82 8.52
4/9/2021 9:30:00 PM 14.75 58.55 0.352 8.02 9.39 8.55
4/9/2021 9:45:00 PM 14.74 58.532 0.352 8.02 9.35 8.55
4/9/2021 10:00:00 PM 14.72 58.496 0.331 8.02 8.68 8.59
4/9/2021 10:15:00 PM 14.71 58.478 0.353 8.02 9.2 8.6
4/9/2021 10:30:00 PM 14.7 58.46 0.351 8.03 35.89 8.6
4/9/2021 10:45:00 PM 14.69 58.442 0.353 8.02 12.45 8.62
4/9/2021 11:00:00 PM 14.68 58.424 0.352 8.03 13.16 8.65
4/9/2021 11:15:00 PM 14.67 58.406 0.351 8.04 9.03 8.67
4/9/2021 11:30:00 PM 14.65 58.37 0.323 8.04 9.19 8.65
4/9/2021 11:45:00 PM 14.64 58.352 0.326 8.04 9.7 8.68
4/10/2021 12:00:00 AM 14.63 58.334 0.301 8.04 8.99 8.7
4/10/2021 12:15:00 AM 14.61 58.298 0.337 8.04 8.95 8.71
4/10/2021 12:30:00 AM 14.59 58.262 0.342 8.05 9.81 8.7
4/10/2021 12:45:00 AM 14.57 58.226 0.339 8.05 9.24 8.68
4/10/2021 1:00:00 AM 14.55 58.19 0.339 8.05 8.93 8.73
4/10/2021 1:15:00 AM 14.53 58.154 0.346 8.05 8.9 8.74
4/10/2021 1:30:00 AM 14.51 58.118 0.344 8.05 8.63 8.75
4/10/2021 1:45:00 AM 14.49 58.082 0.348 8.05 9.32 8.75
4/10/2021 2:00:00 AM 14.47 58.046 0.349 8.05 8.89 8.73
4/10/2021 2:15:00 AM 14.44 57.992 0.348 8.04 8.76 8.71
4/10/2021 2:30:00 AM 14.42 57.956 0.348 8.05 9.02 8.73
4/10/2021 2:45:00 AM 14.4 57.92 0.346 8.05 9.36 8.73
4/10/2021 3:00:00 AM 14.37 57.866 0.34 8.05 9.53 8.72
4/10/2021 3:15:00 AM 14.34 57.812 0.341 8.05 9.15 8.7
4/10/2021 3:30:00 AM 14.32 57.776 0.338 8.04 9.13 8.73
4/10/2021 3:45:00 AM 14.29 57.722 0.341 8.04 8.87 8.71
4/10/2021 4:00:00 AM 14.25 57.65 0.336 8.04 14.6 8.71
4/10/2021 4:15:00 AM 14.23 57.614 0.322 8.02 9.28 8.72
4/10/2021 4:30:00 AM 14.2 57.56 0.343 8.03 10.13 8.68
4/10/2021 4:45:00 AM 14.17 57.506 0.299 8.02 25.37 8.7
4/10/2021 5:00:00 AM 14.15 57.47 0.341 8.02 9.69 8.59
4/10/2021 5:15:00 AM 14.12 57.416 0.349 8.02 463 8.63
4/10/2021 5:30:00 AM 14.09 57.362 0.35 8.02 492.4 8.66
4/10/2021 5:45:00 AM 14.06 57.308 0.348 8.02 504 8.66
4/10/2021 6:00:00 AM 14.04 57.272 0.348 8.02 513.9 8.63
4/10/2021 6:15:00 AM 14.01 57.218 0.348 8.02 521.6 8.63
4/10/2021 6:30:00 AM 13.98 57.164 0.357 8.02 529.4 8.65
4/10/2021 6:45:00 AM 13.94 57.092 0.357 8.01 535.1 8.68
4/10/2021 7:00:00 AM 13.92 57.056 0.357 8.01 543.2 8.67
4/10/2021 7:15:00 AM 13.89 57.002 0.357 8.01 551 8.67
4/10/2021 7:30:00 AM 13.87 56.966 0.357 8 560.9 8.65
4/10/2021 7:45:00 AM 13.85 56.93 0.357 8.01 571.8 8.67
4/10/2021 8:00:00 AM 13.83 56.894 0.358 8 576.7 8.6
4/10/2021 8:15:00 AM 13.81 56.858 0.358 8.01 583.6 8.75
4/10/2021 8:30:00 AM 13.79 56.822 0.358 8 582.8 8.14
4/10/2021 8:45:00 AM 13.79 56.822 0.358 8.01 586.5 8.69
4/10/2021 9:00:00 AM 13.78 56.804 0.358 8.02 590.1 8.45
4/10/2021 9:15:00 AM 13.77 56.786 0.357 8.02 592 8.9
4/10/2021 9:30:00 AM 13.77 56.786 0.358 8.02 601 8.95
4/10/2021 9:45:00 AM 13.77 56.786 0.357 8.03 608.1 9.08
4/10/2021 10:00:00 AM 13.78 56.804 0.358 8.04 628.9 9.12
4/10/2021 10:15:00 AM 13.78 56.804 0.357 8.04 12.05 9.24
4/10/2021 10:30:00 AM 13.79 56.822 0.357 8.05 11.11 9.27
4/10/2021 10:45:00 AM 13.81 56.858 0.357 8.06 24.53 9.31
4/10/2021 11:00:00 AM 13.82 56.876 0.357 8.07 767 9.27
4/10/2021 11:15:00 AM 13.83 56.894 0.357 8.08 10.12 9.5
4/10/2021 11:30:00 AM 13.84 56.912 0.357 8.09 12.35 9.52
4/10/2021 11:45:00 AM 13.85 56.93 0.34 8.09 16.82 9.51
4/10/2021 12:00:00 PM 13.88 56.984 0.357 8.1 13.51 9.38
4/10/2021 12:15:00 PM 13.88 56.984 0.357 8.1 9.01 9.62
4/10/2021 12:30:00 PM 13.88 56.984 0.357 8.1 10.48 9.64
4/10/2021 12:45:00 PM 13.89 57.002 0.357 8.1 1120 9.59
4/10/2021 1:00:00 PM 13.9 57.02 0.357 8.1 8.66 9.67
4/10/2021 1:15:00 PM 13.9 57.02 0.356 8.11 9.09 9.66
4/10/2021 1:30:00 PM 13.87 56.966 0.356 8.1 9.35 9.55
4/10/2021 1:45:00 PM 13.84 56.912 0.357 8.1 9.35 9.51
4/10/2021 2:00:00 PM 13.82 56.876 0.357 8.09 8.91 9.48
4/10/2021 2:15:00 PM 13.8 56.84 0.357 8.09 9.29 9.42
4/10/2021 2:30:00 PM 13.82 56.876 0.356 8.09 2235 9.27
4/10/2021 2:45:00 PM 13.9 57.02 0.356 8.1 9.86 9.62
4/10/2021 3:00:00 PM 13.93 57.074 0.356 8.1 16.82 9.57
4/10/2021 3:15:00 PM 13.96 57.128 0.356 8.1 9.14 9.46
4/10/2021 3:30:00 PM 14 57.2 0.356 8.11 17.44 9.75
4/10/2021 3:45:00 PM 14.03 57.254 0.355 8.12 8.58 9.81
4/10/2021 4:00:00 PM 14.02 57.236 0.355 8.13 7.43 9.78
4/10/2021 4:15:00 PM 14.02 57.236 0.355 8.13 8.71 9.78
4/10/2021 4:30:00 PM 14.02 57.236 0.355 8.13 6.4 9.81
4/10/2021 4:45:00 PM 14.06 57.308 0.355 8.14 7.84 9.81
4/10/2021 5:00:00 PM 14.07 57.326 0.355 8.14 6.53 9.79
4/10/2021 5:15:00 PM 14.08 57.344 0.355 8.15 7.83 9.85
4/10/2021 5:30:00 PM 14.08 57.344 0.355 8.15 6.84 9.81
4/10/2021 5:45:00 PM 14.08 57.344 0.354 8.15 8.65 9.78
4/10/2021 6:00:00 PM 14.07 57.326 0.355 8.16 6.07 9.76
4/10/2021 6:15:00 PM 14.07 57.326 0.354 8.15 7.44 9.7
4/10/2021 6:30:00 PM 14.06 57.308 0.355 8.15 6.12 9.66
4/10/2021 6:45:00 PM 14.03 57.254 0.355 8.16 7.71 9.61
4/10/2021 7:00:00 PM 14.01 57.218 0.355 8.16 1577 9.55
4/10/2021 7:15:00 PM 13.99 57.182 0.355 8.15 6.3 9.55
4/10/2021 7:30:00 PM 13.96 57.128 0.355 8.15 13.01 9.46
4/10/2021 7:45:00 PM 13.93 57.074 0.355 8.14 37.75 9.3
4/10/2021 8:00:00 PM 13.9 57.02 0.355 8.13 8.59 9.28
4/10/2021 8:15:00 PM 13.87 56.966 0.355 8.12 879.2 9.19
4/10/2021 8:30:00 PM 13.86 56.948 0.356 8.11 750.3 9.13
4/10/2021 8:45:00 PM 13.84 56.912 0.318 8.11 641 9.05
4/10/2021 9:00:00 PM 13.83 56.894 0.352 8.11 545 9.08
4/10/2021 9:15:00 PM 13.82 56.876 0.306 8.1 490.1 9.06
4/10/2021 9:30:00 PM 13.81 56.858 0.306 8.1 169.7 9.05
4/10/2021 9:45:00 PM 13.81 56.858 0.306 8.1 140 9.04
4/10/2021 10:00:00 PM 13.81 56.858 0.307 8.1 115.8 9.08
4/10/2021 10:15:00 PM 13.82 56.876 0.335 8.1 109.6 9.05
4/10/2021 10:30:00 PM 13.82 56.876 0.352 8.12 106.5 9.11
4/10/2021 10:45:00 PM 13.83 56.894 0.347 8.13 105.2 9.07
4/10/2021 11:00:00 PM 13.84 56.912 0.336 8.13 102.8 9.09
4/10/2021 11:15:00 PM 13.85 56.93 0.34 8.12 99.91 9.1
4/10/2021 11:30:00 PM 13.87 56.966 0.342 8.12 98.95 9.13
4/10/2021 11:45:00 PM 13.9 57.02 0.343 8.13 96.28 9.13
4/11/2021 12:00:00 AM 13.91 57.038 0.345 8.13 94.82 9.11
4/11/2021 12:15:00 AM 13.93 57.074 0.338 8.13 93.8 9.1
4/11/2021 12:30:00 AM 13.95 57.11 0.335 8.14 92.94 9.13
4/11/2021 12:45:00 AM 13.96 57.128 0.363 8.15 92.14 9.15
4/11/2021 1:00:00 AM 13.97 57.146 0.36 8.15 91.79 9.14
4/11/2021 1:15:00 AM 13.98 57.164 0.341 8.15 90.2 9.16
4/11/2021 1:30:00 AM 13.98 57.164 0.358 8.16 89.02 9.14
4/11/2021 1:45:00 AM 13.98 57.164 0.358 8.16 87.59 9.13
4/11/2021 2:00:00 AM 13.98 57.164 0.358 8.16 87.14 9.11
4/11/2021 2:15:00 AM 13.98 57.164 0.358 8.16 86.21 9.11
4/11/2021 2:30:00 AM 13.97 57.146 0.358 8.17 85.2 9.13
4/11/2021 2:45:00 AM 13.96 57.128 0.357 8.17 84.43 9.09
4/11/2021 3:00:00 AM 13.95 57.11 0.357 8.17 83.93 9.11
4/11/2021 3:15:00 AM 13.94 57.092 0.356 8.17 82.77 9.07
4/11/2021 3:30:00 AM 13.93 57.074 0.356 8.17 83.08 9.05
4/11/2021 3:45:00 AM 13.91 57.038 0.356 8.16 83.85 9.05
4/11/2021 4:00:00 AM 13.9 57.02 0.356 8.16 81.99 9.05
4/11/2021 4:15:00 AM 13.88 56.984 0.356 8.15 43.13 9.05
4/11/2021 4:30:00 AM 13.87 56.966 0.356 8.15 31.9 9
4/11/2021 4:45:00 AM 13.85 56.93 0.357 8.14 25.85 8.98
4/11/2021 5:00:00 AM 13.83 56.894 0.357 8.14 8.59 8.97
4/11/2021 5:15:00 AM 13.81 56.858 0.357 8.13 7.62 8.95
4/11/2021 5:30:00 AM 13.79 56.822 0.357 8.12 8.24 8.91
4/11/2021 5:45:00 AM 13.77 56.786 0.357 8.11 8.91 8.9
4/11/2021 6:00:00 AM 13.75 56.75 0.356 8.11 21.44 8.81
4/11/2021 6:15:00 AM 13.72 56.696 0.356 8.1 41.18 8.86
4/11/2021 6:30:00 AM 13.7 56.66 0.355 8.09 49.76 8.87
4/11/2021 6:45:00 AM 13.68 56.624 0.355 8.09 56.77 8.81
4/11/2021 7:00:00 AM 13.66 56.588 0.354 8.08 613.5 8.87
4/11/2021 7:15:00 AM 13.64 56.552 0.353 8.07 217 8.84
4/11/2021 7:30:00 AM 13.62 56.516 0.35 8.06 202 8.82
4/11/2021 7:45:00 AM 13.6 56.48 0.346 8.06 204.8 8.85
4/11/2021 8:00:00 AM 13.58 56.444 0.342 8.05 188.4 8.84
4/11/2021 8:15:00 AM 13.57 56.426 0.34 8.03 150.8 8.83
4/11/2021 8:30:00 AM 13.56 56.408 0.337 8.02 135.8 8.8
4/11/2021 8:45:00 AM 13.55 56.39 0.337 8 131.5 8.77
4/11/2021 9:00:00 AM 13.54 56.372 0.338 7.99 126.7 8.64
4/11/2021 9:15:00 AM 13.54 56.372 0.34 7.98 127.5 8.78
4/11/2021 9:30:00 AM 13.55 56.39 0.342 7.99 124.6 8.82
4/11/2021 9:45:00 AM 13.57 56.426 0.345 7.99 123.5 8.86
4/11/2021 10:00:00 AM 13.59 56.462 0.347 8 124.5 8.86
4/11/2021 10:15:00 AM 13.62 56.516 0.347 8.01 125 8.97
4/11/2021 10:30:00 AM 13.67 56.606 0.348 8.01 124.1 9.06
4/11/2021 10:45:00 AM 13.68 56.624 0.349 8.03 124 9.13
4/11/2021 11:00:00 AM 13.68 56.624 0.35 8.03 125.3 9.14
4/11/2021 11:15:00 AM 13.69 56.642 0.35 8.03 125.4 9.15
4/11/2021 11:30:00 AM 13.7 56.66 0.35 8.03 125.2 9.15
4/11/2021 11:45:00 AM 13.71 56.678 0.349 8.03 125.4 9.16
4/11/2021 12:00:00 PM 13.91 57.038 0.349 8.05 122.2 9.24
4/11/2021 12:15:00 PM 13.95 57.11 0.349 8.04 122.3 9.27
4/11/2021 12:30:00 PM 13.96 57.128 0.348 8.04 122.2 9.27
4/11/2021 12:45:00 PM 14 57.2 0.348 8.04 120.4 9.31
4/11/2021 1:00:00 PM 14.06 57.308 0.347 8.04 119 9.3
4/11/2021 1:15:00 PM 14.16 57.488 0.346 8.03 119.4 9.18
4/11/2021 1:30:00 PM 14.33 57.794 0.345 8.03 118.4 9.26
4/11/2021 1:45:00 PM 14.41 57.938 0.343 8.03 136.2 9.37
4/11/2021 2:00:00 PM 14.48 58.064 0.339 8.03 126.5 9.35
4/11/2021 2:15:00 PM 14.63 58.334 0.336 8.02 124.2 9.35
4/11/2021 2:30:00 PM 14.68 58.424 0.334 8 127.5 9.31
4/11/2021 2:45:00 PM 14.82 58.676 0.331 7.99 149.3 9.28
4/11/2021 3:00:00 PM 14.9 58.82 0.329 7.97 154.7 9.26
4/11/2021 3:15:00 PM 14.93 58.874 0.328 7.96 151.2 9.22
4/11/2021 3:30:00 PM 14.98 58.964 0.327 7.96 155.5 9.22
4/11/2021 3:45:00 PM 15.13 59.234 0.326 7.97 153 9.23
4/11/2021 4:00:00 PM 15.23 59.414 0.326 7.97 152.3 9.25
4/11/2021 4:15:00 PM 15.3 59.54 0.324 7.98 150.2 9.26
4/11/2021 4:30:00 PM 15.36 59.648 0.321 7.99 153.3 9.27
4/11/2021 4:45:00 PM 15.38 59.684 0.319 7.99 153.7 9.24
4/11/2021 5:00:00 PM 15.4 59.72 0.314 7.99 160.6 9.21
4/11/2021 5:15:00 PM 15.36 59.648 0.308 7.97 163.3 9.14
4/11/2021 5:30:00 PM 15.34 59.612 0.303 7.96 165.7 9.09
4/11/2021 5:45:00 PM 15.34 59.612 0.298 7.94 168.1 9.03
4/11/2021 6:00:00 PM 15.36 59.648 0.292 7.92 170.4 8.97
4/11/2021 6:15:00 PM 15.38 59.684 0.287 7.9 179.7 8.94
4/11/2021 6:30:00 PM 15.39 59.702 0.284 7.89 175.6 8.9
4/11/2021 6:45:00 PM 15.4 59.72 0.281 7.87 318.5 8.86
4/11/2021 7:00:00 PM 15.4 59.72 0.278 7.86 125.7 8.84
4/11/2021 7:15:00 PM 15.38 59.684 0.276 7.85 42.55 8.82
4/11/2021 7:30:00 PM 15.33 59.594 0.274 7.84 46.23 8.8
4/11/2021 7:45:00 PM 15.3 59.54 0.272 7.83 45.66 8.76
4/11/2021 8:00:00 PM 15.27 59.486 0.271 7.81 40.97 8.74
4/11/2021 8:15:00 PM 15.24 59.432 0.27 7.81 41.16 8.71
4/11/2021 8:30:00 PM 15.21 59.378 0.268 7.79 41.82 8.7
4/11/2021 8:45:00 PM 15.18 59.324 0.267 7.79 92.77 8.69
4/11/2021 9:00:00 PM 15.17 59.306 0.266 7.78 65.76 8.68
4/11/2021 9:15:00 PM 15.17 59.306 0.265 7.77 51.86 8.65
4/11/2021 9:30:00 PM 15.17 59.306 0.264 7.76 53.65 8.62
4/11/2021 9:45:00 PM 15 59 0.257 7.77 48.61 8.66
4/11/2021 10:00:00 PM 14.79 58.622 0.24 7.78 47.77 8.75
4/11/2021 10:15:00 PM 14.78 58.604 0.237 7.77 54.67 8.72
4/11/2021 10:30:00 PM 14.74 58.532 0.234 7.75 60.5 8.66
4/11/2021 10:45:00 PM 14.82 58.676 0.235 7.74 61.6 8.63
4/11/2021 11:00:00 PM 14.87 58.766 0.239 7.73 59.34 8.59
4/11/2021 11:15:00 PM 14.96 58.928 0.246 7.73 58.06 8.57
4/11/2021 11:30:00 PM 15.04 59.072 0.248 7.73 61.25 8.56
4/11/2021 11:45:00 PM 15.05 59.09 0.248 7.73 56.28 8.56
4/12/2021 12:00:00 AM 15.06 59.108 0.248 7.73 47.58 8.57
4/12/2021 12:15:00 AM 15.06 59.108 0.246 7.74 57.73 8.59
4/12/2021 12:30:00 AM 15.03 59.054 0.243 7.73 58.44 8.58
4/12/2021 12:45:00 AM 14.97 58.946 0.24 7.73 62.19 8.59
4/12/2021 1:00:00 AM 14.86 58.748 0.236 7.7 43.09 8.61
4/12/2021 1:15:00 AM 14.75 58.55 0.228 7.69 52.95 8.65
4/12/2021 1:30:00 AM 14.62 58.316 0.223 7.67 36.35 8.66
4/12/2021 1:45:00 AM 14.5 58.1 0.219 7.65 36.86 8.67
4/12/2021 2:00:00 AM 14.4 57.92 0.215 7.63 32.1 8.67
4/12/2021 2:15:00 AM 14.35 57.83 0.213 7.62 32.48 8.67
4/12/2021 2:30:00 AM 14.31 57.758 0.211 7.61 28.38 8.68
4/12/2021 2:45:00 AM 14.28 57.704 0.208 7.6 33.22 8.68
4/12/2021 3:00:00 AM 14.26 57.668 0.206 7.6 32.34 8.68
4/12/2021 3:15:00 AM 14.24 57.632 0.204 7.59 28.69 8.71
4/12/2021 3:30:00 AM 14.22 57.596 0.203 7.59 29.61 8.68
4/12/2021 3:45:00 AM 14.2 57.56 0.202 7.59 30.85 8.58
4/12/2021 4:00:00 AM 14.17 57.506 0.202 7.6 28.36 8.62
4/12/2021 4:15:00 AM 14.14 57.452 0.201 7.59 31.39 8.65
4/12/2021 4:30:00 AM 14.11 57.398 0.2 7.59 32.76 8.7
4/12/2021 4:45:00 AM 14.09 57.362 0.2 7.59 33.06 8.39
4/12/2021 5:00:00 AM 14.08 57.344 0.2 7.59 34.99 7.84
4/12/2021 5:15:00 AM 14.08 57.344 0.2 7.58 30.98 7.54
4/12/2021 5:30:00 AM 14.08 57.344 0.199 7.57 30.89 7.84
4/12/2021 5:45:00 AM 14.07 57.326 0.199 7.57 30.82 7.98
4/12/2021 6:00:00 AM 14.07 57.326 0.199 7.57 28.73 7.92
4/12/2021 6:15:00 AM 14.06 57.308 0.198 7.57 24.1 8.05
4/12/2021 6:30:00 AM 14.05 57.29 0.199 7.57 24.26 7.92
4/12/2021 6:45:00 AM 14.04 57.272 0.199 7.57 25.38 7.81
4/12/2021 7:00:00 AM 14.02 57.236 0.199 7.57 25.7 7.37
4/12/2021 7:15:00 AM 13.99 57.182 0.199 7.56 27.1 7.37
4/12/2021 7:30:00 AM 13.96 57.128 0.198 7.56 26.55 7.11
4/12/2021 7:45:00 AM 13.91 57.038 0.198 7.57 27.15 7.14
4/12/2021 8:00:00 AM 13.86 56.948 0.194 7.56 27.91 7.18
4/12/2021 8:15:00 AM 13.81 56.858 0.196 7.56 26.56 7.43
4/12/2021 8:30:00 AM 13.73 56.714 0.195 7.56 26.27 7.32
4/12/2021 8:45:00 AM 13.67 56.606 0.194 7.56 25.79 7.63
4/12/2021 9:00:00 AM 13.61 56.498 0.193 7.55 28.54 7.47
4/12/2021 9:15:00 AM 13.54 56.372 0.191 7.55 29.4 7.36
4/12/2021 9:30:00 AM 13.48 56.264 0.19 7.55 33.23 7.26
4/12/2021 9:45:00 AM 13.43 56.174 0.189 7.54 34.72 7.36
4/12/2021 10:00:00 AM 13.38 56.084 0.175 7.53 33.66 6.72
4/12/2021 10:15:00 AM 13.34 56.012 0.187 7.53 34.98 6.38
4/12/2021 10:30:00 AM 13.32 55.976 0.146 7.53 37.43 6.92
4/12/2021 10:45:00 AM 13.28 55.904 0.184 7.53 35.19 7.12
4/12/2021 11:00:00 AM 13.26 55.868 0.183 7.52 32.49 6.5
4/12/2021 11:15:00 AM 13.23 55.814 0.183 7.53 31.91 7.04
4/12/2021 11:30:00 AM 13.21 55.778 0.18 7.52 29.53 7
4/12/2021 11:45:00 AM 13.18 55.724 0.182 7.53 29.8 7.2
4/12/2021 12:00:00 PM 13.14 55.652 0.179 7.51 28.84 7.03
4/12/2021 12:15:00 PM 13.11 55.598 0.179 7.51 27.99 6.99
4/12/2021 12:30:00 PM 13.07 55.526 0.143 7.5 29.66 7.02
4/12/2021 12:45:00 PM 13.03 55.454 0.156 7.51 30.5 7.03
4/12/2021 1:00:00 PM 13 55.4 0.154 7.51 31.34 6.89
4/12/2021 1:15:00 PM 12.96 55.328 0.159 7.5 32.21 6.7
4/12/2021 1:30:00 PM 12.92 55.256 0.158 7.49 34.52 6.61
4/12/2021 1:45:00 PM 12.89 55.202 0.158 7.49 35.5 6.6
4/12/2021 2:00:00 PM 12.85 55.13 0.162 7.5 36.13 6.82
4/12/2021 2:15:00 PM 12.82 55.076 0.159 7.49 34.97 6.73
4/12/2021 2:30:00 PM 12.79 55.022 0.16 7.48 33.32 6.57
4/12/2021 2:45:00 PM 12.77 54.986 0.161 7.49 36.06 6.73
4/12/2021 3:00:00 PM 12.75 54.95 0.177 7.49 35.24 6.47
4/12/2021 3:15:00 PM 12.73 54.914 0.178 7.49 33.46 6.62
4/12/2021 3:30:00 PM 12.71 54.878 0.179 7.48 36.28 6.67
4/12/2021 3:45:00 PM 12.7 54.86 0.181 7.48 33.79 6.03
4/12/2021 4:00:00 PM 12.67 54.806 0.181 7.48 32.03 6.17
4/12/2021 4:15:00 PM 12.66 54.788 0.183 7.49 34.46 5.98
4/12/2021 4:30:00 PM 12.64 54.752 0.184 7.49 36.39 6.19
4/12/2021 4:45:00 PM 12.63 54.734 0.186 7.49 36.1 6.26
4/12/2021 5:00:00 PM 12.62 54.716 0.187 7.49 37.66 6.3
4/12/2021 5:15:00 PM 12.6 54.68 0.188 7.5 37.09 6.5
4/12/2021 5:30:00 PM 12.59 54.662 0.189 7.5 36.67 6.67
4/12/2021 5:45:00 PM 12.58 54.644 0.19 7.5 37.12 6.34
4/12/2021 6:00:00 PM 12.56 54.608 0.191 7.51 36 6.29
4/12/2021 6:15:00 PM 12.55 54.59 0.19 7.51 36.9 6.43
4/12/2021 6:30:00 PM 12.53 54.554 0.193 7.52 37.4 6.39
4/12/2021 6:45:00 PM 12.52 54.536 0.194 7.52 36.54 6.36
4/12/2021 7:00:00 PM 12.5 54.5 0.194 7.52 37.24 6.43
4/12/2021 7:15:00 PM 12.48 54.464 0.195 7.52 35.63 6.26
4/12/2021 7:30:00 PM 12.47 54.446 0.196 7.52 34.99 6.33
4/12/2021 7:45:00 PM 12.45 54.41 0.173 7.52 38.28 6.48
4/12/2021 8:00:00 PM 12.43 54.374 0.197 7.53 38.67 6.71
4/12/2021 8:15:00 PM 12.42 54.356 0.197 7.53 39.01 6.6
4/12/2021 8:30:00 PM 12.4 54.32 0.197 7.53 38.13 6.62
4/12/2021 8:45:00 PM 12.38 54.284 0.198 7.54 36.78 6.59
4/12/2021 9:00:00 PM 12.36 54.248 0.199 7.54 37.72 6.64
4/12/2021 9:15:00 PM 12.34 54.212 0.199 7.56 37.3 6.61
4/12/2021 9:30:00 PM 12.33 54.194 0.198 7.54 41.03 6.43
4/12/2021 9:45:00 PM 12.31 54.158 0.2 7.54 40.27 6.31
4/12/2021 10:00:00 PM 12.29 54.122 0.2 7.54 39.73 6.14
4/12/2021 10:15:00 PM 12.27 54.086 0.2 7.54 40.14 6.19
4/12/2021 10:30:00 PM 12.25 54.05 0.2 7.54 40.27 6.28
4/12/2021 10:45:00 PM 12.23 54.014 0.201 7.54 39.76 6.29
4/12/2021 11:00:00 PM 12.21 53.978 0.2 7.54 40.17 6.45
4/12/2021 11:15:00 PM 12.2 53.96 0.2 7.54 37.54 6.44
4/12/2021 11:30:00 PM 12.18 53.924 0.201 7.54 35.84 6.2
4/12/2021 11:45:00 PM 12.16 53.888 0.201 7.54 36.38 6.39
4/13/2021 12:00:00 AM 12.14 53.852 0.201 7.54 29.57 6.51
4/13/2021 12:15:00 AM 12.12 53.816 0.197 7.55 28.26 6.48
4/13/2021 12:30:00 AM 12.1 53.78 0.201 7.56 28.54 6.87
4/13/2021 12:45:00 AM 12.09 53.762 0.2 7.56 29.01 6.73
4/13/2021 1:00:00 AM 12.07 53.726 0.201 7.56 27.36 6.85
4/13/2021 1:15:00 AM 12.05 53.69 0.202 7.56 27.61 6.73
4/13/2021 1:30:00 AM 12.03 53.654 0.201 7.56 24.69 6.28
4/13/2021 1:45:00 AM 12.01 53.618 0.202 7.56 24.33 5.92
4/13/2021 2:00:00 AM 12 53.6 0.202 7.56 23.27 6.03
4/13/2021 2:15:00 AM 11.98 53.564 0.202 7.57 22.61 6.12
4/13/2021 2:30:00 AM 11.96 53.528 0.202 7.57 29.04 6.01
4/13/2021 2:45:00 AM 11.95 53.51 0.199 7.57 45.45 6.12
4/13/2021 3:00:00 AM 11.93 53.474 0.203 7.57 45.09 5.92
4/13/2021 3:15:00 AM 11.91 53.438 0.203 7.58 44.31 5.54
4/13/2021 3:30:00 AM 11.9 53.42 0.203 7.58 46.34 5.42
4/13/2021 3:45:00 AM 11.88 53.384 0.203 7.58 47.46 5.24
4/13/2021 4:00:00 AM 11.87 53.366 0.204 7.58 47.48 5.4
4/13/2021 4:15:00 AM 11.85 53.33 0.202 7.58 48.15 5.18
4/13/2021 4:30:00 AM 11.84 53.312 0.203 7.58 49.09 4.93
4/13/2021 4:45:00 AM 11.82 53.276 0.203 7.58 53.17 4.94
4/13/2021 5:00:00 AM 11.81 53.258 0.203 7.58 52.44 4.73
4/13/2021 5:15:00 AM 11.8 53.24 0.204 7.58 68.13 4.95
4/13/2021 5:30:00 AM 11.78 53.204 0.203 7.58 65.22 5.03
4/13/2021 5:45:00 AM 11.77 53.186 0.204 7.59 65.8 5.65
4/13/2021 6:00:00 AM 11.76 53.168 0.204 7.59 68.32 5.31
4/13/2021 6:15:00 AM 11.74 53.132 0.204 7.59 69.1 5.28
4/13/2021 6:30:00 AM 11.73 53.114 0.204 7.59 68.08 5.23
4/13/2021 6:45:00 AM 11.72 53.096 0.204 7.59 67.06 5.25
4/13/2021 7:00:00 AM 11.71 53.078 0.204 7.59 66.95 5.46
4/13/2021 7:15:00 AM 11.7 53.06 0.205 7.6 66.97 5.93
4/13/2021 7:30:00 AM 11.69 53.042 0.205 7.6 68.26 6.73
4/13/2021 7:45:00 AM 11.68 53.024 0.205 7.6 69.39 7.25
4/13/2021 8:00:00 AM 11.67 53.006 0.206 7.61 68.67 7.11
4/13/2021 8:15:00 AM 11.67 53.006 0.206 7.61 55.3 7.19
4/13/2021 8:30:00 AM 11.66 52.988 0.207 7.61 51.38 6.82
4/13/2021 8:45:00 AM 11.67 53.006 0.207 7.61 54.51 6.71
4/13/2021 9:00:00 AM 11.67 53.006 0.207 7.62 58.04 6.64
4/13/2021 9:15:00 AM 11.67 53.006 0.207 7.62 55.79 6.65
4/13/2021 9:30:00 AM 11.68 53.024 0.208 7.62 55.8 7.01
4/13/2021 9:45:00 AM 11.7 53.06 0.208 7.63 51.77 6.94
4/13/2021 10:00:00 AM 11.71 53.078 0.209 7.63 50.18 6.7
4/13/2021 10:15:00 AM 11.73 53.114 0.209 7.63 50.29 7.06
4/13/2021 10:30:00 AM 11.75 53.15 0.21 7.63 49.25 6.74
4/13/2021 10:45:00 AM 11.77 53.186 0.21 7.63 50.41 6.71
4/13/2021 11:00:00 AM 11.78 53.204 0.21 7.63 50.03 7.01
4/13/2021 11:15:00 AM 11.83 53.294 0.211 7.63 49.88 6.67
4/13/2021 11:30:00 AM 11.88 53.384 0.211 7.64 50.65 6.65
4/13/2021 11:45:00 AM 11.97 53.546 0.211 7.64 49.99 6.73
4/13/2021 12:00:00 PM 12.03 53.654 0.212 7.65 46.07 6.39
4/13/2021 12:15:00 PM 12.08 53.744 0.212 7.65 43.27 6.53
4/13/2021 12:30:00 PM 12.13 53.834 0.212 7.65 42.19 6.56
4/13/2021 12:45:00 PM 12.17 53.906 0.212 7.65 45.85 6.53
4/13/2021 1:00:00 PM 12.2 53.96 0.212 7.65 48.75 7.2
4/13/2021 1:15:00 PM 12.23 54.014 0.213 7.65 49.73 6.98
4/13/2021 1:30:00 PM 12.23 54.014 0.213 7.65 48.33 7.7
4/13/2021 1:45:00 PM 12.27 54.086 0.213 7.65 48.75 8.12
4/13/2021 2:00:00 PM 12.36 54.248 0.214 7.65 47.71 7.95
4/13/2021 2:15:00 PM 12.49 54.482 0.213 7.66 47.57 7.92
4/13/2021 2:30:00 PM 12.62 54.716 0.214 7.66 50.67 8.46
4/13/2021 2:45:00 PM 12.73 54.914 0.215 7.66 51.04 8.67
4/13/2021 3:00:00 PM 12.76 54.968 0.215 7.66 48.43 8.2
4/13/2021 3:15:00 PM 12.85 55.13 0.216 7.67 48.97 8.49
4/13/2021 3:30:00 PM 12.92 55.256 0.216 7.67 52.85 8.48
4/13/2021 3:45:00 PM 13.01 55.418 0.216 7.67 52.38 7.97
4/13/2021 4:00:00 PM 13.09 55.562 0.216 7.66 52.09 7.68
4/13/2021 4:15:00 PM 13.16 55.688 0.217 7.67 50.78 8.08
4/13/2021 4:30:00 PM 13.22 55.796 0.217 7.67 52.74 7.7
4/13/2021 4:45:00 PM 13.24 55.832 0.217 7.67 52.06 7.82
4/13/2021 5:00:00 PM 13.26 55.868 0.217 7.66 52.2 7.87
4/13/2021 5:15:00 PM 13.28 55.904 0.218 7.66 53.33 7.43
4/13/2021 5:30:00 PM 13.3 55.94 0.218 7.67 50.02 7.77
4/13/2021 5:45:00 PM 13.3 55.94 0.218 7.66 51.28 7.25
4/13/2021 6:00:00 PM 13.28 55.904 0.218 7.67 52.56 7.16
4/13/2021 6:15:00 PM 13.26 55.868 0.218 7.67 52.09 7.12
4/13/2021 6:30:00 PM 13.23 55.814 0.219 7.67 52.98 7.34
4/13/2021 6:45:00 PM 13.2 55.76 0.219 7.68 56.01 7.42
4/13/2021 7:00:00 PM 13.19 55.742 0.22 7.68 86.01 7.26
4/13/2021 7:15:00 PM 13.16 55.688 0.22 7.68 84.75 6.93
4/13/2021 7:30:00 PM 13.14 55.652 0.22 7.68 86.55 6.91
4/13/2021 7:45:00 PM 13.11 55.598 0.22 7.68 86.79 7.3
4/13/2021 8:00:00 PM 13.07 55.526 0.221 7.68 89.71 7.35
4/13/2021 8:15:00 PM 13.04 55.472 0.221 7.68 90.77 6.36
4/13/2021 8:30:00 PM 13.02 55.436 0.221 7.69 88.89 6.37
4/13/2021 8:45:00 PM 12.99 55.382 0.222 7.69 92.78 5.76
4/13/2021 9:00:00 PM 12.97 55.346 0.221 7.68 90.59 5.91
4/13/2021 9:15:00 PM 12.95 55.31 0.222 7.68 93.69 6.09
4/13/2021 9:30:00 PM 12.94 55.292 0.221 7.68 90.73 5.6
4/13/2021 9:45:00 PM 12.92 55.256 0.223 7.68 87.98 6.31
4/13/2021 10:00:00 PM 12.9 55.22 0.223 7.68 87.95 9.12
4/13/2021 10:15:00 PM 12.88 55.184 0.223 7.68 88.1 9.2
4/13/2021 10:30:00 PM 12.87 55.166 0.223 7.68 88.07 9.25
4/13/2021 10:45:00 PM 12.86 55.148 0.223 7.68 88.47 8.89
4/13/2021 11:00:00 PM 12.85 55.13 0.223 7.68 90.72 8.82
4/13/2021 11:15:00 PM 12.83 55.094 0.224 7.68 92.17 8.99
4/13/2021 11:30:00 PM 12.82 55.076 0.224 7.68 91.37 8.67
4/13/2021 11:45:00 PM 12.81 55.058 0.224 7.68 93.31 8.82
4/14/2021 12:00:00 AM 12.79 55.022 0.225 7.68 92.33 8.91
4/14/2021 12:15:00 AM 12.77 54.986 0.225 7.68 92.64 8.86
4/14/2021 12:30:00 AM 12.74 54.932 0.224 7.68 95.34 8.33
4/14/2021 12:45:00 AM 12.72 54.896 0.225 7.69 96.25 8.31
4/14/2021 1:00:00 AM 12.7 54.86 0.226 7.69 96.02 7.96
4/14/2021 1:15:00 AM 12.68 54.824 0.223 7.69 77.85 7.27
4/14/2021 1:30:00 AM 12.66 54.788 0.225 7.69 84.75 7.49
4/14/2021 1:45:00 AM 12.63 54.734 0.225 7.69 85.77 6.88
4/14/2021 2:00:00 AM 12.61 54.698 0.225 7.69 88.63 7.12
4/14/2021 2:15:00 AM 12.59 54.662 0.224 7.69 87.3 7.31
4/14/2021 2:30:00 AM 12.57 54.626 0.225 7.69 89.19 7.82
4/14/2021 2:45:00 AM 12.56 54.608 0.225 7.69 89.34 7.79
4/14/2021 3:00:00 AM 12.54 54.572 0.225 7.69 90.83 8.41
4/14/2021 3:15:00 AM 12.52 54.536 0.226 7.69 89.18 8.85
4/14/2021 3:30:00 AM 12.5 54.5 0.226 7.69 93.44 8.84
4/14/2021 3:45:00 AM 12.49 54.482 0.226 7.69 91.94 8.27
4/14/2021 4:00:00 AM 12.48 54.464 0.225 7.69 91.25 5.99
4/14/2021 4:15:00 AM 12.47 54.446 0.226 7.69 86.5 4.35
4/14/2021 4:30:00 AM 12.46 54.428 0.227 7.69 86.51 4.83
4/14/2021 4:45:00 AM 12.45 54.41 0.227 7.69 87.1 4.36
4/14/2021 5:00:00 AM 12.44 54.392 0.228 7.69 86.97 5.01
4/14/2021 5:15:00 AM 12.43 54.374 0.228 7.68 91.35 5.08
4/14/2021 5:30:00 AM 12.42 54.356 0.228 7.69 90.55 6.06
4/14/2021 5:45:00 AM 12.42 54.356 0.228 7.69 90.69 6.38
4/14/2021 6:00:00 AM 12.41 54.338 0.228 7.69 90.68 6.15
4/14/2021 6:15:00 AM 12.41 54.338 0.228 7.69 91.15 5.3
4/14/2021 6:30:00 AM 12.41 54.338 0.23 7.69 91.4 7.51
4/14/2021 6:45:00 AM 12.4 54.32 0.23 7.7 92.98 6.7
4/14/2021 7:00:00 AM 12.4 54.32 0.23 7.69 92.67 6.94
4/14/2021 7:15:00 AM 12.4 54.32 0.229 7.69 95.06 5.33
4/14/2021 7:30:00 AM 12.4 54.32 0.23 7.69 94.82 5.51
4/14/2021 7:45:00 AM 12.4 54.32 0.23 7.7 97.19 6.1
4/14/2021 8:00:00 AM 12.42 54.356 0.23 7.7 95.72 6.41
4/14/2021 8:15:00 AM 12.43 54.374 0.23 7.7 93.38 7.32
4/14/2021 8:30:00 AM 12.45 54.41 0.23 7.7 97.96 7.28
4/14/2021 8:45:00 AM 12.47 54.446 0.231 7.71 93.27 7.14
4/14/2021 9:00:00 AM 12.49 54.482 0.231 7.71 92.87 5.94
4/14/2021 9:15:00 AM 12.5 54.5 0.231 7.71 96.01 8.13
4/14/2021 9:30:00 AM 12.52 54.536 0.231 7.71 95.86 8.37
4/14/2021 9:45:00 AM 12.55 54.59 0.232 7.72 96.89 8.07
4/14/2021 10:00:00 AM 12.56 54.608 0.232 7.72 96.1 7.57
4/14/2021 10:15:00 AM 12.57 54.626 0.232 7.72 97.3 6.82
4/14/2021 10:30:00 AM 12.57 54.626 0.232 7.72 96 6.69
4/14/2021 10:45:00 AM 12.57 54.626 0.233 7.72 97.59 6.99
4/14/2021 11:00:00 AM 12.58 54.644 0.233 7.72 91.2 6.52
4/14/2021 11:15:00 AM 12.6 54.68 0.233 7.73 97.45 6.36
4/14/2021 11:30:00 AM 12.62 54.716 0.233 7.73 98.19 6.97
4/14/2021 11:45:00 AM 12.65 54.77 0.233 7.73 96.55 6.46
4/14/2021 12:00:00 PM 12.67 54.806 0.234 7.73 97.31 7.21
4/14/2021 12:15:00 PM 12.69 54.842 0.234 7.74 97.53 7.79
4/14/2021 12:30:00 PM 12.69 54.842 0.234 7.74 95.26 8.09
4/14/2021 12:45:00 PM 12.69 54.842 0.235 7.74 97.96 8.12
4/14/2021 1:00:00 PM 12.7 54.86 0.235 7.74 92.09 8.63
4/14/2021 1:15:00 PM 12.72 54.896 0.235 7.74 93.06 8.76
4/14/2021 1:30:00 PM 12.73 54.914 0.236 7.74 94.78 7.86
4/14/2021 1:45:00 PM 12.75 54.95 0.236 7.74 95.39 6.05
4/14/2021 2:00:00 PM 12.76 54.968 0.236 7.74 97.45 5.76
4/14/2021 2:15:00 PM 12.76 54.968 0.236 7.75 96.51 5.92
4/14/2021 2:30:00 PM 12.76 54.968 0.236 7.75 94.15 5.19
4/14/2021 2:45:00 PM 12.77 54.986 0.237 7.76 99.21 3.69
4/14/2021 3:00:00 PM 12.78 55.004 0.237 7.76 97.11 2.63
4/14/2021 3:15:00 PM 12.8 55.04 0.237 7.77 98.51 1.88
4/14/2021 3:30:00 PM 12.84 55.112 0.237 7.77 97.59 0.67
4/14/2021 3:45:00 PM 12.87 55.166 0.238 7.78 106.2 0.12
4/14/2021 4:00:00 PM 12.89 55.202 0.237 7.76 99.4 0.02
4/14/2021 4:15:00 PM 12.9 55.22 0.237 7.79 97.27 0.05
4/14/2021 4:30:00 PM 12.91 55.238 0.238 7.8 98.75 0.05
4/14/2021 4:45:00 PM 12.92 55.256 0.238 7.8 99 0.23
4/14/2021 5:00:00 PM 12.91 55.238 0.238 7.8 97.41 0.27
4/14/2021 5:15:00 PM 12.92 55.256 0.238 7.81 98.55 0.51
4/14/2021 5:30:00 PM 12.92 55.256 0.238 7.81 105.1 0.41
4/14/2021 5:45:00 PM 12.92 55.256 0.239 7.81 105.8 1.11
4/14/2021 6:00:00 PM 12.92 55.256 0.239 7.81 112.3 0.29
4/14/2021 6:15:00 PM 12.9 55.22 0.239 7.81 109.8 0.1
4/14/2021 6:30:00 PM 12.89 55.202 0.239 7.81 104.2 0.04
4/14/2021 6:45:00 PM 12.88 55.184 0.24 7.82 112.3 0.73
4/14/2021 7:00:00 PM 12.86 55.148 0.24 7.82 105.6 1.19
4/14/2021 7:15:00 PM 12.85 55.13 0.24 7.81 107.7 1.19
4/14/2021 7:30:00 PM 12.84 55.112 0.24 7.81 102.6 1.03
4/14/2021 7:45:00 PM 12.83 55.094 0.241 7.81 99.06 1.06
4/14/2021 8:00:00 PM 12.81 55.058 0.241 7.76 99.67 1.24
4/14/2021 8:15:00 PM 12.79 55.022 0.241 7.76 106.2 1.5
4/14/2021 8:30:00 PM 12.76 54.968 0.241 7.78 109 2.2
4/14/2021 8:45:00 PM 12.74 54.932 0.242 7.8 110.5 1.21
4/14/2021 9:00:00 PM 12.71 54.878 0.242 7.81 107.4 1.47
4/14/2021 9:15:00 PM 12.69 54.842 0.242 7.81 105.7 1.31
4/14/2021 9:30:00 PM 12.66 54.788 0.243 7.82 108.8 5.95
4/14/2021 9:45:00 PM 12.63 54.734 0.243 7.8 115 7.45
4/14/2021 10:00:00 PM 12.6 54.68 0.243 7.81 106.5 9.47
4/14/2021 10:15:00 PM 12.57 54.626 0.243 7.82 104 9.53
4/14/2021 10:30:00 PM 12.54 54.572 0.243 7.82 105.5 9.38
4/14/2021 10:45:00 PM 12.51 54.518 0.244 7.82 102.2 9.34
4/14/2021 11:00:00 PM 12.48 54.464 0.244 7.82 102.2 9.36
4/14/2021 11:15:00 PM 12.45 54.41 0.244 7.82 100.8 9.36
4/14/2021 11:30:00 PM 12.42 54.356 0.244 7.82 102.7 9.43
4/14/2021 11:45:00 PM 12.39 54.302 0.245 7.82 103.5 9.28
4/15/2021 12:00:00 AM 12.35 54.23 0.245 7.82 104.4 9.29
4/15/2021 12:15:00 AM 12.32 54.176 0.245 7.82 111.3 9.47
4/15/2021 12:30:00 AM 12.29 54.122 0.245 7.79 115.1 9.46
4/15/2021 12:45:00 AM 12.27 54.086 0.245 7.79 103.6 9.39
4/15/2021 1:00:00 AM 12.24 54.032 0.246 7.79 98.91 9.46
4/15/2021 1:15:00 AM 12.21 53.978 0.245 7.79 97.46 9.45
4/15/2021 1:30:00 AM 12.18 53.924 0.246 7.76 94.53 9.39
4/15/2021 1:45:00 AM 12.16 53.888 0.246 7.76 95.62 9.43
4/15/2021 2:00:00 AM 12.13 53.834 0.246 7.79 97.42 9.38
4/15/2021 2:15:00 AM 12.1 53.78 0.246 7.81 95.91 9.38
4/15/2021 2:30:00 AM 12.08 53.744 0.247 7.81 98.25 9.34
4/15/2021 2:45:00 AM 12.06 53.708 0.246 7.81 100.2 9.31
4/15/2021 3:00:00 AM 12.03 53.654 0.247 7.81 98.55 9.33
4/15/2021 3:15:00 AM 12.01 53.618 0.247 7.81 98.65 9.33
4/15/2021 3:30:00 AM 11.99 53.582 0.247 7.81 101.6 9.34
4/15/2021 3:45:00 AM 11.96 53.528 0.247 7.82 101.1 9.45
4/15/2021 4:00:00 AM 11.94 53.492 0.248 7.82 100.6 9.47
4/15/2021 4:15:00 AM 11.91 53.438 0.248 7.82 102.4 9.47
4/15/2021 4:30:00 AM 11.89 53.402 0.248 7.82 103.2 9.48
4/15/2021 4:45:00 AM 11.87 53.366 0.248 7.81 101.4 9.47
4/15/2021 5:00:00 AM 11.86 53.348 0.249 7.81 100.1 9.46
4/15/2021 5:15:00 AM 11.84 53.312 0.249 7.81 105.2 9.45
4/15/2021 5:30:00 AM 11.82 53.276 0.249 7.82 101.8 9.45
4/15/2021 5:45:00 AM 11.8 53.24 0.224 7.78 97.41 9.44
4/15/2021 6:00:00 AM 11.79 53.222 0.222 7.78 100.3 9.45
4/15/2021 6:15:00 AM 11.77 53.186 0.234 7.79 95.76 9.37
4/15/2021 6:30:00 AM 11.76 53.168 0.251 7.81 94.82 9.39
4/15/2021 6:45:00 AM 11.76 53.168 0.25 7.79 97.29 9.03
4/15/2021 7:00:00 AM 11.75 53.15 0.25 7.81 96.38 9.03
4/15/2021 7:15:00 AM 11.75 53.15 0.25 7.79 96.68 9.05
4/15/2021 7:30:00 AM 11.75 53.15 0.251 7.77 95.11 9.14
4/15/2021 7:45:00 AM 11.76 53.168 0.251 7.81 95.07 9.06
4/15/2021 8:00:00 AM 11.77 53.186 0.251 7.82 101.5 9.12
4/15/2021 8:15:00 AM 11.78 53.204 0.251 7.83 101.5 9.05
4/15/2021 8:30:00 AM 11.8 53.24 0.251 7.83 118.5 9.12
4/15/2021 8:45:00 AM 11.82 53.276 0.251 7.83 108.1 9.13
4/15/2021 9:00:00 AM 11.84 53.312 0.251 7.84 108.3 9.06
4/15/2021 9:15:00 AM 11.86 53.348 0.252 7.84 106.1 9.14
4/15/2021 9:30:00 AM 11.88 53.384 0.252 7.85 140.2 9.16
4/15/2021 9:45:00 AM 11.9 53.42 0.253 7.85 122.4 9.09
4/15/2021 10:00:00 AM 11.91 53.438 0.232 7.85 106.3 9.11
4/15/2021 10:15:00 AM 11.93 53.474 0.195 7.85 106.3 9.17
4/15/2021 10:30:00 AM 11.97 53.546 0.256 7.86 106.8 9.18
4/15/2021 10:45:00 AM 12.03 53.654 0.248 7.86 106.5 8.98
4/15/2021 11:00:00 AM 12.09 53.762 0.245 7.87 101.3 8.65
4/15/2021 11:15:00 AM 12.16 53.888 0.245 7.88 100.1 8.91
4/15/2021 11:30:00 AM 12.19 53.942 0.18 7.88 101.9 8.87
4/15/2021 11:45:00 AM 12.18 53.924 0.17 7.89 101.3 8.95
4/15/2021 12:00:00 PM 12.16 53.888 0.253 7.89 99.64 9.38
4/15/2021 12:15:00 PM 12.15 53.87 0.253 7.89 100.6 6.7
4/15/2021 12:30:00 PM 12.16 53.888 0.253 7.89 105.3 8.81
4/15/2021 12:45:00 PM 12.17 53.906 0.253 7.89 102.7 9.14
4/15/2021 1:00:00 PM 12.2 53.96 0.174 7.89 99.48 9.13
4/15/2021 1:15:00 PM 12.26 54.068 0.254 7.9 102.6 9.23
4/15/2021 1:30:00 PM 12.29 54.122 0.254 7.9 98.83 8.7
4/15/2021 1:45:00 PM 12.37 54.266 0.254 7.91 103.2 8.13
4/15/2021 2:00:00 PM 12.52 54.536 0.254 7.92 100.8 5.73
4/15/2021 2:15:00 PM 12.65 54.77 0.255 7.93 102.4 3.59
4/15/2021 2:30:00 PM 12.76 54.968 0.255 7.94 109.5 2.66
4/15/2021 2:45:00 PM 12.85 55.13 0.255 7.95 107.4 2.61
4/15/2021 3:00:00 PM 12.79 55.022 0.255 7.95 109.2 2.61
4/15/2021 3:15:00 PM 12.75 54.95 0.255 7.95 110 2.79
4/15/2021 3:30:00 PM 12.73 54.914 0.255 7.96 109 3.94
4/15/2021 3:45:00 PM 12.77 54.986 0.255 7.97 103.6 5.49
4/15/2021 4:00:00 PM 12.86 55.148 0.256 7.98 104.7 5.59
4/15/2021 4:15:00 PM 12.95 55.31 0.256 7.99 105.7 6.02
4/15/2021 4:30:00 PM 13.07 55.526 0.256 8 105.7 6.72
4/15/2021 4:45:00 PM 13.21 55.778 0.256 8.01 101.1 6.8
4/15/2021 5:00:00 PM 13.22 55.796 0.256 8.01 101.4 6.38
4/15/2021 5:15:00 PM 13.23 55.814 0.256 8.01 100.6 6.03
4/15/2021 5:30:00 PM 13.28 55.904 0.256 8.01 99.18 6.16
4/15/2021 5:45:00 PM 13.22 55.796 0.256 8 106.8 6.21
4/15/2021 6:00:00 PM 13.19 55.742 0.256 8 110.4 6.14
4/15/2021 6:15:00 PM 13.17 55.706 0.256 8 105.1 7.05
4/15/2021 6:30:00 PM 13.12 55.616 0.257 8 105 8.4
4/15/2021 6:45:00 PM 13.08 55.544 0.257 8 107.5 9.01
4/15/2021 7:00:00 PM 13.06 55.508 0.257 8 106 8.3
4/15/2021 7:15:00 PM 13.03 55.454 0.257 8 107.5 8.25
4/15/2021 7:30:00 PM 13.03 55.454 0.258 7.99 108.9 8.29
4/15/2021 7:45:00 PM 13.03 55.454 0.258 7.99 108.8 8.67
4/15/2021 8:00:00 PM 13.05 55.49 0.258 7.99 111.9 7.98
4/15/2021 8:15:00 PM 13.05 55.49 0.259 7.99 111 6.98
4/15/2021 8:30:00 PM 13.05 55.49 0.26 7.99 112.3 7.27
4/15/2021 8:45:00 PM 13.06 55.508 0.27 7.99 112.3 7.17
4/15/2021 9:00:00 PM 13.04 55.472 0.259 7.98 114.8 7.94
4/15/2021 9:15:00 PM 13.06 55.508 0.259 7.98 114.9 7.63
4/15/2021 9:30:00 PM 13.02 55.436 0.259 7.98 113.1 7.45
4/15/2021 9:45:00 PM 13 55.4 0.259 7.98 115.2 7.33
4/15/2021 10:00:00 PM 12.95 55.31 0.259 7.98 117.2 7.8
4/15/2021 10:15:00 PM 12.89 55.202 0.259 7.97 115.1 9.05
4/15/2021 10:30:00 PM 12.84 55.112 0.26 7.97 120.5 8.98
4/15/2021 10:45:00 PM 12.78 55.004 0.26 7.97 117.5 8.74
4/15/2021 11:00:00 PM 12.72 54.896 0.26 7.97 118.9 8.99
4/15/2021 11:15:00 PM 12.66 54.788 0.26 7.97 117.1 8.72
4/15/2021 11:30:00 PM 12.61 54.698 0.26 7.96 120.1 9.27
4/15/2021 11:45:00 PM 12.55 54.59 0.26 7.96 120.1 9.16
4/16/2021 12:00:00 AM 12.5 54.5 0.26 7.96 121.4 9.13
4/16/2021 12:15:00 AM 12.44 54.392 0.261 7.95 120.8 9.12
4/16/2021 12:30:00 AM 12.38 54.284 0.261 7.95 121.6 9.24
4/16/2021 12:45:00 AM 12.32 54.176 0.261 7.95 123.9 9.33
4/16/2021 1:00:00 AM 12.28 54.104 0.261 7.95 124.4 9.25
4/16/2021 1:15:00 AM 12.24 54.032 0.262 7.94 124.4 9.2
4/16/2021 1:30:00 AM 12.21 53.978 0.262 7.94 124.8 9.29
4/16/2021 1:45:00 AM 12.18 53.924 0.262 7.93 125.5 9.12
4/16/2021 2:00:00 AM 12.17 53.906 0.262 7.93 124 9.19
4/16/2021 2:15:00 AM 12.14 53.852 0.263 7.93 122.7 9.26
4/16/2021 2:30:00 AM 12.12 53.816 0.263 7.93 123.4 9.31
4/16/2021 2:45:00 AM 12.11 53.798 0.263 7.93 125.7 9.24
4/16/2021 3:00:00 AM 12.09 53.762 0.263 7.92 124.4 9.28
4/16/2021 3:15:00 AM 12.08 53.744 0.263 7.92 122.1 9.21
4/16/2021 3:30:00 AM 12.05 53.69 0.264 7.91 119.1 9.07
4/16/2021 3:45:00 AM 12.04 53.672 0.264 7.91 115.5 8.72
4/16/2021 4:00:00 AM 12.02 53.636 0.264 7.91 114.4 8.59
4/16/2021 4:15:00 AM 12 53.6 0.264 7.91 117.3 8.65
4/16/2021 4:30:00 AM 11.98 53.564 0.264 7.91 118.6 8.98
4/16/2021 4:45:00 AM 11.96 53.528 0.264 7.91 123.8 9.13
4/16/2021 5:00:00 AM 11.92 53.456 0.265 7.91 123 9.19
4/16/2021 5:15:00 AM 11.88 53.384 0.265 7.91 123.5 9.33
4/16/2021 5:30:00 AM 11.84 53.312 0.265 7.91 123.9 9.43
4/16/2021 5:45:00 AM 11.8 53.24 0.266 7.91 126.2 9.39
4/16/2021 6:00:00 AM 11.75 53.15 0.266 7.91 124.4 9.27
4/16/2021 6:15:00 AM 11.71 53.078 0.266 7.91 127.8 9.26
4/16/2021 6:30:00 AM 11.66 52.988 0.266 7.91 123.5 8.38
4/16/2021 6:45:00 AM 11.63 52.934 0.266 7.9 122.7 7.74
4/16/2021 7:00:00 AM 11.59 52.862 0.266 7.91 125.9 8.26
4/16/2021 7:15:00 AM 11.57 52.826 0.267 7.9 126.4 7.86
4/16/2021 7:30:00 AM 11.54 52.772 0.267 7.91 126.5 8.83
4/16/2021 7:45:00 AM 11.52 52.736 0.267 7.91 126 8
4/16/2021 8:00:00 AM 11.49 52.682 0.267 7.91 126.7 8.66
4/16/2021 8:15:00 AM 11.47 52.646 0.267 7.91 131 8.98
4/16/2021 8:30:00 AM 11.46 52.628 0.268 7.91 134.9 8.7
4/16/2021 8:45:00 AM 11.45 52.61 0.268 7.92 128.6 9.26
4/16/2021 9:00:00 AM 11.46 52.628 0.268 7.92 129.1 9.07
4/16/2021 9:15:00 AM 11.47 52.646 0.268 7.93 128.1 9.24
4/16/2021 9:30:00 AM 11.47 52.646 0.268 7.93 129.4 9.35
4/16/2021 9:45:00 AM 11.46 52.628 0.268 7.93 135.3 9.35
4/16/2021 10:00:00 AM 11.47 52.646 0.268 7.94 133.1 9.62
4/16/2021 10:15:00 AM 11.48 52.664 0.268 7.88 130.1 9.47
4/16/2021 10:30:00 AM 11.49 52.682 0.268 7.94 130.6 9.08
4/16/2021 10:45:00 AM 11.52 52.736 0.269 7.95 129.8 9.33
4/16/2021 11:00:00 AM 11.52 52.736 0.269 7.96 129.4 9.37
4/16/2021 11:15:00 AM 11.54 52.772 0.269 7.96 130.2 8.95
4/16/2021 11:30:00 AM 11.56 52.808 0.269 7.97 125.8 9.26
4/16/2021 11:45:00 AM 11.57 52.826 0.269 7.97 129.3 9.18
4/16/2021 12:00:00 PM 11.62 52.916 0.269 7.98 126.6 9.42
4/16/2021 12:15:00 PM 11.65 52.97 0.269 7.97 125.1 8.84
4/16/2021 12:30:00 PM 11.73 53.114 0.27 7.98 122 9.05
4/16/2021 12:45:00 PM 11.83 53.294 0.27 7.99 123.2 9.06
4/16/2021 1:00:00 PM 11.91 53.438 0.27 7.99 117.7 9.31
4/16/2021 1:15:00 PM 12.04 53.672 0.27 8 119.6 8.68
4/16/2021 1:30:00 PM 12.19 53.942 0.27 8.01 119.7 8.45
4/16/2021 1:45:00 PM 12.27 54.086 0.27 8.02 122 7.3
4/16/2021 2:00:00 PM 12.4 54.32 0.27 8.03 127 8.81
4/16/2021 2:15:00 PM 12.53 54.554 0.27 8.03 135.4 8.94
4/16/2021 2:30:00 PM 12.66 54.788 0.27 8.05 122.3 8.42
4/16/2021 2:45:00 PM 12.73 54.914 0.27 8.04 131.6 7.82
4/16/2021 3:00:00 PM 12.69 54.842 0.269 8.05 134.7 6.1
4/16/2021 3:15:00 PM 12.68 54.824 0.269 8.05 141 4.4
4/16/2021 3:30:00 PM 12.67 54.806 0.27 8.06 150.3 4.53
4/16/2021 3:45:00 PM 12.63 54.734 0.27 8.06 146.3 2.38
4/16/2021 4:00:00 PM 12.67 54.806 0.27 8.07 137.7 1.07
4/16/2021 4:15:00 PM 12.82 55.076 0.27 8.08 135.1 0.39
4/16/2021 4:30:00 PM 12.87 55.166 0.27 8.08 140.3 0.21
4/16/2021 4:45:00 PM 12.94 55.292 0.271 8.08 162.3 0.16
4/16/2021 5:00:00 PM 12.98 55.364 0.271 8.08 138.5 0.58
4/16/2021 5:15:00 PM 12.96 55.328 0.271 8.09 150.1 0.46
4/16/2021 5:30:00 PM 12.95 55.31 0.271 8.09 166.2 0.58
4/16/2021 5:45:00 PM 12.9 55.22 0.272 8.09 161.9 0.22
4/16/2021 6:00:00 PM 12.87 55.166 0.271 8.09 166.7 0.13
4/16/2021 6:15:00 PM 12.87 55.166 0.271 8.09 175.4 0.39
4/16/2021 6:30:00 PM 12.86 55.148 0.272 8.09 175.6 0.47
4/16/2021 6:45:00 PM 12.86 55.148 0.272 8.08 177.8 0.59
4/16/2021 7:00:00 PM 12.86 55.148 0.272 8.08 180.4 0.93
4/16/2021 7:15:00 PM 12.87 55.166 0.272 8.07 186.9 0.72
4/16/2021 7:30:00 PM 12.86 55.148 0.273 8.07 194.2 0.74
4/16/2021 7:45:00 PM 12.86 55.148 0.273 8.07 192.1 1.85
4/16/2021 8:00:00 PM 12.85 55.13 0.273 8.06 204.3 1.12
4/16/2021 8:15:00 PM 12.83 55.094 0.247 8.07 204.1 3.77
4/16/2021 8:30:00 PM 12.8 55.04 0.259 8.06 201.8 2.28
4/16/2021 8:45:00 PM 12.75 54.95 0.259 8.06 203.9 3.1
4/16/2021 9:00:00 PM 12.71 54.878 0.253 8.06 202.1 4.28
4/16/2021 9:15:00 PM 12.66 54.788 0.267 8.05 204.6 4.71
4/16/2021 9:30:00 PM 12.61 54.698 0.269 8.05 205.8 6.78
4/16/2021 9:45:00 PM 12.57 54.626 0.268 8.05 206.5 6.61
4/16/2021 10:00:00 PM 12.53 54.554 0.268 8.05 204.3 6.54
4/16/2021 10:15:00 PM 12.47 54.446 0.266 8.04 202.6 6.34
4/16/2021 10:30:00 PM 12.41 54.338 0.265 8.04 205.9 6.61
4/16/2021 10:45:00 PM 12.35 54.23 0.269 8.04 204.3 5.46
4/16/2021 11:00:00 PM 12.29 54.122 0.268 8.04 201.8 4.13
4/16/2021 11:15:00 PM 12.24 54.032 0.269 8.04 204 3.61
4/16/2021 11:30:00 PM 12.17 53.906 0.268 8.03 201.8 4.4
4/16/2021 11:45:00 PM 12.1 53.78 0.266 8.03 201.9 4.26
4/17/2021 12:00:00 AM 12.03 53.654 0.267 8.02 203.7 4.04
4/17/2021 12:15:00 AM 11.96 53.528 0.268 8.01 204.4 4.35
4/17/2021 12:30:00 AM 11.88 53.384 0.268 8.01 203.6 4.24
4/17/2021 12:45:00 AM 11.81 53.258 0.269 8.01 207.4 4.35
4/17/2021 1:00:00 AM 11.74 53.132 0.267 8 208.1 6.22
4/17/2021 1:15:00 AM 11.68 53.024 0.27 8 206.6 8.69
4/17/2021 1:30:00 AM 11.61 52.898 0.262 8 207.7 9.18
4/17/2021 1:45:00 AM 11.55 52.79 0.262 7.99 209.4 9.33
4/17/2021 2:00:00 AM 11.49 52.682 0.266 7.99 209.8 9.37
4/17/2021 2:15:00 AM 11.43 52.574 0.267 7.99 205.3 9.41
4/17/2021 2:30:00 AM 11.37 52.466 0.266 7.98 200.4 9.42
4/17/2021 2:45:00 AM 11.3 52.34 0.266 7.98 208.7 9.25
4/17/2021 3:00:00 AM 11.24 52.232 0.267 7.97 208.5 9.5
4/17/2021 3:15:00 AM 11.17 52.106 0.268 7.97 207.6 8.55
4/17/2021 3:30:00 AM 11.11 51.998 0.268 7.97 204.2 8.22
4/17/2021 3:45:00 AM 11.06 51.908 0.278 7.96 203.8 8.59
4/17/2021 4:00:00 AM 11.01 51.818 0.278 7.95 205.5 8.69
4/17/2021 4:15:00 AM 10.96 51.728 0.278 7.95 201.6 9.22
4/17/2021 4:30:00 AM 10.91 51.638 0.279 7.95 201.7 9.04
4/17/2021 4:45:00 AM 10.86 51.548 0.279 7.95 208.6 9.03
4/17/2021 5:00:00 AM 10.82 51.476 0.279 7.95 203.3 9.17
4/17/2021 5:15:00 AM 10.77 51.386 0.28 7.95 209 9
4/17/2021 5:30:00 AM 10.73 51.314 0.28 7.95 205.5 9.09
4/17/2021 5:45:00 AM 10.69 51.242 0.28 7.95 202.2 8.9
4/17/2021 6:00:00 AM 10.65 51.17 0.281 7.94 203.7 8.85
4/17/2021 6:15:00 AM 10.61 51.098 0.281 7.95 204.6 9.13
4/17/2021 6:30:00 AM 10.57 51.026 0.281 7.95 208 9.09
4/17/2021 6:45:00 AM 10.53 50.954 0.281 7.93 208.1 8.83
4/17/2021 7:00:00 AM 10.5 50.9 0.281 7.94 212 7.3
4/17/2021 7:15:00 AM 10.48 50.864 0.281 7.94 201.4 7.97
4/17/2021 7:30:00 AM 10.46 50.828 0.281 7.94 197.9 6.65
4/17/2021 7:45:00 AM 10.44 50.792 0.282 7.94 203.4 6.18
4/17/2021 8:00:00 AM 10.42 50.756 0.282 7.95 202.9 6.87
4/17/2021 8:15:00 AM 10.4 50.72 0.282 7.95 200.2 6.43
4/17/2021 8:30:00 AM 10.37 50.666 0.282 7.95 198.4 6.96
4/17/2021 8:45:00 AM 10.35 50.63 0.283 7.95 202 9.55
4/17/2021 9:00:00 AM 10.33 50.594 0.283 7.96 200.1 9.78
4/17/2021 9:15:00 AM 10.3 50.54 0.283 7.96 200.9 9.83
4/17/2021 9:30:00 AM 10.28 50.504 0.282 7.96 199.8 9.92
4/17/2021 9:45:00 AM 10.26 50.468 0.283 7.96 207.5 9.97
4/17/2021 10:00:00 AM 10.26 50.468 0.283 7.96 205.5 9.97
4/17/2021 10:15:00 AM 10.28 50.504 0.283 7.96 203.9 10.03
4/17/2021 10:30:00 AM 10.3 50.54 0.283 7.97 202 9.64
4/17/2021 10:45:00 AM 10.4 50.72 0.283 7.97 202.5 10.14
4/17/2021 11:00:00 AM 10.37 50.666 0.283 7.98 207.6 10.07
4/17/2021 11:15:00 AM 10.43 50.774 0.283 7.99 206.3 9.96
4/17/2021 11:30:00 AM 10.47 50.846 0.284 7.99 205.4 10.22
4/17/2021 11:45:00 AM 10.53 50.954 0.284 8 203.5 10.24
4/17/2021 12:00:00 PM 10.58 51.044 0.284 8 195.4 10.28
4/17/2021 12:15:00 PM 10.66 51.188 0.284 8 200.2 10.26
4/17/2021 12:30:00 PM 10.74 51.332 0.284 8.01 199.2 10.32
4/17/2021 12:45:00 PM 10.75 51.35 0.284 8.02 199 10.21
4/17/2021 1:00:00 PM 10.73 51.314 0.284 8.02 199.1 10.09
4/17/2021 1:15:00 PM 10.79 51.422 0.284 8.02 199.3 9.96
4/17/2021 1:30:00 PM 10.88 51.584 0.284 8.03 197.6 9.85
4/17/2021 1:45:00 PM 10.92 51.656 0.284 8.03 197 9.24
4/17/2021 2:00:00 PM 11.04 51.872 0.284 8.03 194.4 9.69
4/17/2021 2:15:00 PM 11.22 52.196 0.284 8.04 206.2 9.77
4/17/2021 2:30:00 PM 11.45 52.61 0.284 8.04 196.8 10.21
4/17/2021 2:45:00 PM 11.55 52.79 0.284 8.05 199.4 10.33
4/17/2021 3:00:00 PM 11.6 52.88 0.284 8.05 204.6 10.34
4/17/2021 3:15:00 PM 11.61 52.898 0.284 8.06 205 10.01
4/17/2021 3:30:00 PM 11.57 52.826 0.284 8.07 197 10.08
4/17/2021 3:45:00 PM 11.55 52.79 0.284 8.07 193.3 10
4/17/2021 4:00:00 PM 11.58 52.844 0.284 8.07 194.9 10.34
4/17/2021 4:15:00 PM 11.62 52.916 0.284 8.08 193.2 9.88
4/17/2021 4:30:00 PM 11.71 53.078 0.285 8.08 199.8 9.83
4/17/2021 4:45:00 PM 11.75 53.15 0.285 8.1 196.8 9.73
4/17/2021 5:00:00 PM 11.79 53.222 0.285 8.1 194 9.34
4/17/2021 5:15:00 PM 11.81 53.258 0.285 8.11 195.7 8.88
4/17/2021 5:30:00 PM 11.85 53.33 0.286 8.11 191.7 9.37
4/17/2021 5:45:00 PM 11.87 53.366 0.285 8.11 198.4 9.62
4/17/2021 6:00:00 PM 11.88 53.384 0.285 8.12 196.1 9.3
4/17/2021 6:15:00 PM 11.89 53.402 0.285 8.11 196 7.95
4/17/2021 6:30:00 PM 11.89 53.402 0.285 8.12 204.6 8.4
4/17/2021 6:45:00 PM 11.89 53.402 0.286 8.11 148.3 9.44
4/17/2021 7:00:00 PM 11.92 53.456 0.286 8.11 187.9 9.42
4/17/2021 7:15:00 PM 11.96 53.528 0.286 8.11 185.7 5.84
4/17/2021 7:30:00 PM 11.99 53.582 0.286 8.11 240.8 8.69
4/17/2021 7:45:00 PM 12.03 53.654 0.286 8.1 178.7 8.72
4/17/2021 8:00:00 PM 12.06 53.708 0.287 8.1 172.4 9.33
4/17/2021 8:15:00 PM 12.1 53.78 0.287 8.1 232.6 6.43
4/17/2021 8:30:00 PM 12.14 53.852 0.288 8.09 224.2 3.19
4/17/2021 8:45:00 PM 12.17 53.906 0.288 8.09 215.5 2.19
4/17/2021 9:00:00 PM 12.21 53.978 0.288 8.09 225.3 2.88
4/17/2021 9:15:00 PM 12.23 54.014 0.288 8.1 216.5 2.16
4/17/2021 9:30:00 PM 12.24 54.032 0.288 8.09 246.4 0.95
4/17/2021 9:45:00 PM 12.25 54.05 0.288 8.08 165 1.99
4/17/2021 10:00:00 PM 12.24 54.032 0.288 8.09 215.5 1.83
4/17/2021 10:15:00 PM 12.22 53.996 0.288 8.09 177.9 5.13
4/17/2021 10:30:00 PM 12.21 53.978 0.288 8.09 181.8 3.03
4/17/2021 10:45:00 PM 12.21 53.978 0.288 8.09 184.4 4.19
4/17/2021 11:00:00 PM 12.21 53.978 0.288 8.09 180 5.68
4/17/2021 11:15:00 PM 12.2 53.96 0.288 8.08 172.2 4.87
4/17/2021 11:30:00 PM 12.17 53.906 0.288 8.08 191.3 2.97
4/17/2021 11:45:00 PM 12.15 53.87 0.288 8.08 193.5 3.17
4/18/2021 12:00:00 AM 12.11 53.798 0.288 8.08 192 2.26
4/18/2021 12:15:00 AM 12.07 53.726 0.288 8.07 198.9 3.47
4/18/2021 12:30:00 AM 12.02 53.636 0.288 8.07 201.9 2.73
4/18/2021 12:45:00 AM 11.98 53.564 0.288 8.07 200 1.63
4/18/2021 1:00:00 AM 11.94 53.492 0.288 8.07 204.5 4.1
4/18/2021 1:15:00 AM 11.89 53.402 0.289 8.06 208.5 3.8
4/18/2021 1:30:00 AM 11.85 53.33 0.288 8.06 199.2 2.37
4/18/2021 1:45:00 AM 11.81 53.258 0.282 8.05 218.4 2.53
4/18/2021 2:00:00 AM 11.77 53.186 0.289 8.05 228.1 3.28
4/18/2021 2:15:00 AM 11.73 53.114 0.288 8.04 163 3
4/18/2021 2:30:00 AM 11.69 53.042 0.289 8.04 151.7 2.19
4/18/2021 2:45:00 AM 11.66 52.988 0.289 8.03 166.4 2.79
4/18/2021 3:00:00 AM 11.62 52.916 0.29 8.02 172.7 3.36
4/18/2021 3:15:00 AM 11.59 52.862 0.29 8.02 180.8 3.03
4/18/2021 3:30:00 AM 11.56 52.808 0.291 8.01 147.8 3.94
4/18/2021 3:45:00 AM 11.54 52.772 0.278 8.01 157.8 3.15
4/18/2021 4:00:00 AM 11.52 52.736 0.291 8.01 144.9 2.6
4/18/2021 4:15:00 AM 11.5 52.7 0.291 8.01 151.3 1.27
4/18/2021 4:30:00 AM 11.48 52.664 0.291 8 158.9 1.69
4/18/2021 4:45:00 AM 11.47 52.646 0.291 8 152.9 1.38
4/18/2021 5:00:00 AM 11.44 52.592 0.292 8 154.9 1.12
4/18/2021 5:15:00 AM 11.4 52.52 0.292 7.99 156 1.68
4/18/2021 5:30:00 AM 11.36 52.448 0.292 7.99 154.8 1.24
4/18/2021 5:45:00 AM 11.32 52.376 0.292 7.99 156.6 1.08
4/18/2021 6:00:00 AM 11.28 52.304 0.292 7.98 156.7 2.54
4/18/2021 6:15:00 AM 11.23 52.214 0.292 7.97 158.4 1.59
4/18/2021 6:30:00 AM 11.17 52.106 0.293 7.98 160.7 0.48
4/18/2021 6:45:00 AM 11.13 52.034 0.293 7.97 159.7 0.27
4/18/2021 7:00:00 AM 11.08 51.944 0.293 7.98 159.4 0.28
4/18/2021 7:15:00 AM 11.04 51.872 0.293 7.98 156.4 0.17
4/18/2021 7:30:00 AM 11.01 51.818 0.293 7.98 159.8 0.12
4/18/2021 7:45:00 AM 10.98 51.764 0.294 7.98 167.5 0.3
4/18/2021 8:00:00 AM 10.96 51.728 0.294 7.98 158.6 0.6
4/18/2021 8:15:00 AM 10.95 51.71 0.294 7.98 155.6 0.43
4/18/2021 8:30:00 AM 10.95 51.71 0.294 7.99 155.5 0.14
4/18/2021 8:45:00 AM 10.95 51.71 0.294 7.99 158.1 0.15
4/18/2021 9:00:00 AM 10.97 51.746 0.294 8 162.1 0.39
4/18/2021 9:15:00 AM 10.99 51.782 0.292 8 158.9 0.43
4/18/2021 9:30:00 AM 11.02 51.836 0.296 8.01 156.7 0.5
4/18/2021 9:45:00 AM 11.05 51.89 0.295 8.02 157.5 0.57
4/18/2021 10:00:00 AM 11.1 51.98 0.296 8.02 141.4 0.44
4/18/2021 10:15:00 AM 11.15 52.07 0.295 8.02 137.3 0.6
4/18/2021 10:30:00 AM 11.21 52.178 0.256 8.03 141.5 0.48
4/18/2021 10:45:00 AM 11.27 52.286 0.297 8.03 137.4 0.2
4/18/2021 11:00:00 AM 11.34 52.412 0.297 8.04 136 0.12
4/18/2021 11:15:00 AM 11.43 52.574 0.297 8.05 137.9 0.45
4/18/2021 11:30:00 AM 11.56 52.808 0.298 8.05 132.6 0.2
4/18/2021 11:45:00 AM 11.58 52.844 0.298 8.06 134.8 0.02
4/18/2021 12:00:00 PM 11.7 53.06 0.256 8.06 115.9 0.05
4/18/2021 12:15:00 PM 11.8 53.24 0.277 8.06 188.6 0
4/18/2021 12:30:00 PM 11.81 53.258 0.264 8.06 163.5 0
4/18/2021 12:45:00 PM 11.82 53.276 0.263 8.07 175.2 0.57
4/18/2021 1:00:00 PM 11.81 53.258 0.26 8.07 162 1.58
4/18/2021 1:15:00 PM 11.81 53.258 0.244 8.06 163.1 0.33
4/18/2021 1:30:00 PM 11.86 53.348 0.272 8.07 165.6 0
4/18/2021 1:45:00 PM 11.89 53.402 0.247 8.07 191.2 0.02
4/18/2021 2:00:00 PM 11.88 53.384 0.258 8.08 184.7 0.05
4/18/2021 2:15:00 PM 11.89 53.402 0.267 8.09 177.4 0
4/18/2021 2:30:00 PM 11.94 53.492 0.26 8.09 173.1 0
4/18/2021 2:45:00 PM 12.01 53.618 0.271 8.1 172.9 0
4/18/2021 3:00:00 PM 12.08 53.744 0.259 8.1 175.9 0
4/18/2021 3:15:00 PM 12.15 53.87 0.26 8.11 176.8 0
4/18/2021 3:30:00 PM 12.2 53.96 0.268 8.11 383.6 0
4/18/2021 3:45:00 PM 12.24 54.032 0.266 8.12 351.8 0.01
4/18/2021 4:00:00 PM 12.28 54.104 0.267 8.13 174.6 0.07
4/18/2021 4:15:00 PM 12.31 54.158 0.265 8.14 150.2 0.16
4/18/2021 4:30:00 PM 12.35 54.23 0.26 8.14 108 2.66
4/18/2021 4:45:00 PM 12.38 54.284 0.254 8.15 107 3
4/18/2021 5:00:00 PM 12.41 54.338 0.264 8.15 154.8 2.28
4/18/2021 5:15:00 PM 12.45 54.41 0.278 8.15 153.7 1.87
4/18/2021 5:30:00 PM 12.51 54.518 0.278 8.16 152.3 2.26
4/18/2021 5:45:00 PM 12.57 54.626 0.25 8.17 147.6 2.33
4/18/2021 6:00:00 PM 12.59 54.662 0.267 8.17 147.3 2.78
4/18/2021 6:15:00 PM 12.59 54.662 0.25 8.17 153.4 2.55
4/18/2021 6:30:00 PM 12.59 54.662 0.259 8.17 156.1 2.56
4/18/2021 6:45:00 PM 12.6 54.68 0.245 8.17 152.2 2.65
4/18/2021 7:00:00 PM 12.6 54.68 0.249 8.17 144.5 2.61
4/18/2021 7:15:00 PM 12.62 54.716 0.287 8.16 156 2.59
4/18/2021 7:30:00 PM 12.63 54.734 0.291 8.16 144 2.11
4/18/2021 7:45:00 PM 12.64 54.752 0.283 8.15 153.7 2.2
4/18/2021 8:00:00 PM 12.64 54.752 0.292 8.15 152.1 1.99
4/18/2021 8:15:00 PM 12.64 54.752 0.282 8.14 116.2 1.53
4/18/2021 8:30:00 PM 12.64 54.752 0.26 8.13 135.2 1.43
4/18/2021 8:45:00 PM 12.63 54.734 0.272 8.13 136.6 1.16
4/18/2021 9:00:00 PM 12.61 54.698 0.261 8.13 127.7 1.02
4/18/2021 9:15:00 PM 12.59 54.662 0.248 8.12 169.8 0.92
4/18/2021 9:30:00 PM 12.57 54.626 0.273 8.12 183.6 0.79
4/18/2021 9:45:00 PM 12.55 54.59 0.289 8.12 186.6 0.79
4/18/2021 10:00:00 PM 12.54 54.572 0.271 8.11 149.2 0.88
4/18/2021 10:15:00 PM 12.51 54.518 0.303 8.12 189.1 1.02
4/18/2021 10:30:00 PM 12.47 54.446 0.303 8.12 174.4 0.93
4/18/2021 10:45:00 PM 12.44 54.392 0.303 8.11 199.7 0.76
4/18/2021 11:00:00 PM 12.41 54.338 0.303 8.12 189.1 0.58
4/18/2021 11:15:00 PM 12.38 54.284 0.303 8.11 184.8 0.53
4/18/2021 11:30:00 PM 12.35 54.23 0.304 8.11 184 0.29
4/18/2021 11:45:00 PM 12.32 54.176 0.304 8.11 185.6 0.31
4/19/2021 12:00:00 AM 12.3 54.14 0.304 8.12 171.1 0.29
4/19/2021 12:15:00 AM 12.26 54.068 0.304 8.11 175.4 0.31
4/19/2021 12:30:00 AM 12.23 54.014 0.304 8.11 175.1 0.4
4/19/2021 12:45:00 AM 12.2 53.96 0.304 8.1 175.9 0.25
4/19/2021 1:00:00 AM 12.17 53.906 0.304 8.1 176.9 0.4
4/19/2021 1:15:00 AM 12.14 53.852 0.304 8.1 179.3 0.33
4/19/2021 1:30:00 AM 12.12 53.816 0.304 8.09 175.7 0.21
4/19/2021 1:45:00 AM 12.09 53.762 0.304 8.08 161.2 0.32
4/19/2021 2:00:00 AM 12.07 53.726 0.304 8.08 172.6 0.28
4/19/2021 2:15:00 AM 12.04 53.672 0.304 8.07 180.6 1.06
4/19/2021 2:30:00 AM 12.02 53.636 0.305 8.06 180 1.32
4/19/2021 2:45:00 AM 11.98 53.564 0.305 8.06 177.1 1.07
4/19/2021 3:00:00 AM 11.94 53.492 0.305 8.05 180.3 0.76
4/19/2021 3:15:00 AM 11.9 53.42 0.305 8.05 170.5 0.74
4/19/2021 3:30:00 AM 11.85 53.33 0.305 8.04 158.5 0.8
4/19/2021 3:45:00 AM 11.81 53.258 0.304 8.04 173.5 0.9
4/19/2021 4:00:00 AM 11.77 53.186 0.305 8.03 177.1 0.99
4/19/2021 4:15:00 AM 11.71 53.078 0.305 8.03 159.9 0.7
4/19/2021 4:30:00 AM 11.66 52.988 0.305 8.03 175.6 0.74
4/19/2021 4:45:00 AM 11.61 52.898 0.305 8.02 186.1 1.02
4/19/2021 5:00:00 AM 11.56 52.808 0.306 8.02 190.5 1.06
4/19/2021 5:15:00 AM 11.51 52.718 0.306 8.01 183.9 0.6
4/19/2021 5:30:00 AM 11.47 52.646 0.306 8.01 193.3 0.74
4/19/2021 5:45:00 AM 11.43 52.574 0.306 8.01 187.6 0.49
4/19/2021 6:00:00 AM 11.39 52.502 0.302 8 183.6 0.43
4/19/2021 6:15:00 AM 11.35 52.43 0.307 8 179.2 0.29
4/19/2021 6:30:00 AM 11.32 52.376 0.307 8 171.4 0.94
4/19/2021 6:45:00 AM 11.29 52.322 0.307 8 177.5 0.93
4/19/2021 7:00:00 AM 11.28 52.304 0.307 7.99 160.9 1.19
4/19/2021 7:15:00 AM 11.26 52.268 0.307 7.99 143.5 0.58
4/19/2021 7:30:00 AM 11.25 52.25 0.307 7.99 143.8 0.57
4/19/2021 7:45:00 AM 11.27 52.286 0.307 7.99 111 0.23
4/19/2021 8:00:00 AM 11.3 52.34 0.307 8 205.8 0.85
4/19/2021 8:15:00 AM 11.33 52.394 0.307 8 198.8 1.74
4/19/2021 8:30:00 AM 11.37 52.466 0.308 8 190.6 1.33
4/19/2021 8:45:00 AM 11.41 52.538 0.308 8.01 179.4 1.03
4/19/2021 9:00:00 AM 11.45 52.61 0.308 8.02 177.6 0.99
4/19/2021 9:15:00 AM 11.5 52.7 0.308 8.03 70.44 1.16
4/19/2021 9:30:00 AM 11.56 52.808 0.308 8.04 78.4 1.52
4/19/2021 9:45:00 AM 11.59 52.862 0.308 8.05 77.72 1.71
4/19/2021 10:00:00 AM 11.62 52.916 0.308 8.05 77.87 1.47
4/19/2021 10:15:00 AM 11.65 52.97 0.308 8.06 80.78 1.61
4/19/2021 10:30:00 AM 11.68 53.024 0.286 8.06 143.7 1.74
4/19/2021 10:45:00 AM 11.69 53.042 0.271 8.07 163.5 1.77
4/19/2021 11:00:00 AM 11.73 53.114 0.27 8.07 146.7 1.43
4/19/2021 11:15:00 AM 11.78 53.204 0.308 8.08 186.4 1.28
4/19/2021 11:30:00 AM 11.82 53.276 0.309 8.08 202.4 1.43
4/19/2021 11:45:00 AM 11.88 53.384 0.309 8.08 200.5 0.73
4/19/2021 12:00:00 PM 11.95 53.51 0.309 8.08 202.4 0.37
4/19/2021 12:15:00 PM 12.06 53.708 0.309 8.09 204.8 0.33
4/19/2021 12:30:00 PM 12.09 53.762 0.309 8.1 206.5 0.21
4/19/2021 12:45:00 PM 12.17 53.906 0.309 8.1 213.8 0.2
4/19/2021 1:00:00 PM 12.36 54.248 0.309 8.1 179.7 0.18
4/19/2021 1:15:00 PM 12.33 54.194 0.309 8.1 218.1 0.19
4/19/2021 1:30:00 PM 12.26 54.068 0.31 8.11 229.7 0.33
4/19/2021 1:45:00 PM 12.29 54.122 0.309 8.11 196.2 0.55
4/19/2021 2:00:00 PM 12.38 54.284 0.31 8.11 211.7 0.87
4/19/2021 2:15:00 PM 12.63 54.734 0.302 8.12 210.4 0.63
4/19/2021 2:30:00 PM 12.8 55.04 0.29 8.12 210.4 1.29
4/19/2021 2:45:00 PM 12.92 55.256 0.276 8.14 195.2 1.12
4/19/2021 3:00:00 PM 13.11 55.598 0.301 8.15 163.8 1.64
4/19/2021 3:15:00 PM 13.09 55.562 0.301 8.15 204.4 2.92
4/19/2021 3:30:00 PM 13.14 55.652 0.285 8.17 195.8 2.81
4/19/2021 3:45:00 PM 13.1 55.58 0.306 8.16 208.6 1.45
4/19/2021 4:00:00 PM 13.05 55.49 0.282 8.16 199.8 0.77
4/19/2021 4:15:00 PM 13.18 55.724 0.307 8.19 184.6 0.93
4/19/2021 4:30:00 PM 13.22 55.796 0.298 8.18 229.3 1.1
4/19/2021 4:45:00 PM 13.1 55.58 0.297 8.17 288.6 0.99
4/19/2021 5:00:00 PM 13.08 55.544 0.296 8.18 302.6 1.1
4/19/2021 5:15:00 PM 13.12 55.616 0.287 8.19 290.6 1.07
4/19/2021 5:30:00 PM 13.15 55.67 0.295 8.2 300.9 1.61
4/19/2021 5:45:00 PM 13.15 55.67 0.294 8.2 358.1 2.87
4/19/2021 6:00:00 PM 13.14 55.652 0.29 8.2 353.1 3.89
4/19/2021 6:15:00 PM 13.16 55.688 0.289 8.2 350.6 3.6
4/19/2021 6:30:00 PM 13.14 55.652 0.272 8.21 353.2 2.22
4/19/2021 6:45:00 PM 13.14 55.652 0.289 8.21 348.9 1.17
4/19/2021 7:00:00 PM 13.14 55.652 0.297 8.21 424.4 0.89
4/19/2021 7:15:00 PM 13.13 55.634 0.287 8.21 341.3 0.64
4/19/2021 7:30:00 PM 13.11 55.598 0.288 8.21 345.7 0.55
4/19/2021 7:45:00 PM 13.1 55.58 0.288 8.2 352.9 0.58
4/19/2021 8:00:00 PM 13.08 55.544 0.286 8.19 357.2 0.76
4/19/2021 8:15:00 PM 13.08 55.544 0.285 8.19 354.8 0.83
4/19/2021 8:30:00 PM 13.06 55.508 0.268 8.18 362.2 0.84
4/19/2021 8:45:00 PM 13.05 55.49 0.266 8.18 358 1.03
4/19/2021 9:00:00 PM 13.06 55.508 0.274 8.17 359.2 0.95
4/19/2021 9:15:00 PM 13.07 55.526 0.282 8.17 361.9 1.08
4/19/2021 9:30:00 PM 13.08 55.544 0.267 8.17 367.1 1.08
4/19/2021 9:45:00 PM 13.09 55.562 0.277 8.17 364.5 0.98
4/19/2021 10:00:00 PM 13.1 55.58 0.292 8.16 363 0.85
4/19/2021 10:15:00 PM 13.1 55.58 0.281 8.16 385.5 0.78
4/19/2021 10:30:00 PM 13.11 55.598 0.287 8.16 323.6 0.85
4/19/2021 10:45:00 PM 13.1 55.58 0.286 8.16 276 0.82
4/19/2021 11:00:00 PM 13.07 55.526 0.281 8.16 296.1 0.52
4/19/2021 11:15:00 PM 13.06 55.508 0.275 8.16 297.7 0.41
4/19/2021 11:30:00 PM 13.03 55.454 0.267 8.16 296.5 0.36
4/19/2021 11:45:00 PM 13 55.4 0.266 8.15 272.7 0.56
4/20/2021 12:00:00 AM 12.97 55.346 0.28 8.15 239.7 0.48
4/20/2021 12:15:00 AM 12.95 55.31 0.279 8.15 249 0.2
4/20/2021 12:30:00 AM 12.92 55.256 0.279 8.15 252.7 0.12
4/20/2021 12:45:00 AM 12.89 55.202 0.276 8.14 260.1 0.17
4/20/2021 1:00:00 AM 12.86 55.148 0.281 8.14 263.6 0.12
4/20/2021 1:15:00 AM 12.82 55.076 0.281 8.13 262.9 0.54
4/20/2021 1:30:00 AM 12.78 55.004 0.278 8.12 268.7 0.78
4/20/2021 1:45:00 AM 12.73 54.914 0.313 8.12 269.5 1.51
4/20/2021 2:00:00 AM 12.69 54.842 0.28 8.11 271.8 0.97
4/20/2021 2:15:00 AM 12.63 54.734 0.281 8.11 242.9 1
4/20/2021 2:30:00 AM 12.58 54.644 0.268 8.1 259 1.39
4/20/2021 2:45:00 AM 12.52 54.536 0.289 8.09 257.5 1.52
4/20/2021 3:00:00 AM 12.47 54.446 0.275 8.09 260 1.31
4/20/2021 3:15:00 AM 12.42 54.356 0.277 8.08 261.7 0.75
4/20/2021 3:30:00 AM 12.37 54.266 0.278 8.08 246.5 0.62
4/20/2021 3:45:00 AM 12.32 54.176 0.279 8.07 236.7 1
4/20/2021 4:00:00 AM 12.27 54.086 0.272 8.06 231 1.25
4/20/2021 4:15:00 AM 12.21 53.978 0.276 8.06 241 5.78
4/20/2021 4:30:00 AM 12.16 53.888 0.277 8.06 242.6 8.18
4/20/2021 4:45:00 AM 12.1 53.78 0.266 8.05 243.4 7.97
4/20/2021 5:00:00 AM 12.05 53.69 0.284 8.05 242.2 8.22
4/20/2021 5:15:00 AM 12 53.6 0.278 8.04 246.4 8.55
4/20/2021 5:30:00 AM 11.95 53.51 0.272 8.03 246.9 8.65
4/20/2021 5:45:00 AM 11.91 53.438 0.283 8.03 252.4 9.1
4/20/2021 6:00:00 AM 11.86 53.348 0.277 8.03 253.5 9.19
4/20/2021 6:15:00 AM 11.81 53.258 0.277 8.02 253.4 9
4/20/2021 6:30:00 AM 11.77 53.186 0.277 8.02 252.2 8.71
4/20/2021 6:45:00 AM 11.73 53.114 0.276 8.01 250.1 8.62
4/20/2021 7:00:00 AM 11.69 53.042 0.276 8.01 252 8.9
4/20/2021 7:15:00 AM 11.66 52.988 0.28 8 246.7 9.19
4/20/2021 7:30:00 AM 11.64 52.952 0.283 8.01 268.3 8.8
4/20/2021 7:45:00 AM 11.64 52.952 0.287 8.01 186.4 9.23
4/20/2021 8:00:00 AM 11.65 52.97 0.282 8.02 149.5 8.96
4/20/2021 8:15:00 AM 11.66 52.988 0.279 8.02 143.9 9.38
4/20/2021 8:30:00 AM 11.68 53.024 0.283 8.03 131 9.54
4/20/2021 8:45:00 AM 11.7 53.06 0.279 8.03 103.8 9.59
4/20/2021 9:00:00 AM 11.75 53.15 0.281 8.04 104.3 9.71
4/20/2021 9:15:00 AM 11.78 53.204 0.277 8.04 105 9.74
4/20/2021 9:30:00 AM 11.81 53.258 0.273 8.05 107.2 9.74
4/20/2021 9:45:00 AM 11.86 53.348 0.274 8.06 108.8 9.78
4/20/2021 10:00:00 AM 11.91 53.438 0.272 8.07 107.5 9.95
4/20/2021 10:15:00 AM 11.94 53.492 0.272 8.08 110.9 9.95
4/20/2021 10:30:00 AM 11.98 53.564 0.268 8.09 107.5 10.03
4/20/2021 10:45:00 AM 12.03 53.654 0.276 8.1 106.4 9.93
4/20/2021 11:00:00 AM 12.1 53.78 0.279 8.1 107.6 10.09
4/20/2021 11:15:00 AM 12.16 53.888 0.273 8.1 96.78 10.11
4/20/2021 11:30:00 AM 12.24 54.032 0.278 8.11 100.2 10.12
4/20/2021 11:45:00 AM 12.34 54.212 0.275 8.11 99.54 10.15
4/20/2021 12:00:00 PM 12.45 54.41 0.268 8.12 98.22 10.04
4/20/2021 12:15:00 PM 12.59 54.662 0.277 8.12 86.68 9.82
4/20/2021 12:30:00 PM 12.73 54.914 0.277 8.13 88.92 10.06
4/20/2021 12:45:00 PM 12.87 55.166 0.274 8.13 95.45 10.01
4/20/2021 1:00:00 PM 13.03 55.454 0.276 8.13 99.22 10.18
4/20/2021 1:15:00 PM 13.17 55.706 0.28 8.14 103.3 10.24
4/20/2021 1:30:00 PM 13.32 55.976 0.278 8.14 103.5 10.15
4/20/2021 1:45:00 PM 13.46 56.228 0.281 8.15 106.6 9.99
4/20/2021 2:00:00 PM 13.54 56.372 0.27 8.15 103.9 9.65
4/20/2021 2:15:00 PM 13.68 56.624 0.275 8.16 140.5 10.25
4/20/2021 2:30:00 PM 13.8 56.84 0.277 8.17 144.7 9.91
4/20/2021 2:45:00 PM 13.95 57.11 0.275 8.18 146.9 10.26
4/20/2021 3:00:00 PM 14.1 57.38 0.275 8.18 112.7 10.35
4/20/2021 3:15:00 PM 14.24 57.632 0.299 8.18 103.1 10.14
4/20/2021 3:30:00 PM 14.2 57.56 0.279 8.17 167.6 10.03
4/20/2021 3:45:00 PM 14.16 57.488 0.278 8.18 182.8 10.23
4/20/2021 4:00:00 PM 14.21 57.578 0.277 8.19 132.3 10.26
4/20/2021 4:15:00 PM 14.18 57.524 0.279 8.19 175.4 10
4/20/2021 4:30:00 PM 14.19 57.542 0.281 8.19 333.5 10.08
4/20/2021 4:45:00 PM 14.12 57.416 0.281 8.19 361.9 9.87
4/20/2021 5:00:00 PM 14.09 57.362 0.276 8.18 366.7 9.8
4/20/2021 5:15:00 PM 14.09 57.362 0.287 8.19 143.7 10.02
4/20/2021 5:30:00 PM 14.11 57.398 0.288 8.2 138.3 10.01
4/20/2021 5:45:00 PM 14.09 57.362 0.289 8.2 137.7 9.91
4/20/2021 6:00:00 PM 14.11 57.398 0.288 8.21 135.8 10
4/20/2021 6:15:00 PM 14.15 57.47 0.287 8.21 141.4 10
4/20/2021 6:30:00 PM 14.19 57.542 0.282 8.21 138.7 9.85
4/20/2021 6:45:00 PM 14.21 57.578 0.28 8.21 141.9 9.84
4/20/2021 7:00:00 PM 14.24 57.632 0.278 8.21 165.3 9.67
4/20/2021 7:15:00 PM 14.28 57.704 0.284 8.21 155.4 9.58
4/20/2021 7:30:00 PM 14.32 57.776 0.285 8.21 320 9.6
4/20/2021 7:45:00 PM 14.34 57.812 0.285 8.2 330.9 9.37
4/20/2021 8:00:00 PM 14.38 57.884 0.28 8.21 334.1 9.39
4/20/2021 8:15:00 PM 14.41 57.938 0.28 8.2 280.5 8.77
4/20/2021 8:30:00 PM 14.45 58.01 0.279 8.19 186.1 9.43
4/20/2021 8:45:00 PM 14.48 58.064 0.299 8.19 101.8 9.41
4/20/2021 9:00:00 PM 14.51 58.118 0.328 8.18 103.1 9.34
4/20/2021 9:15:00 PM 14.55 58.19 0.328 8.18 332.4 9.33
4/20/2021 9:30:00 PM 14.58 58.244 0.329 8.18 134.6 9.23
4/20/2021 9:45:00 PM 14.61 58.298 0.329 8.18 183.1 9.2
4/20/2021 10:00:00 PM 14.65 58.37 0.329 8.18 184.5 9.32
4/20/2021 10:15:00 PM 14.68 58.424 0.327 8.18 117.1 9.19
4/20/2021 10:30:00 PM 14.69 58.442 0.329 8.18 118.8 9.24
4/20/2021 10:45:00 PM 14.68 58.424 0.328 8.17 181.5 9.17
4/20/2021 11:00:00 PM 14.67 58.406 0.328 8.17 176.6 9.16
4/20/2021 11:15:00 PM 14.66 58.388 0.328 8.17 182.3 9.19
4/20/2021 11:30:00 PM 14.66 58.388 0.327 8.18 231.4 9.24
4/20/2021 11:45:00 PM 14.63 58.334 0.33 8.18 340.2 9.21
4/21/2021 12:00:00 AM 14.62 58.316 0.329 8.18 200 9.22
4/21/2021 12:15:00 AM 14.59 58.262 0.328 8.18 201.8 9.2
4/21/2021 12:30:00 AM 14.58 58.244 0.328 8.18 109.8 9.02
4/21/2021 12:45:00 AM 14.57 58.226 0.328 8.17 94.55 9.14
4/21/2021 1:00:00 AM 14.55 58.19 0.249 8.17 111.2 9.11
4/21/2021 1:15:00 AM 14.53 58.154 0.271 8.17 104.9 9.08
4/21/2021 1:30:00 AM 14.5 58.1 0.27 8.16 101.5 9.02
4/21/2021 1:45:00 AM 14.47 58.046 0.266 8.15 101.8 8.79
4/21/2021 2:00:00 AM 14.44 57.992 0.271 8.15 100 9.01
4/21/2021 2:15:00 AM 14.4 57.92 0.271 8.14 98.07 8.96
4/21/2021 2:30:00 AM 14.36 57.848 0.265 8.13 99.02 9.04
4/21/2021 2:45:00 AM 14.34 57.812 0.289 8.12 491.6 8.08
4/21/2021 3:00:00 AM 14.31 57.758 0.274 8.12 317.7 8.63
4/21/2021 3:15:00 AM 14.28 57.704 0.308 8.12 274.1 8.95
4/21/2021 3:30:00 AM 14.24 57.632 0.302 8.1 250.9 8.96
4/21/2021 3:45:00 AM 14.21 57.578 0.302 8.08 294.9 8.89
4/21/2021 4:00:00 AM 14.17 57.506 0.301 8.08 163.3 8.87
4/21/2021 4:15:00 AM 14.13 57.434 0.301 8.08 161.9 8.9
4/21/2021 4:30:00 AM 14.09 57.362 0.312 8.08 160.1 8.87
4/21/2021 4:45:00 AM 14.05 57.29 0.264 8.08 178.9 8.87
4/21/2021 5:00:00 AM 14.01 57.218 0.263 8.06 179.7 8.42
4/21/2021 5:15:00 AM 13.97 57.146 0.3 8.06 171.7 8.73
4/21/2021 5:30:00 AM 13.93 57.074 0.266 8.05 169.9 8.71
4/21/2021 5:45:00 AM 13.9 57.02 0.271 8.04 169.8 8.77
4/21/2021 6:00:00 AM 13.86 56.948 0.291 8.04 214.8 8.68
4/21/2021 6:15:00 AM 13.82 56.876 0.332 8.03 182.4 8.7
4/21/2021 6:30:00 AM 13.79 56.822 0.332 8.02 182.7 8.6
4/21/2021 6:45:00 AM 13.76 56.768 0.332 8.02 186.6 8.55
4/21/2021 7:00:00 AM 13.73 56.714 0.332 8.02 184.1 8.53
4/21/2021 7:15:00 AM 13.73 56.714 0.332 8.02 182.5 8.42
4/21/2021 7:30:00 AM 13.73 56.714 0.332 8.02 182.8 8.68
4/21/2021 7:45:00 AM 13.74 56.732 0.333 8.02 181.6 8.67
4/21/2021 8:00:00 AM 13.75 56.75 0.333 8.02 182.5 8.76
4/21/2021 8:15:00 AM 13.76 56.768 0.333 8.03 194.3 8.72
4/21/2021 8:30:00 AM 13.79 56.822 0.333 8.02 196.8 8.74
4/21/2021 8:45:00 AM 13.8 56.84 0.333 8.04 196.1 8.87
4/21/2021 9:00:00 AM 13.82 56.876 0.333 8.04 214.6 8.98
4/21/2021 9:15:00 AM 13.84 56.912 0.333 8.05 204.7 8.67
4/21/2021 9:30:00 AM 13.88 56.984 0.333 8.06 203.6 9.1
4/21/2021 9:45:00 AM 13.9 57.02 0.333 8.07 201.8 9.07
4/21/2021 10:00:00 AM 13.9 57.02 0.333 8.08 203.8 9.31
4/21/2021 10:15:00 AM 13.86 56.948 0.334 8.09 203.6 8.62
4/21/2021 10:30:00 AM 13.82 56.876 0.333 8.09 202.5 9.08
4/21/2021 10:45:00 AM 13.76 56.768 0.334 8.09 207.6 9.12
4/21/2021 11:00:00 AM 13.7 56.66 0.296 8.08 233.5 9.02
4/21/2021 11:15:00 AM 13.66 56.588 0.301 8.08 229.5 8.94
4/21/2021 11:30:00 AM 13.67 56.606 0.286 8.08 230.6 8.89
4/21/2021 11:45:00 AM 13.64 56.552 0.274 8.08 224.1 9.08
4/21/2021 12:00:00 PM 13.59 56.462 0.317 8.08 199.8 8.47
4/21/2021 12:15:00 PM 13.56 56.408 0.281 8.08 200.3 8.89
4/21/2021 12:30:00 PM 13.54 56.372 0.283 8.09 344.4 9.06
4/21/2021 12:45:00 PM 13.56 56.408 0.294 8.09 325.3 9.22
4/21/2021 1:00:00 PM 13.54 56.372 0.283 8.08 199.5 9.18
4/21/2021 1:15:00 PM 13.56 56.408 0.296 8.1 188 8.81
4/21/2021 1:30:00 PM 13.79 56.822 0.285 8.13 171.7 9.33
4/21/2021 1:45:00 PM 13.97 57.146 0.275 8.15 188.9 9.35
4/21/2021 2:00:00 PM 13.99 57.182 0.279 8.16 263.6 9.81
4/21/2021 2:15:00 PM 14.09 57.362 0.304 8.16 276 9.79
4/21/2021 2:30:00 PM 14.07 57.326 0.331 8.16 283 9.85
4/21/2021 2:45:00 PM 14.06 57.308 0.335 8.17 203.3 9.85
4/21/2021 3:00:00 PM 14.05 57.29 0.335 8.18 204.3 9.76
4/21/2021 3:15:00 PM 14 57.2 0.335 8.19 191.1 9.97
4/21/2021 3:30:00 PM 13.97 57.146 0.334 8.2 191.5 9.87
4/21/2021 3:45:00 PM 13.87 56.966 0.287 8.2 192.9 9.75
4/21/2021 4:00:00 PM 13.81 56.858 0.277 8.2 188.2 9.79
4/21/2021 4:15:00 PM 13.79 56.822 0.28 8.21 189 9.59
4/21/2021 4:30:00 PM 13.74 56.732 0.28 8.22 190.3 9.86
4/21/2021 4:45:00 PM 13.67 56.606 0.277 8.22 187.3 9.86
4/21/2021 5:00:00 PM 13.61 56.498 0.278 8.22 188.3 9.71
4/21/2021 5:15:00 PM 13.54 56.372 0.278 8.21 160.5 9.73
4/21/2021 5:30:00 PM 13.47 56.246 0.278 8.22 164.9 9.85
4/21/2021 5:45:00 PM 13.41 56.138 0.28 8.22 159.5 9.79
4/21/2021 6:00:00 PM 13.37 56.066 0.28 8.22 159.4 9.71
4/21/2021 6:15:00 PM 13.33 55.994 0.286 8.22 157 9.61
4/21/2021 6:30:00 PM 13.3 55.94 0.283 8.21 155.1 9.59
4/21/2021 6:45:00 PM 13.25 55.85 0.282 8.2 156.2 9.63
4/21/2021 7:00:00 PM 13.21 55.778 0.284 8.2 156.1 9.52
4/21/2021 7:15:00 PM 13.15 55.67 0.306 8.2 155.8 9.43
4/21/2021 7:30:00 PM 13.08 55.544 0.295 8.19 158 9.49
4/21/2021 7:45:00 PM 13.01 55.418 0.293 8.19 155.8 9.43
4/21/2021 8:00:00 PM 12.98 55.364 0.286 8.18 156.3 9.31
4/21/2021 8:15:00 PM 12.92 55.256 0.287 8.18 154 9.3
4/21/2021 8:30:00 PM 12.87 55.166 0.323 8.18 155.8 9.34
4/21/2021 8:45:00 PM 12.83 55.094 0.34 8.18 163.5 9.32
4/21/2021 9:00:00 PM 12.79 55.022 0.325 8.17 161.6 9.3
4/21/2021 9:15:00 PM 12.75 54.95 0.302 8.18 161.3 9.25
4/21/2021 9:30:00 PM 12.72 54.896 0.338 8.18 191.4 9.13
4/21/2021 9:45:00 PM 12.67 54.806 0.342 8.18 86.94 9.24
4/21/2021 10:00:00 PM 12.6 54.68 0.341 8.19 100.2 9.29
4/21/2021 10:15:00 PM 12.52 54.536 0.341 8.19 66.78 9.3
4/21/2021 10:30:00 PM 12.46 54.428 0.341 8.19 85.16 9.29
4/21/2021 10:45:00 PM 12.38 54.284 0.34 8.2 52.99 9.4
4/21/2021 11:00:00 PM 12.31 54.158 0.272 8.2 54.56 9.43
4/21/2021 11:15:00 PM 12.22 53.996 0.279 8.2 54.59 9.3
4/21/2021 11:30:00 PM 12.13 53.834 0.281 8.2 53.49 9.36
4/21/2021 11:45:00 PM 12.06 53.708 0.278 8.2 53.15 9.21
4/22/2021 12:00:00 AM 11.98 53.564 0.284 8.21 52.87 9.38
4/22/2021 12:15:00 AM 11.92 53.456 0.286 8.21 53.3 9.41
4/22/2021 12:30:00 AM 11.87 53.366 0.289 8.21 52.91 9.33
4/22/2021 12:45:00 AM 11.8 53.24 0.281 8.21 50 9.46
4/22/2021 1:00:00 AM 11.75 53.15 0.279 8.21 49.83 9.38
4/22/2021 1:15:00 AM 11.71 53.078 0.285 8.21 49.52 9.47
4/22/2021 1:30:00 AM 11.65 52.97 0.342 8.2 50.04 9.46
4/22/2021 1:45:00 AM 11.58 52.844 0.342 8.21 48.8 9.51
4/22/2021 2:00:00 AM 11.49 52.682 0.341 8.22 48.56 9.44
4/22/2021 2:15:00 AM 11.43 52.574 0.343 8.19 49.45 9.41
4/22/2021 2:30:00 AM 11.33 52.394 0.342 8.19 50.32 9.52
4/22/2021 2:45:00 AM 11.26 52.268 0.343 8.2 50.15 9.6
4/22/2021 3:00:00 AM 11.2 52.16 0.343 8.2 48.72 9.46
4/22/2021 3:15:00 AM 11.14 52.052 0.343 8.2 48.34 9.47
4/22/2021 3:30:00 AM 11.09 51.962 0.343 8.19 48.63 9.56
4/22/2021 3:45:00 AM 11.02 51.836 0.343 8.19 46.66 9.55
4/22/2021 4:00:00 AM 10.97 51.746 0.343 8.18 49.58 9.42
4/22/2021 4:15:00 AM 10.93 51.674 0.343 8.17 47.82 9.51
4/22/2021 4:30:00 AM 10.88 51.584 0.343 8.15 47.15 9.48
4/22/2021 4:45:00 AM 10.85 51.53 0.343 8.16 47.5 9.49
4/22/2021 5:00:00 AM 10.81 51.458 0.343 8.16 47.25 9.45
4/22/2021 5:15:00 AM 10.77 51.386 0.344 8.15 46.04 9.45
4/22/2021 5:30:00 AM 10.73 51.314 0.344 8.14 44.64 9.44
4/22/2021 5:45:00 AM 10.67 51.206 0.344 8.14 45.27 9.3
4/22/2021 6:00:00 AM 10.6 51.08 0.345 8.13 46.81 9.2
4/22/2021 6:15:00 AM 10.55 50.99 0.345 8.13 45.03 9.49
4/22/2021 6:30:00 AM 10.51 50.918 0.345 8.12 44.9 9.46
4/22/2021 6:45:00 AM 10.44 50.792 0.344 8.13 46.15 9.57
4/22/2021 7:00:00 AM 10.36 50.648 0.344 8.12 47 9.5
4/22/2021 7:15:00 AM 10.32 50.576 0.344 8.12 46.39 9.48
4/22/2021 7:30:00 AM 10.27 50.486 0.344 8.11 46.28 9.52
4/22/2021 7:45:00 AM 10.22 50.396 0.344 8.12 44.75 9.64
4/22/2021 8:00:00 AM 10.19 50.342 0.344 8.13 46.73 9.71
4/22/2021 8:15:00 AM 10.16 50.288 0.345 8.13 44.86 9.82
4/22/2021 8:30:00 AM 10.14 50.252 0.345 8.13 44.43 9.8
4/22/2021 8:45:00 AM 10.12 50.216 0.345 8.14 44.7 9.88
4/22/2021 9:00:00 AM 10.12 50.216 0.345 8.15 45.27 9.99
4/22/2021 9:15:00 AM 10.08 50.144 0.346 8.16 45.19 10.03
4/22/2021 9:30:00 AM 9.99 49.982 0.346 8.16 45.68 10.03
4/22/2021 9:45:00 AM 9.93 49.874 0.346 8.17 46.94 10.04
4/22/2021 10:00:00 AM 9.89 49.802 0.345 8.17 45.37 10.21
4/22/2021 10:15:00 AM 9.92 49.856 0.346 8.17 46.75 10.24
4/22/2021 10:30:00 AM 9.97 49.946 0.346 8.17 45.38 10.26
4/22/2021 10:45:00 AM 10.03 50.054 0.346 8.18 45.24 10.23
4/22/2021 11:00:00 AM 10.01 50.018 0.346 8.18 44.33 10.38
4/22/2021 11:15:00 AM 10.08 50.144 0.347 8.19 42.21 10.44
4/22/2021 11:30:00 AM 10.21 50.378 0.345 8.2 41.76 10.52
4/22/2021 11:45:00 AM 10.36 50.648 0.345 8.21 41.68 10.48
4/22/2021 12:00:00 PM 10.42 50.756 0.345 8.21 44.06 10.42
4/22/2021 12:15:00 PM 10.59 51.062 0.345 8.22 40.56 10.46
4/22/2021 12:30:00 PM 10.68 51.224 0.345 8.22 42.16 10.73
4/22/2021 12:45:00 PM 10.65 51.17 0.344 8.22 35.84 10.79
4/22/2021 1:00:00 PM 10.59 51.062 0.344 8.22 36.32 10.53
4/22/2021 1:15:00 PM 10.61 51.098 0.344 8.22 37.38 10.76
4/22/2021 1:30:00 PM 10.51 50.918 0.344 8.22 38.53 10.7
4/22/2021 1:45:00 PM 10.45 50.81 0.344 8.23 38.98 10.77
4/22/2021 2:00:00 PM 10.48 50.864 0.344 8.23 39.55 10.59
4/22/2021 2:15:00 PM 10.6 51.08 0.344 8.23 39.04 10.32
4/22/2021 2:30:00 PM 10.7 51.26 0.345 8.24 38.12 10.28
4/22/2021 2:45:00 PM 10.74 51.332 0.345 8.25 38.67 10.17
4/22/2021 3:00:00 PM 10.85 51.53 0.345 8.26 38.2 10.72
4/22/2021 3:15:00 PM 10.92 51.656 0.345 8.26 39.55 10.8
4/22/2021 3:30:00 PM 10.92 51.656 0.345 8.27 39.18 10.82
4/22/2021 3:45:00 PM 10.92 51.656 0.346 8.27 40.02 10.88
4/22/2021 4:00:00 PM 10.94 51.692 0.346 8.28 38.55 10.88
4/22/2021 4:15:00 PM 10.82 51.476 0.346 8.27 40.01 10.84
4/22/2021 4:30:00 PM 10.73 51.314 0.347 8.27 39.73 10.75
4/22/2021 4:45:00 PM 10.63 51.134 0.347 8.27 40.09 10.78
4/22/2021 5:00:00 PM 10.56 51.008 0.347 8.27 39.84 10.71
4/22/2021 5:15:00 PM 10.53 50.954 0.347 8.28 38.68 10.71
4/22/2021 5:30:00 PM 10.49 50.882 0.347 8.29 44.71 10.75
4/22/2021 5:45:00 PM 10.48 50.864 0.348 8.28 45.34 10.8
4/22/2021 6:00:00 PM 10.49 50.882 0.348 8.29 45.03 10.77
4/22/2021 6:15:00 PM 10.49 50.882 0.348 8.29 57.46 10.76
4/22/2021 6:30:00 PM 10.47 50.846 0.349 8.29 65.92 10.75
4/22/2021 6:45:00 PM 10.44 50.792 0.349 8.29 63.94 10.7
4/22/2021 7:00:00 PM 10.42 50.756 0.349 8.3 58.57 10.67
4/22/2021 7:15:00 PM 10.41 50.738 0.348 8.29 59.78 10.64
4/22/2021 7:30:00 PM 10.39 50.702 0.35 8.29 141.1 10.37
4/22/2021 7:45:00 PM 10.38 50.684 0.351 8.28 69.25 10.3
4/22/2021 8:00:00 PM 10.38 50.684 0.351 8.27 72.25 10.03
4/22/2021 8:15:00 PM 10.39 50.702 0.352 8.27 77.17 10.06
4/22/2021 8:30:00 PM 10.39 50.702 0.352 8.26 76.36 10.15
4/22/2021 8:45:00 PM 10.4 50.72 0.352 8.26 77.04 9.66
4/22/2021 9:00:00 PM 10.4 50.72 0.351 8.26 76.65 10.02
4/22/2021 9:15:00 PM 10.4 50.72 0.348 8.24 76.5 9.93
4/22/2021 9:30:00 PM 10.39 50.702 0.352 8.25 76.6 9.96
4/22/2021 9:45:00 PM 10.37 50.666 0.352 8.24 76.44 9.84
4/22/2021 10:00:00 PM 10.36 50.648 0.351 8.26 77.84 10
4/22/2021 10:15:00 PM 10.35 50.63 0.351 8.26 77.7 10.08
4/22/2021 10:30:00 PM 10.35 50.63 0.352 8.25 75.2 10.1
4/22/2021 10:45:00 PM 10.36 50.648 0.352 8.25 75.94 10.19
4/22/2021 11:00:00 PM 10.34 50.612 0.352 8.26 70.83 10.12
4/22/2021 11:15:00 PM 10.34 50.612 0.352 8.26 76.81 10.22
4/22/2021 11:30:00 PM 10.31 50.558 0.352 8.26 78.61 10.21
4/22/2021 11:45:00 PM 10.28 50.504 0.352 8.26 78.6 9.91
4/23/2021 12:00:00 AM 10.24 50.432 0.351 8.27 79.69 10.1
4/23/2021 12:15:00 AM 10.2 50.36 0.351 8.27 84.42 9.9
4/23/2021 12:30:00 AM 10.17 50.306 0.352 8.25 93.22 9.41
4/23/2021 12:45:00 AM 10.15 50.27 0.351 8.23 78.48 10.14
4/23/2021 1:00:00 AM 10.12 50.216 0.351 8.26 77.73 9.97
4/23/2021 1:15:00 AM 10.1 50.18 0.351 8.26 77.59 10.04
4/23/2021 1:30:00 AM 10.06 50.108 0.351 8.27 72.34 10.13
4/23/2021 1:45:00 AM 10 50 0.35 8.26 55.38 10.26
4/23/2021 2:00:00 AM 9.96 49.928 0.35 8.26 55.32 9.93
4/23/2021 2:15:00 AM 9.93 49.874 0.347 8.26 54.96 9.79
4/23/2021 2:30:00 AM 9.87 49.766 0.35 8.25 58.03 10.09
4/23/2021 2:45:00 AM 9.82 49.676 0.35 8.26 58.29 10.19
4/23/2021 3:00:00 AM 9.78 49.604 0.351 8.26 57.42 10.19
4/23/2021 3:15:00 AM 9.72 49.496 0.35 8.25 58.99 9.95
4/23/2021 3:30:00 AM 9.69 49.442 0.35 8.25 59.75 10.05
4/23/2021 3:45:00 AM 9.62 49.316 0.35 8.24 59.98 10.14
4/23/2021 4:00:00 AM 9.57 49.226 0.35 8.24 59.79 10.21
4/23/2021 4:15:00 AM 9.51 49.118 0.35 8.24 59.33 10.17
4/23/2021 4:30:00 AM 9.45 49.01 0.349 8.23 59.58 10.2
4/23/2021 4:45:00 AM 9.39 48.902 0.35 8.22 68.68 10.18
4/23/2021 5:00:00 AM 9.31 48.758 0.342 8.21 62.64 10.25
4/23/2021 5:15:00 AM 9.24 48.632 0.35 8.21 62.67 10.2
4/23/2021 5:30:00 AM 9.19 48.542 0.35 8.19 67.42 10.23
4/23/2021 5:45:00 AM 9.12 48.416 0.349 8.18 109.7 10.24
4/23/2021 6:00:00 AM 9.05 48.29 0.35 8.18 113.9 10.1
4/23/2021 6:15:00 AM 9 48.2 0.351 8.17 119.4 10.12
4/23/2021 6:30:00 AM 8.94 48.092 0.35 8.17 118 10.19
4/23/2021 6:45:00 AM 8.89 48.002 0.351 8.16 118.3 10.2
4/23/2021 7:00:00 AM 8.85 47.93 0.351 8.16 116.2 10.14
4/23/2021 7:15:00 AM 8.81 47.858 0.351 8.15 114.4 10.23
4/23/2021 7:30:00 AM 8.77 47.786 0.352 8.15 112.5 10.27
4/23/2021 7:45:00 AM 8.74 47.732 0.352 8.15 109.4 10.26
4/23/2021 8:00:00 AM 8.75 47.75 0.351 8.16 107.5 10.39
4/23/2021 8:15:00 AM 8.76 47.768 0.352 8.16 105.4 10.13
4/23/2021 8:30:00 AM 8.76 47.768 0.352 8.17 104.9 10.49
4/23/2021 8:45:00 AM 8.79 47.822 0.352 8.17 104.9 10.57
4/23/2021 9:00:00 AM 8.82 47.876 0.352 8.17 104 10.56
4/23/2021 9:15:00 AM 8.86 47.948 0.353 8.17 102.8 10.59
4/23/2021 9:30:00 AM 8.9 48.02 0.353 8.17 104.5 10.64
4/23/2021 9:45:00 AM 8.95 48.11 0.353 8.18 103.4 10.78
4/23/2021 10:00:00 AM 9.03 48.254 0.354 8.17 102 10.65
4/23/2021 10:15:00 AM 9.08 48.344 0.354 8.18 98.92 10.77
4/23/2021 10:30:00 AM 9.15 48.47 0.354 8.19 103 10.81
4/23/2021 10:45:00 AM 9.25 48.65 0.354 8.19 105.1 11.01
4/23/2021 11:00:00 AM 9.32 48.776 0.354 8.2 104.4 10.76
4/23/2021 11:15:00 AM 9.42 48.956 0.354 8.2 100.6 10.96
4/23/2021 11:30:00 AM 9.53 49.154 0.354 8.21 105.3 10.96
4/23/2021 11:45:00 AM 9.65 49.37 0.354 8.21 103.4 11
4/23/2021 12:00:00 PM 9.81 49.658 0.354 8.22 98.05 11.09
4/23/2021 12:15:00 PM 9.95 49.91 0.355 8.21 100.8 11.03
4/23/2021 12:30:00 PM 10.1 50.18 0.355 8.23 102.2 11.03
4/23/2021 12:45:00 PM 10.29 50.522 0.355 8.23 98.33 10.92
4/23/2021 1:00:00 PM 10.48 50.864 0.355 8.23 100 10.89
4/23/2021 1:15:00 PM 10.69 51.242 0.355 8.24 103.1 11.16
4/23/2021 1:30:00 PM 10.81 51.458 0.356 8.25 108.9 11.18
4/23/2021 1:45:00 PM 10.98 51.764 0.356 8.25 106.1 11.08
4/23/2021 2:00:00 PM 11.11 51.998 0.356 8.25 104 11.01
4/23/2021 2:15:00 PM 11.17 52.106 0.356 8.24 87.83 10.89
4/23/2021 2:30:00 PM 11.17 52.106 0.356 8.25 91.78 10.94
4/23/2021 2:45:00 PM 11.16 52.088 0.356 8.26 90.04 10.94
4/23/2021 3:00:00 PM 11.17 52.106 0.356 8.26 90.75 10.94
4/23/2021 3:15:00 PM 11.25 52.25 0.357 8.27 90.06 11.16
4/23/2021 3:30:00 PM 11.34 52.412 0.357 8.29 91.82 11.23
4/23/2021 3:45:00 PM 11.34 52.412 0.358 8.29 95.93 11.21
4/23/2021 4:00:00 PM 11.34 52.412 0.358 8.28 99.25 11.06
4/23/2021 4:15:00 PM 11.41 52.538 0.358 8.31 93.72 11.03
4/23/2021 4:30:00 PM 11.46 52.628 0.358 8.3 89.35 10.98
4/23/2021 4:45:00 PM 11.56 52.808 0.359 8.32 86.15 11.05
4/23/2021 5:00:00 PM 11.56 52.808 0.359 8.31 91.03 10.99
4/23/2021 5:15:00 PM 11.56 52.808 0.359 8.31 98.07 10.9
4/23/2021 5:30:00 PM 11.57 52.826 0.359 8.3 100.6 10.97
4/23/2021 5:45:00 PM 11.59 52.862 0.359 8.3 108.9 11.02
4/23/2021 6:00:00 PM 11.61 52.898 0.359 8.31 113.7 11.04
4/23/2021 6:15:00 PM 11.58 52.844 0.359 8.3 107.4 10.96
4/23/2021 6:30:00 PM 11.56 52.808 0.359 8.32 106.3 10.94
4/23/2021 6:45:00 PM 11.54 52.772 0.359 8.32 110.8 10.78
4/23/2021 7:00:00 PM 11.53 52.754 0.359 8.33 110.4 10.75
4/23/2021 7:15:00 PM 11.52 52.736 0.359 8.31 104 10.68
4/23/2021 7:30:00 PM 11.52 52.736 0.36 8.32 117.1 10.49
4/23/2021 7:45:00 PM 11.53 52.754 0.36 8.3 117.3 10.44
4/23/2021 8:00:00 PM 11.55 52.79 0.36 8.3 124.7 10.31
4/23/2021 8:15:00 PM 11.57 52.826 0.361 8.3 120.9 10.16
4/23/2021 8:30:00 PM 11.6 52.88 0.361 8.28 107.9 9.94
4/23/2021 8:45:00 PM 11.63 52.934 0.361 8.28 86.37 10.04
4/23/2021 9:00:00 PM 11.66 52.988 0.361 8.27 90.55 9.95
4/23/2021 9:15:00 PM 11.71 53.078 0.361 8.27 90.78 10.05
4/23/2021 9:30:00 PM 11.74 53.132 0.361 8.28 88.46 10.01
4/23/2021 9:45:00 PM 11.78 53.204 0.361 8.27 88.54 9.96
4/23/2021 10:00:00 PM 11.81 53.258 0.361 8.28 82.51 9.98
4/23/2021 10:15:00 PM 11.83 53.294 0.362 8.27 81.72 9.96
4/23/2021 10:30:00 PM 11.86 53.348 0.362 8.27 79.36 9.97
4/23/2021 10:45:00 PM 11.89 53.402 0.362 8.27 86.03 9.87
4/23/2021 11:00:00 PM 11.9 53.42 0.362 8.28 86.12 9.94
4/23/2021 11:15:00 PM 11.92 53.456 0.363 8.28 83.93 10
4/23/2021 11:30:00 PM 11.93 53.474 0.362 8.29 73.11 9.99
4/23/2021 11:45:00 PM 11.94 53.492 0.362 8.3 82.65 9.98
4/24/2021 12:00:00 AM 11.96 53.528 0.362 8.29 77.49 9.97
4/24/2021 12:15:00 AM 11.96 53.528 0.362 8.3 78.81 9.83
4/24/2021 12:30:00 AM 11.96 53.528 0.362 8.3 179.9 9.87
4/24/2021 12:45:00 AM 11.95 53.51 0.362 8.31 77.77 9.85
4/24/2021 1:00:00 AM 11.95 53.51 0.361 8.31 89.34 9.65
4/24/2021 1:15:00 AM 11.93 53.474 0.362 8.31 65.37 9.82
4/24/2021 1:30:00 AM 11.92 53.456 0.361 8.31 99.05 9.82
4/24/2021 1:45:00 AM 11.9 53.42 0.361 8.31 69.43 9.82
4/24/2021 2:00:00 AM 11.87 53.366 0.361 8.31 71.37 9.8
4/24/2021 2:15:00 AM 11.85 53.33 0.361 8.31 64.65 9.91
4/24/2021 2:30:00 AM 11.82 53.276 0.362 8.3 129.7 9.88
4/24/2021 2:45:00 AM 11.79 53.222 0.361 8.31 64.4 9.83
4/24/2021 3:00:00 AM 11.75 53.15 0.362 8.3 110.2 9.76
4/24/2021 3:15:00 AM 11.72 53.096 0.362 8.3 56.04 9.71
4/24/2021 3:30:00 AM 11.67 53.006 0.362 8.29 66.67 9.52
4/24/2021 3:45:00 AM 11.63 52.934 0.362 8.29 75.46 9.7
4/24/2021 4:00:00 AM 11.58 52.844 0.362 8.27 82.42 9.62
4/24/2021 4:15:00 AM 11.53 52.754 0.363 8.27 70.32 9.66
4/24/2021 4:30:00 AM 11.49 52.682 0.362 8.26 65.47 9.58
4/24/2021 4:45:00 AM 11.43 52.574 0.363 8.26 53.04 9.71
4/24/2021 5:00:00 AM 11.39 52.502 0.363 8.25 41.54 9.73
4/24/2021 5:15:00 AM 11.34 52.412 0.364 8.24 41.52 9.59
4/24/2021 5:30:00 AM 11.28 52.304 0.363 8.23 46.96 9.71
4/24/2021 5:45:00 AM 11.23 52.214 0.364 8.22 48.3 9.58
4/24/2021 6:00:00 AM 11.18 52.124 0.364 8.2 60.71 9.67
4/24/2021 6:15:00 AM 11.13 52.034 0.364 8.2 95.42 9.59
4/24/2021 6:30:00 AM 11.07 51.926 0.364 8.2 67.02 9.6
4/24/2021 6:45:00 AM 11.02 51.836 0.364 8.19 46.73 9.13
4/24/2021 7:00:00 AM 10.98 51.764 0.364 8.19 108.3 9.62
4/24/2021 7:15:00 AM 10.95 51.71 0.365 8.19 49.83 9.74
4/24/2021 7:30:00 AM 10.91 51.638 0.365 8.18 156.1 9.71
4/24/2021 7:45:00 AM 10.9 51.62 0.366 8.18 58.63 9.79
4/24/2021 8:00:00 AM 10.9 51.62 0.365 8.18 60.21 9.74
4/24/2021 8:15:00 AM 10.91 51.638 0.366 8.19 56.74 9.9
4/24/2021 8:30:00 AM 10.94 51.692 0.366 8.19 57.17 9.88
4/24/2021 8:45:00 AM 10.96 51.728 0.365 8.2 66.37 9.98
4/24/2021 9:00:00 AM 10.99 51.782 0.366 8.21 62.45 10.08
4/24/2021 9:15:00 AM 11.03 51.854 0.366 8.21 57.17 10.16
4/24/2021 9:30:00 AM 11.08 51.944 0.366 8.22 87.38 10.29
4/24/2021 9:45:00 AM 11.12 52.016 0.366 8.23 136.5 10.36
4/24/2021 10:00:00 AM 11.17 52.106 0.366 8.23 107.8 10.25
4/24/2021 10:15:00 AM 11.24 52.232 0.366 8.24 52.56 9.9
4/24/2021 10:30:00 AM 11.31 52.358 0.366 8.24 50.38 10.54
4/24/2021 10:45:00 AM 11.39 52.502 0.366 8.25 51.97 10.5
4/24/2021 11:00:00 AM 11.46 52.628 0.366 8.25 54.98 10.09
4/24/2021 11:15:00 AM 11.56 52.808 0.365 8.26 64.98 10.37
4/24/2021 11:30:00 AM 11.63 52.934 0.366 8.26 71.24 10.52
4/24/2021 11:45:00 AM 11.74 53.132 0.366 8.27 68.08 10.52
4/24/2021 12:00:00 PM 11.84 53.312 0.366 8.28 103 10.58
4/24/2021 12:15:00 PM 11.92 53.456 0.366 8.28 102.2 10.57
4/24/2021 12:30:00 PM 12.02 53.636 0.365 8.28 144.9 10.77
4/24/2021 12:45:00 PM 12.09 53.762 0.365 8.29 157.2 10.91
4/24/2021 1:00:00 PM 12.14 53.852 0.365 8.3 122 10.71
4/24/2021 1:15:00 PM 12.21 53.978 0.365 8.3 77.71 11.04
4/24/2021 1:30:00 PM 12.23 54.014 0.366 8.3 49.54 10.98
4/24/2021 1:45:00 PM 12.26 54.068 0.365 8.3 56.23 10.89
4/24/2021 2:00:00 PM 12.26 54.068 0.366 8.3 72.4 11.02
4/24/2021 2:15:00 PM 12.27 54.086 0.366 8.3 70.58 10.93
4/24/2021 2:30:00 PM 12.3 54.14 0.366 8.3 53.14 11.02
4/24/2021 2:45:00 PM 12.31 54.158 0.367 8.31 162.5 10.86
4/24/2021 3:00:00 PM 12.35 54.23 0.367 8.31 179.7 10.95
4/24/2021 3:15:00 PM 12.35 54.23 0.367 8.31 72.88 10.9
4/24/2021 3:30:00 PM 12.32 54.176 0.368 8.31 84.73 10.9
4/24/2021 3:45:00 PM 12.3 54.14 0.369 8.31 86.96 10.67
4/24/2021 4:00:00 PM 12.26 54.068 0.369 8.3 117.5 10.54
4/24/2021 4:15:00 PM 12.23 54.014 0.369 8.3 126.7 10.72
4/24/2021 4:30:00 PM 12.18 53.924 0.37 8.3 70.25 10.61
4/24/2021 4:45:00 PM 12.15 53.87 0.37 8.31 62.54 10.35
4/24/2021 5:00:00 PM 12.13 53.834 0.37 8.3 55.45 10.46
4/24/2021 5:15:00 PM 12.11 53.798 0.37 8.28 148.5 10.23
4/24/2021 5:30:00 PM 12.1 53.78 0.37 8.29 60.18 10.01
4/24/2021 5:45:00 PM 12.09 53.762 0.37 8.29 83.87 10.28
4/24/2021 6:00:00 PM 12.1 53.78 0.37 8.28 81.49 10.39
4/24/2021 6:15:00 PM 12.11 53.798 0.37 8.28 83.81 10.17
4/24/2021 6:30:00 PM 12.12 53.816 0.369 8.29 176.7 10.26
4/24/2021 6:45:00 PM 12.14 53.852 0.369 8.28 141.7 10.23
4/24/2021 7:00:00 PM 12.15 53.87 0.369 8.28 135.5 10.18
4/24/2021 7:15:00 PM 12.17 53.906 0.369 8.27 136.5 10.07
4/24/2021 7:30:00 PM 12.19 53.942 0.37 8.27 136.6 9.9
4/24/2021 7:45:00 PM 12.23 54.014 0.37 8.26 134.6 9.84
4/24/2021 8:00:00 PM 12.28 54.104 0.369 8.26 132.7 9.86
4/24/2021 8:15:00 PM 12.32 54.176 0.37 8.26 134.1 9.7
4/24/2021 8:30:00 PM 12.37 54.266 0.369 8.27 139.3 9.66
4/24/2021 8:45:00 PM 12.41 54.338 0.369 8.26 195.8 9.68
4/24/2021 9:00:00 PM 12.45 54.41 0.369 8.26 196 9.65
4/24/2021 9:15:00 PM 12.52 54.536 0.369 8.26 271.9 9.76
4/24/2021 9:30:00 PM 12.55 54.59 0.369 8.27 232.4 9.6
4/24/2021 9:45:00 PM 12.58 54.644 0.369 8.26 431.6 9.5
4/24/2021 10:00:00 PM 12.61 54.698 0.369 8.27 255.6 9.65
4/24/2021 10:15:00 PM 12.66 54.788 0.368 8.27 254.5 9.8
4/24/2021 10:30:00 PM 12.7 54.86 0.369 8.27 253.3 9.82
4/24/2021 10:45:00 PM 12.72 54.896 0.369 8.27 250.5 9.73
4/24/2021 11:00:00 PM 12.74 54.932 0.369 8.27 251.5 9.75
4/24/2021 11:15:00 PM 12.79 55.022 0.369 8.26 249.3 9.62
4/24/2021 11:30:00 PM 12.8 55.04 0.369 8.28 249.8 9.68
4/24/2021 11:45:00 PM 12.82 55.076 0.369 8.28 246.1 9.63
4/25/2021 12:00:00 AM 12.82 55.076 0.369 8.28 244.6 9.65
4/25/2021 12:15:00 AM 12.84 55.112 0.368 8.29 246 9.64
4/25/2021 12:30:00 AM 12.84 55.112 0.368 8.31 242.9 9.69
4/25/2021 12:45:00 AM 12.83 55.094 0.367 8.3 249 9.63
4/25/2021 1:00:00 AM 12.83 55.094 0.367 8.3 250.6 9.55
4/25/2021 1:15:00 AM 12.83 55.094 0.367 8.29 278.8 9.63
4/25/2021 1:30:00 AM 12.82 55.076 0.367 8.27 277.4 9.62
4/25/2021 1:45:00 AM 12.81 55.058 0.367 8.27 340.2 9.53
4/25/2021 2:00:00 AM 12.81 55.058 0.367 8.25 316.3 9.53
4/25/2021 2:15:00 AM 12.79 55.022 0.368 8.24 309.6 9.5
4/25/2021 2:30:00 AM 12.78 55.004 0.368 8.24 309.2 9.51
4/25/2021 2:45:00 AM 12.77 54.986 0.368 8.23 306.8 9.5
4/25/2021 3:00:00 AM 12.75 54.95 0.369 8.23 274.6 9.39
4/25/2021 3:15:00 AM 12.73 54.914 0.37 8.23 254.7 9.37
4/25/2021 3:30:00 AM 12.71 54.878 0.371 8.22 260.6 9.36
4/25/2021 3:45:00 AM 12.69 54.842 0.37 8.21 262.5 9.31
4/25/2021 4:00:00 AM 12.66 54.788 0.37 8.22 260.8 9.24
4/25/2021 4:15:00 AM 12.65 54.77 0.37 8.22 260.7 9.33
4/25/2021 4:30:00 AM 12.63 54.734 0.366 8.2 262.6 8.88
4/25/2021 4:45:00 AM 12.61 54.698 0.371 8.22 257.8 9.26
4/25/2021 5:00:00 AM 12.59 54.662 0.371 8.21 259.8 9.15
4/25/2021 5:15:00 AM 12.56 54.608 0.371 8.2 259.6 9.15
4/25/2021 5:30:00 AM 12.53 54.554 0.372 8.19 263.6 9.12
4/25/2021 5:45:00 AM 12.5 54.5 0.372 8.18 261.7 8.44
4/25/2021 6:00:00 AM 12.48 54.464 0.371 8.18 262.7 8.81
4/25/2021 6:15:00 AM 12.45 54.41 0.372 8.17 263.1 9.04
4/25/2021 6:30:00 AM 12.42 54.356 0.373 8.17 263 9.1
4/25/2021 6:45:00 AM 12.4 54.32 0.373 8.17 263.4 9.17
4/25/2021 7:00:00 AM 12.37 54.266 0.373 8.17 262.9 9.17
4/25/2021 7:15:00 AM 12.34 54.212 0.373 8.16 263.9 9.14
4/25/2021 7:30:00 AM 12.34 54.212 0.373 8.16 261 9.16
4/25/2021 7:45:00 AM 12.33 54.194 0.374 8.16 256.7 9.25
4/25/2021 8:00:00 AM 12.31 54.158 0.374 8.17 257.6 9.22
4/25/2021 8:15:00 AM 12.3 54.14 0.374 8.16 259.1 9.42
4/25/2021 8:30:00 AM 12.29 54.122 0.375 8.17 257.2 9.43
4/25/2021 8:45:00 AM 12.29 54.122 0.374 8.17 255.6 9.51
4/25/2021 9:00:00 AM 12.28 54.104 0.375 8.17 254.9 9.51
4/25/2021 9:15:00 AM 12.3 54.14 0.374 8.17 252.6 9.44
4/25/2021 9:30:00 AM 12.33 54.194 0.374 8.17 251.8 9.65
4/25/2021 9:45:00 AM 12.37 54.266 0.374 8.18 252.8 9.78
4/25/2021 10:00:00 AM 12.46 54.428 0.374 8.2 260.3 9.91
4/25/2021 10:15:00 AM 12.52 54.536 0.374 8.2 299 10.01
4/25/2021 10:30:00 AM 12.51 54.518 0.373 8.21 171.6 10.05
4/25/2021 10:45:00 AM 12.5 54.5 0.373 8.21 175.9 10.11
4/25/2021 11:00:00 AM 12.52 54.536 0.373 8.22 172.4 10.2
4/25/2021 11:15:00 AM 12.58 54.644 0.373 8.22 163.3 10.17
4/25/2021 11:30:00 AM 12.67 54.806 0.373 8.23 158.6 10.23
4/25/2021 11:45:00 AM 12.8 55.04 0.373 8.24 160.3 10.32
4/25/2021 12:00:00 PM 12.82 55.076 0.373 8.25 165 10.31
4/25/2021 12:15:00 PM 12.91 55.238 0.372 8.25 143.1 10.41
4/25/2021 12:30:00 PM 12.99 55.382 0.373 8.25 248.9 10.47
4/25/2021 12:45:00 PM 13.05 55.49 0.373 8.26 165.3 10.48
4/25/2021 1:00:00 PM 13.09 55.562 0.373 8.26 186.3 10.48
4/25/2021 1:15:00 PM 13.01 55.418 0.373 8.25 186.9 10.42
4/25/2021 1:30:00 PM 12.95 55.31 0.373 8.24 183.5 10.38
4/25/2021 1:45:00 PM 12.95 55.31 0.372 8.24 197.4 10.35
4/25/2021 2:00:00 PM 13.08 55.544 0.372 8.25 217.1 10.42
4/25/2021 2:15:00 PM 13.18 55.724 0.372 8.25 267.8 10.37
4/25/2021 2:30:00 PM 13.37 56.066 0.372 8.25 330.5 10.39
4/25/2021 2:45:00 PM 13.58 56.444 0.372 8.26 257 10.42
4/25/2021 3:00:00 PM 13.83 56.894 0.372 8.29 277.6 10.36
4/25/2021 3:15:00 PM 14.02 57.236 0.371 8.3 285.6 10.46
4/25/2021 3:30:00 PM 14.06 57.308 0.371 8.28 243.6 10.59
4/25/2021 3:45:00 PM 14.05 57.29 0.371 8.29 153.8 10.48
4/25/2021 4:00:00 PM 13.94 57.092 0.372 8.27 157.8 10.44
4/25/2021 4:15:00 PM 13.95 57.11 0.371 8.27 160.5 10.32
4/25/2021 4:30:00 PM 13.8 56.84 0.371 8.27 165 10.37
4/25/2021 4:45:00 PM 13.68 56.624 0.372 8.27 171.1 10.31
4/25/2021 5:00:00 PM 13.65 56.57 0.346 8.27 265.9 10.24
4/25/2021 5:15:00 PM 13.63 56.534 0.37 8.26 197.9 10.24
4/25/2021 5:30:00 PM 13.6 56.48 0.37 8.26 197.2 10.23
4/25/2021 5:45:00 PM 13.57 56.426 0.37 8.26 204.3 10.19
4/25/2021 6:00:00 PM 13.58 56.444 0.37 8.26 183 10.1
4/25/2021 6:15:00 PM 13.59 56.462 0.37 8.27 190.3 10.3
4/25/2021 6:30:00 PM 13.61 56.498 0.365 8.29 179.5 10.17
4/25/2021 6:45:00 PM 13.58 56.444 0.347 8.29 187 10.16
4/25/2021 7:00:00 PM 13.62 56.516 0.342 8.28 186.1 10.06
4/25/2021 7:15:00 PM 13.62 56.516 0.334 8.27 191.1 9.98
4/25/2021 7:30:00 PM 13.64 56.552 0.343 8.26 199.1 9.95
4/25/2021 7:45:00 PM 13.63 56.534 0.343 8.26 316.4 9.87
4/25/2021 8:00:00 PM 13.63 56.534 0.342 8.26 312 9.79
4/25/2021 8:15:00 PM 13.63 56.534 0.353 8.27 302.6 9.67
4/25/2021 8:30:00 PM 13.63 56.534 0.36 8.26 308.7 9.58
4/25/2021 8:45:00 PM 13.66 56.588 0.36 8.27 307 9.5
4/25/2021 9:00:00 PM 13.69 56.642 0.322 8.28 301.3 9.45
4/25/2021 9:15:00 PM 13.7 56.66 0.329 8.27 299.5 9.38
4/25/2021 9:30:00 PM 13.7 56.66 0.32 8.27 305.3 9.38
4/25/2021 9:45:00 PM 13.72 56.696 0.315 8.28 302.5 9.33
4/25/2021 10:00:00 PM 13.73 56.714 0.312 8.28 300.2 9.35
4/25/2021 10:15:00 PM 13.74 56.732 0.294 8.29 299.5 9.32
4/25/2021 10:30:00 PM 13.77 56.786 0.296 8.28 305.2 8.97
4/25/2021 10:45:00 PM 13.78 56.804 0.329 8.29 302 9.29
4/25/2021 11:00:00 PM 13.75 56.75 0.322 8.3 294.5 9.26
4/25/2021 11:15:00 PM 13.73 56.714 0.339 8.32 292.7 9.32
4/25/2021 11:30:00 PM 13.71 56.678 0.296 8.32 293.8 9.35
4/25/2021 11:45:00 PM 13.69 56.642 0.288 8.32 292.3 9.35
4/26/2021 12:00:00 AM 13.66 56.588 0.367 8.3 297.7 9.3
4/26/2021 12:15:00 AM 13.66 56.588 0.313 8.32 296.5 9.39
4/26/2021 12:30:00 AM 13.6 56.48 0.376 8.32 287.6 9.34
4/26/2021 12:45:00 AM 13.6 56.48 0.373 8.32 293.3 9.22
4/26/2021 1:00:00 AM 13.58 56.444 0.307 8.32 361.7 9.28
4/26/2021 1:15:00 AM 13.57 56.426 0.37 8.32 358.1 9.27
4/26/2021 1:30:00 AM 13.55 56.39 0.353 8.32 362 9.2
4/26/2021 1:45:00 AM 13.53 56.354 0.31 8.31 296.4 9.22
4/26/2021 2:00:00 AM 13.51 56.318 0.293 8.32 297.5 9.34
4/26/2021 2:15:00 AM 13.49 56.282 0.372 8.31 285.1 9.24
4/26/2021 2:30:00 AM 13.45 56.21 0.372 8.31 286.1 9.14
4/26/2021 2:45:00 AM 13.42 56.156 0.372 8.31 289.2 9.19
4/26/2021 3:00:00 AM 13.39 56.102 0.372 8.31 281.3 9.25
4/26/2021 3:15:00 AM 13.34 56.012 0.371 8.29 281 9.31
4/26/2021 3:30:00 AM 13.29 55.922 0.372 8.3 278.5 9.28
4/26/2021 3:45:00 AM 13.25 55.85 0.372 8.29 278.4 9.3
4/26/2021 4:00:00 AM 13.21 55.778 0.371 8.28 273.4 9.26
4/26/2021 4:15:00 AM 13.17 55.706 0.372 8.28 275 9.25
4/26/2021 4:30:00 AM 13.12 55.616 0.372 8.27 275.5 9.25
4/26/2021 4:45:00 AM 13.08 55.544 0.372 8.26 269 9.2
4/26/2021 5:00:00 AM 13.02 55.436 0.371 8.25 272 9.17
4/26/2021 5:15:00 AM 12.96 55.328 0.371 8.24 251.4 9.18
4/26/2021 5:30:00 AM 12.9 55.22 0.371 8.24 256.5 9.17
4/26/2021 5:45:00 AM 12.84 55.112 0.372 8.23 262.4 9.19
4/26/2021 6:00:00 AM 12.78 55.004 0.372 8.21 343.7 8.96
4/26/2021 6:15:00 AM 12.7 54.86 0.364 8.21 355.2 9.15
4/26/2021 6:30:00 AM 12.63 54.734 0.366 8.2 351.8 9.18
4/26/2021 6:45:00 AM 12.57 54.626 0.366 8.2 354 9.09
4/26/2021 7:00:00 AM 12.5 54.5 0.365 8.19 349.7 9.14
4/26/2021 7:15:00 AM 12.46 54.428 0.369 8.15 345.6 9.17
4/26/2021 7:30:00 AM 12.4 54.32 0.365 8.16 337.1 9.26
4/26/2021 7:45:00 AM 12.33 54.194 0.366 8.15 337.1 9.31
4/26/2021 8:00:00 AM 12.29 54.122 0.367 8.15 332.9 9.31
4/26/2021 8:15:00 AM 12.24 54.032 0.37 8.16 333.3 9.4
4/26/2021 8:30:00 AM 12.19 53.942 0.368 8.16 334.2 9.45
4/26/2021 8:45:00 AM 12.18 53.924 0.364 8.17 328.6 9.63
4/26/2021 9:00:00 AM 12.14 53.852 0.36 8.19 329.3 9.61
4/26/2021 9:15:00 AM 12.13 53.834 0.372 8.18 325.9 9.8
4/26/2021 9:30:00 AM 12.14 53.852 0.372 8.2 325.8 9.78
4/26/2021 9:45:00 AM 12.16 53.888 0.372 8.2 322 9.91
4/26/2021 10:00:00 AM 12.18 53.924 0.354 8.2 322.8 9.98
4/26/2021 10:15:00 AM 12.22 53.996 0.372 8.22 326.5 10.01
4/26/2021 10:30:00 AM 12.27 54.086 0.361 8.21 325.2 10.12
4/26/2021 10:45:00 AM 12.32 54.176 0.371 8.19 341.1 10.19
4/26/2021 11:00:00 AM 12.37 54.266 0.371 8.2 337.3 10.31
4/26/2021 11:15:00 AM 12.44 54.392 0.371 8.23 338.8 10.23
4/26/2021 11:30:00 AM 12.53 54.554 0.363 8.24 336.6 10.33
4/26/2021 11:45:00 AM 12.61 54.698 0.369 8.23 340.8 10.23
4/26/2021 12:00:00 PM 12.74 54.932 0.37 8.25 337.3 10.42
4/26/2021 12:15:00 PM 12.84 55.112 0.369 8.24 370.5 10.47
4/26/2021 12:30:00 PM 12.96 55.328 0.365 8.25 369.6 10.51
4/26/2021 12:45:00 PM 13.09 55.562 0.367 8.25 375.1 10.48
4/26/2021 1:00:00 PM 13.23 55.814 0.365 8.25 303.9 10.64
4/26/2021 1:15:00 PM 13.4 56.12 0.368 8.27 311.8 10.71
4/26/2021 1:30:00 PM 13.54 56.372 0.369 8.26 338.8 10.57
4/26/2021 1:45:00 PM 13.69 56.642 0.368 8.25 340.4 10.65
4/26/2021 2:00:00 PM 13.74 56.732 0.367 8.24 385.2 10.56
4/26/2021 2:15:00 PM 13.94 57.092 0.367 8.27 318 10.34
4/26/2021 2:30:00 PM 14.07 57.326 0.367 8.26 330.9 10.43
4/26/2021 2:45:00 PM 14.14 57.452 0.365 8.26 229.5 10.3
4/26/2021 3:00:00 PM 14.26 57.668 0.357 8.29 392.9 10.6
4/26/2021 3:15:00 PM 14.37 57.866 0.36 8.32 538.7 10.69
4/26/2021 3:30:00 PM 14.47 58.046 0.367 8.32 353.5 10.58
4/26/2021 3:45:00 PM 14.49 58.082 0.367 8.32 266.3 10.62
4/26/2021 4:00:00 PM 14.57 58.226 0.364 8.32 499.2 10.71
4/26/2021 4:15:00 PM 14.59 58.262 0.352 8.31 200.5 10.74
4/26/2021 4:30:00 PM 14.65 58.37 0.364 8.3 477.1 10.37
4/26/2021 4:45:00 PM 14.61 58.298 0.366 8.31 240.3 10.54
4/26/2021 5:00:00 PM 14.62 58.316 0.366 8.32 230 10.77
4/26/2021 5:15:00 PM 14.56 58.208 0.366 8.3 397.8 10.19
4/26/2021 5:30:00 PM 14.51 58.118 0.366 8.3 189.1 10.12
4/26/2021 5:45:00 PM 14.44 57.992 0.366 8.27 663.1 10.52
4/26/2021 6:00:00 PM 14.37 57.866 0.366 8.26 388.8 10.28
4/26/2021 6:15:00 PM 14.28 57.704 0.366 8.27 307.9 10.31
4/26/2021 6:30:00 PM 14.2 57.56 0.366 8.27 584.3 10.16
4/26/2021 6:45:00 PM 14.13 57.434 0.366 8.28 304.4 10.23
4/26/2021 7:00:00 PM 14.04 57.272 0.367 8.28 243.4 10.16
4/26/2021 7:15:00 PM 14.01 57.218 0.367 8.29 596.2 10.03
4/26/2021 7:30:00 PM 14 57.2 0.367 8.27 553.9 9.89
4/26/2021 7:45:00 PM 13.96 57.128 0.367 8.27 321.2 9.84
4/26/2021 8:00:00 PM 13.98 57.164 0.368 8.27 506.6 9.64
4/26/2021 8:15:00 PM 14 57.2 0.368 8.27 442.7 9.59
4/26/2021 8:30:00 PM 13.99 57.182 0.368 8.27 589.6 9.49
4/26/2021 8:45:00 PM 14.01 57.218 0.37 8.27 236.5 9.51
4/26/2021 9:00:00 PM 14.02 57.236 0.348 8.28 366.9 9.48
4/26/2021 9:15:00 PM 14.06 57.308 0.347 8.3 246.7 9.4
4/26/2021 9:30:00 PM 14.09 57.362 0.347 8.3 426.1 9.39
4/26/2021 9:45:00 PM 14.12 57.416 0.345 8.31 254.6 9.35
4/26/2021 10:00:00 PM 14.15 57.47 0.364 8.31 256.6 9.37
4/26/2021 10:15:00 PM 14.2 57.56 0.361 8.32 257.9 9.09
4/26/2021 10:30:00 PM 14.24 57.632 0.356 8.31 258.9 9.2
4/26/2021 10:45:00 PM 14.27 57.686 0.335 8.34 260.1 9.34
4/26/2021 11:00:00 PM 14.29 57.722 0.338 8.34 261.1 9.38
4/26/2021 11:15:00 PM 14.34 57.812 0.37 8.34 259.8 9.31
4/26/2021 11:30:00 PM 14.36 57.848 0.342 8.35 261.9 9.08
4/26/2021 11:45:00 PM 14.37 57.866 0.337 8.34 260.7 9.36
4/27/2021 12:00:00 AM 14.38 57.884 0.308 8.34 262.1 9.33
4/27/2021 12:15:00 AM 14.4 57.92 0.312 8.35 263.3 9.35
4/27/2021 12:30:00 AM 14.39 57.902 0.31 8.33 263.5 9.34
4/27/2021 12:45:00 AM 14.41 57.938 0.368 8.34 265.7 9.25
4/27/2021 1:00:00 AM 14.43 57.974 0.359 8.35 259.4 9.27
4/27/2021 1:15:00 AM 14.42 57.956 0.315 8.35 261.6 9.34
4/27/2021 1:30:00 AM 14.38 57.884 0.317 8.35 262.5 9.31
4/27/2021 1:45:00 AM 14.4 57.92 0.362 8.33 264.2 9.34
4/27/2021 2:00:00 AM 14.38 57.884 0.356 8.35 267.6 9.35
4/27/2021 2:15:00 AM 14.35 57.83 0.324 8.36 262.8 9.33
4/27/2021 2:30:00 AM 14.34 57.812 0.335 8.35 259.9 9.27
4/27/2021 2:45:00 AM 14.33 57.794 0.356 8.35 257 9.27
4/27/2021 3:00:00 AM 14.3 57.74 0.371 8.34 253.6 9.25
4/27/2021 3:15:00 AM 14.28 57.704 0.37 8.34 253.2 9.2
4/27/2021 3:30:00 AM 14.23 57.614 0.372 8.32 255.4 9.21
4/27/2021 3:45:00 AM 14.21 57.578 0.362 8.33 254.5 9.16
4/27/2021 4:00:00 AM 14.17 57.506 0.345 8.31 259.1 9.18
4/27/2021 4:15:00 AM 14.12 57.416 0.366 8.31 263.7 9.12
4/27/2021 4:30:00 AM 14.07 57.326 0.369 8.28 260.2 9.11
4/27/2021 4:45:00 AM 14.04 57.272 0.344 8.29 257.8 9.13
4/27/2021 5:00:00 AM 13.99 57.182 0.333 8.27 260 9.05
4/27/2021 5:15:00 AM 13.93 57.074 0.337 8.27 262.3 9.06
4/27/2021 5:30:00 AM 13.87 56.966 0.365 8.26 267.2 9.08
4/27/2021 5:45:00 AM 13.82 56.876 0.37 8.25 268.7 8.88
4/27/2021 6:00:00 AM 13.77 56.786 0.372 8.24 276.2 8.97
4/27/2021 6:15:00 AM 13.71 56.678 0.359 8.23 278.2 8.93
4/27/2021 6:30:00 AM 13.65 56.57 0.363 8.21 277.4 8.77
4/27/2021 6:45:00 AM 13.58 56.444 0.364 8.22 278.5 8.92
4/27/2021 7:00:00 AM 13.54 56.372 0.365 8.2 279.9 8.91
4/27/2021 7:15:00 AM 13.51 56.318 0.364 8.21 269.4 8.84
4/27/2021 7:30:00 AM 13.48 56.264 0.368 8.21 260.7 8.97
4/27/2021 7:45:00 AM 13.44 56.192 0.362 8.21 258.6 8.92
4/27/2021 8:00:00 AM 13.42 56.156 0.365 8.19 254.7 9
4/27/2021 8:15:00 AM 13.41 56.138 0.369 8.21 257.1 9.29
4/27/2021 8:30:00 AM 13.41 56.138 0.362 8.22 250.5 9.3
4/27/2021 8:45:00 AM 13.42 56.156 0.354 8.22 245.9 9.21
4/27/2021 9:00:00 AM 13.43 56.174 0.354 8.23 247.3 9.47
4/27/2021 9:15:00 AM 13.45 56.21 0.358 8.23 244.5 9.45
4/27/2021 9:30:00 AM 13.48 56.264 0.362 8.24 244.5 9.56
4/27/2021 9:45:00 AM 13.53 56.354 0.354 8.25 243.7 9.68
4/27/2021 10:00:00 AM 13.58 56.444 0.356 8.25 239.8 9.85
4/27/2021 10:15:00 AM 13.63 56.534 0.356 8.25 238.6 9.92
4/27/2021 10:30:00 AM 13.69 56.642 0.343 8.26 236.1 9.98
4/27/2021 10:45:00 AM 13.77 56.786 0.335 8.25 234 9.9
4/27/2021 11:00:00 AM 13.86 56.948 0.348 8.27 237.7 10.06
4/27/2021 11:15:00 AM 13.95 57.11 0.375 8.28 235.2 10.05
4/27/2021 11:30:00 AM 14.04 57.272 0.375 8.29 234.3 10.14
4/27/2021 11:45:00 AM 14.14 57.452 0.375 8.28 235.7 10.12
4/27/2021 12:00:00 PM 14.29 57.722 0.376 8.29 235 10.32
4/27/2021 12:15:00 PM 14.46 58.028 0.322 8.3 240.1 10.31
4/27/2021 12:30:00 PM 14.58 58.244 0.375 8.3 237.1 10.39
4/27/2021 12:45:00 PM 14.78 58.604 0.375 8.31 239.1 10.32
4/27/2021 1:00:00 PM 14.98 58.964 0.375 8.32 237.7 10.41
4/27/2021 1:15:00 PM 15.15 59.27 0.375 8.32 230.2 10.37
4/27/2021 1:30:00 PM 15.32 59.576 0.375 8.31 223.8 10.2
4/27/2021 1:45:00 PM 15.47 59.846 0.375 8.31 215.4 10.28
4/27/2021 2:00:00 PM 15.62 60.116 0.369 8.32 217.3 10.55
4/27/2021 2:15:00 PM 15.77 60.386 0.375 8.32 210.4 10.43
4/27/2021 2:30:00 PM 15.92 60.656 0.315 8.33 211.1 10.15
4/27/2021 2:45:00 PM 16.03 60.854 0.333 8.34 202.7 10.62
4/27/2021 3:00:00 PM 16.03 60.854 0.374 8.32 198.3 10.64
4/27/2021 3:15:00 PM 16.11 60.998 0.375 8.33 205.2 10.6
4/27/2021 3:30:00 PM 16.13 61.034 0.375 8.33 194.9 10.53
4/27/2021 3:45:00 PM 16.13 61.034 0.376 8.34 236 10.39
4/27/2021 4:00:00 PM 16.16 61.088 0.376 8.35 228.5 10.38
4/27/2021 4:15:00 PM 16.22 61.196 0.376 8.36 191.4 10.57
4/27/2021 4:30:00 PM 16.28 61.304 0.377 8.37 182.8 10.61
4/27/2021 4:45:00 PM 16.32 61.376 0.372 8.39 182.6 10.53
4/27/2021 5:00:00 PM 16.34 61.412 0.327 8.38 189 10.63
4/27/2021 5:15:00 PM 16.32 61.376 0.377 8.38 186.7 10.55
4/27/2021 5:30:00 PM 16.33 61.394 0.377 8.39 329.4 10.45
4/27/2021 5:45:00 PM 16.26 61.268 0.378 8.38 210.1 10.4
4/27/2021 6:00:00 PM 16.14 61.052 0.378 8.37 269.9 10.15
4/27/2021 6:15:00 PM 16 60.8 0.378 8.37 308.5 9.84
4/27/2021 6:30:00 PM 15.86 60.548 0.378 8.39 437.5 9.88
4/27/2021 6:45:00 PM 15.77 60.386 0.378 8.4 549.1 9.72
4/27/2021 7:00:00 PM 15.69 60.242 0.378 8.41 603.8 9.45
4/27/2021 7:15:00 PM 15.67 60.206 0.378 8.41 569.6 9.36
4/27/2021 7:30:00 PM 15.64 60.152 0.378 8.42 875.7 8.96
4/27/2021 7:45:00 PM 15.61 60.098 0.378 8.42 273.8 9.11
4/27/2021 8:00:00 PM 15.61 60.098 0.378 8.43 157.2 9.04
4/27/2021 8:15:00 PM 15.61 60.098 0.378 8.41 155.6 8.93
4/27/2021 8:30:00 PM 15.64 60.152 0.378 8.4 539.4 8.89
4/27/2021 8:45:00 PM 15.67 60.206 0.379 8.4 300 8.76
4/27/2021 9:00:00 PM 15.69 60.242 0.379 8.39 728.7 8.81
4/27/2021 9:15:00 PM 15.72 60.296 0.378 8.4 291.3 8.78
4/27/2021 9:30:00 PM 15.77 60.386 0.378 8.39 461.8 8.83
4/27/2021 9:45:00 PM 15.82 60.476 0.377 8.4 352.1 8.74
4/27/2021 10:00:00 PM 15.85 60.53 0.377 8.38 710.7 8.65
4/27/2021 10:15:00 PM 15.91 60.638 0.377 8.39 319.3 8.83
4/27/2021 10:30:00 PM 15.95 60.71 0.377 8.41 320 8.72
4/27/2021 10:45:00 PM 16 60.8 0.369 8.4 320.9 8.79
4/27/2021 11:00:00 PM 16.06 60.908 0.354 8.42 323.4 8.89
4/27/2021 11:15:00 PM 16.11 60.998 0.377 8.39 328.1 8.7
4/27/2021 11:30:00 PM 16.17 61.106 0.377 8.41 329.4 8.66
4/27/2021 11:45:00 PM 16.25 61.25 0.377 8.42 330.2 8.78
4/28/2021 12:00:00 AM 16.28 61.304 0.377 8.42 332.8 8.69
4/28/2021 12:15:00 AM 16.33 61.394 0.377 8.41 335 8.64
4/28/2021 12:30:00 AM 16.35 61.43 0.377 8.42 335 8.7
4/28/2021 12:45:00 AM 16.39 61.502 0.377 8.42 329.8 8.78
4/28/2021 1:00:00 AM 16.43 61.574 0.377 8.42 328.6 8.78
4/28/2021 1:15:00 AM 16.47 61.646 0.377 8.42 335.6 8.82
4/28/2021 1:30:00 AM 16.48 61.664 0.377 8.42 335.5 8.68
4/28/2021 1:45:00 AM 16.51 61.718 0.377 8.42 329.9 8.75
4/28/2021 2:00:00 AM 16.52 61.736 0.377 8.42 331.2 8.45
4/28/2021 2:15:00 AM 16.53 61.754 0.377 8.41 332.8 8.62
4/28/2021 2:30:00 AM 16.53 61.754 0.376 8.4 333.3 8.62
4/28/2021 2:45:00 AM 16.52 61.736 0.376 8.4 333.5 8.62
4/28/2021 3:00:00 AM 16.52 61.736 0.377 8.4 335.6 8.58
4/28/2021 3:15:00 AM 16.51 61.718 0.376 8.35 333.3 8.74
4/28/2021 3:30:00 AM 16.48 61.664 0.375 8.37 332 8.66
4/28/2021 3:45:00 AM 16.47 61.646 0.372 8.37 342 8.59
4/28/2021 4:00:00 AM 16.45 61.61 0.378 8.35 355.5 8.56
4/28/2021 4:15:00 AM 16.41 61.538 0.378 8.35 344.3 8.6
4/28/2021 4:30:00 AM 16.4 61.52 0.378 8.34 341.1 8.57
4/28/2021 4:45:00 AM 16.36 61.448 0.378 8.33 339.6 8.4
4/28/2021 5:00:00 AM 16.35 61.43 0.378 8.32 343.1 8.6
4/28/2021 5:15:00 AM 16.32 61.376 0.378 8.31 353.3 8.45
4/28/2021 5:30:00 AM 16.29 61.322 0.333 8.29 353.4 8.42
4/28/2021 5:45:00 AM 16.27 61.286 0.34 8.28 389.8 8.37
4/28/2021 6:00:00 AM 16.25 61.25 0.367 8.27 298.6 7.79
4/28/2021 6:15:00 AM 16.22 61.196 0.357 8.25 308.9 8.34
4/28/2021 6:30:00 AM 16.18 61.124 0.366 8.25 267.1 8.21
4/28/2021 6:45:00 AM 16.15 61.07 0.367 8.24 268.2 8.38
4/28/2021 7:00:00 AM 16.13 61.034 0.368 8.23 264 8.46
4/28/2021 7:15:00 AM 16.1 60.98 0.369 8.22 258.1 8.43
4/28/2021 7:30:00 AM 16.08 60.944 0.37 8.2 251 8.52
4/28/2021 7:45:00 AM 16.08 60.944 0.367 8.18 247.2 8.58
4/28/2021 8:00:00 AM 16.09 60.962 0.373 8.2 242.3 8.66
4/28/2021 8:15:00 AM 16.08 60.944 0.365 8.18 237.5 8.75
4/28/2021 8:30:00 AM 16.09 60.962 0.369 8.18 236.2 8.87
4/28/2021 8:45:00 AM 16.1 60.98 0.372 8.16 232.6 8.95
4/28/2021 9:00:00 AM 16.12 61.016 0.371 8.17 227 8.99
4/28/2021 9:15:00 AM 16.14 61.052 0.371 8.18 226.4 9.07
4/28/2021 9:30:00 AM 16.16 61.088 0.357 8.16 214.7 9.05
4/28/2021 9:45:00 AM 16.18 61.124 0.314 8.19 195.6 9.14
4/28/2021 10:00:00 AM 16.23 61.214 0.343 8.17 197.7 9.38
4/28/2021 10:15:00 AM 16.3 61.34 0.336 8.18 200.5 9.37
4/28/2021 10:30:00 AM 16.38 61.484 0.381 8.19 183.2 9.45
4/28/2021 10:45:00 AM 16.43 61.574 0.381 8.19 181.2 9.51
4/28/2021 11:00:00 AM 16.52 61.736 0.381 8.2 179.9 9.33
4/28/2021 11:15:00 AM 16.62 61.916 0.38 8.2 180.8 9.73
4/28/2021 11:30:00 AM 16.75 62.15 0.381 8.2 180.9 9.45
4/28/2021 11:45:00 AM 16.89 62.402 0.38 8.21 183.7 8.85
4/28/2021 12:00:00 PM 17.03 62.654 0.38 8.22 188.9 9.71
4/28/2021 12:15:00 PM 17.18 62.924 0.38 8.21 204.6 9.83
4/28/2021 12:30:00 PM 17.32 63.176 0.379 8.21 187.2 10.04
4/28/2021 12:45:00 PM 17.47 63.446 0.378 8.24 178 10.11
4/28/2021 1:00:00 PM 17.57 63.626 0.378 8.25 183.6 10.18
4/28/2021 1:15:00 PM 17.7 63.86 0.378 8.22 886.7 10.21
4/28/2021 1:30:00 PM 17.73 63.914 0.379 8.21 900.1 10.24
4/28/2021 1:45:00 PM 17.82 64.076 0.379 8.21 905.5 10.17
4/28/2021 2:00:00 PM 17.95 64.31 0.379 8.21 980.2 10.25
4/28/2021 2:15:00 PM 18.09 64.562 0.378 8.2 861.8 10.22
4/28/2021 2:30:00 PM 18.19 64.742 0.379 8.19 834.3 10.27
4/28/2021 2:45:00 PM 18.3 64.94 0.379 8.19 832.8 10.28
4/28/2021 3:00:00 PM 18.4 65.12 0.379 8.2 835.3 10.29
4/28/2021 3:15:00 PM 18.46 65.228 0.379 8.22 826.2 10.3
4/28/2021 3:30:00 PM 18.46 65.228 0.38 8.21 819.8 9.89
4/28/2021 3:45:00 PM 18.41 65.138 0.38 8.2 833.9 10.06
4/28/2021 4:00:00 PM 18.35 65.03 0.38 8.19 891.4 10.04
4/28/2021 4:15:00 PM 18.4 65.12 0.381 8.2 840.4 9.88
4/28/2021 4:30:00 PM 18.31 64.958 0.363 8.21 909.6 10.08
4/28/2021 4:45:00 PM 18.23 64.814 0.36 8.19 994.7 9.99
4/28/2021 5:00:00 PM 18.14 64.652 0.365 8.19 1414 9.88
4/28/2021 5:15:00 PM 18.06 64.508 0.354 8.18 1907 9.73
4/28/2021 5:30:00 PM 18 64.4 0.333 8.17 1759 9.64
4/28/2021 5:45:00 PM 17.92 64.256 0.343 8.16 1294 9.52
4/28/2021 6:00:00 PM 17.85 64.13 0.341 8.17 1165 9.4
4/28/2021 6:15:00 PM 17.81 64.058 0.353 8.2 1216 9.35
4/28/2021 6:30:00 PM 17.77 63.986 0.341 8.23 1245 9.19
4/28/2021 6:45:00 PM 17.73 63.914 0.356 8.23 1278 9.14
4/28/2021 7:00:00 PM 17.72 63.896 0.359 8.21 1269 9.01
4/28/2021 7:15:00 PM 17.7 63.86 0.314 8.21 1288 8.8
4/28/2021 7:30:00 PM 17.68 63.824 0.319 8.2 1321 8.77
4/28/2021 7:45:00 PM 17.66 63.788 0.373 8.21 1347 8.57
4/28/2021 8:00:00 PM 17.65 63.77 0.361 8.19 1366 8.56
4/28/2021 8:15:00 PM 17.65 63.77 0.368 8.15 1387 8.4
4/28/2021 8:30:00 PM 17.65 63.77 0.366 8.13 1380 7.98
4/28/2021 8:45:00 PM 17.66 63.788 0.345 8.19 1396 8.21
4/28/2021 9:00:00 PM 17.69 63.842 0.313 8.2 1192 8.21
4/28/2021 9:15:00 PM 17.72 63.896 0.384 8.2 1247 8.03
4/28/2021 9:30:00 PM 17.75 63.95 0.384 8.21 1264 8.16
4/28/2021 9:45:00 PM 17.81 64.058 0.383 8.21 1266 7.9
4/28/2021 10:00:00 PM 17.86 64.148 0.384 8.21 1283 7.99
4/28/2021 10:15:00 PM 17.91 64.238 0.383 8.22 1299 8.12
4/28/2021 10:30:00 PM 17.99 64.382 0.375 8.23 1346 8.23
4/28/2021 10:45:00 PM 18.02 64.436 0.357 8.25 1332 8.17
4/28/2021 11:00:00 PM 18.1 64.58 0.351 8.24 1311 8.07
4/28/2021 11:15:00 PM 18.18 64.724 0.369 8.26 1201 8.26
4/28/2021 11:30:00 PM 18.21 64.778 0.342 8.26 1202 8.22
4/28/2021 11:45:00 PM 18.28 64.904 0.349 8.27 1165 8.23
4/29/2021 12:00:00 AM 18.32 64.976 0.35 8.26 1248 8.22
4/29/2021 12:15:00 AM 18.38 65.084 0.349 8.28 1059 8.23
4/29/2021 12:30:00 AM 18.44 65.192 0.323 8.29 1330 8.03
4/29/2021 12:45:00 AM 18.49 65.282 0.32 8.3 1300 8.07
4/29/2021 1:00:00 AM 18.54 65.372 0.321 8.3 1313 8.14
4/29/2021 1:15:00 AM 18.58 65.444 0.361 8.31 1376 8.19
4/29/2021 1:30:00 AM 18.64 65.552 0.363 8.31 1415 8.18
4/29/2021 1:45:00 AM 18.67 65.606 0.376 8.31 1506 8.04
4/29/2021 2:00:00 AM 18.71 65.67799 0.359 8.32 1556 8.15
4/29/2021 2:15:00 AM 18.75 65.75 0.297 8.32 1504 8.05
4/29/2021 2:30:00 AM 18.78 65.804 0.294 8.33 1497 8.05
4/29/2021 2:45:00 AM 18.81 65.858 0.313 8.34 1497 8.01
4/29/2021 3:00:00 AM 18.81 65.858 0.309 8.34 1501 7.94
4/29/2021 3:15:00 AM 18.83 65.894 0.339 8.34 1496 8.08
4/29/2021 3:30:00 AM 18.84 65.912 0.281 8.34 1555 8.06
4/29/2021 3:45:00 AM 18.84 65.912 0.304 8.33 1608 7.93
4/29/2021 4:00:00 AM 18.82 65.876 0.36 8.33 1583 7.96
4/29/2021 4:15:00 AM 18.82 65.876 0.354 8.32 1584 7.64
4/29/2021 4:30:00 AM 18.8 65.84 0.344 8.31 1575 7.67
4/29/2021 4:45:00 AM 18.79 65.82201 0.343 8.3 1561 7.72
4/29/2021 5:00:00 AM 18.77 65.786 0.349 8.28 1570 7.5
4/29/2021 5:15:00 AM 18.75 65.75 0.365 8.28 1583 7.05
4/29/2021 5:30:00 AM 18.73 65.714 0.37 8.28 1594 7.49
4/29/2021 5:45:00 AM 18.71 65.67799 0.366 8.27 1600 7.52
4/29/2021 6:00:00 AM 18.67 65.606 0.37 8.26 1599 7.37
4/29/2021 6:15:00 AM 18.64 65.552 0.347 8.25 1613 7.43
4/29/2021 6:30:00 AM 18.61 65.498 0.376 8.24 1602 7.35
4/29/2021 6:45:00 AM 18.6 65.48 0.375 8.24 1481 7.5
4/29/2021 7:00:00 AM 18.57 65.426 0.363 8.23 1488 7.09
4/29/2021 7:15:00 AM 18.57 65.426 0.36 8.22 1496 7.38
4/29/2021 7:30:00 AM 18.57 65.426 0.332 8.22 1490 7.55
4/29/2021 7:45:00 AM 18.57 65.426 0.343 8.22 1419 7.5
4/29/2021 8:00:00 AM 18.59 65.462 0.331 8.22 1435 7.67
4/29/2021 8:15:00 AM 18.59 65.462 0.34 8.23 1434 7.73
4/29/2021 8:30:00 AM 18.59 65.462 0.325 8.23 1363 7.58
4/29/2021 8:45:00 AM 18.58 65.444 0.322 8.23 1358 7.93
4/29/2021 9:00:00 AM 18.59 65.462 0.323 8.24 1375 7.83
4/29/2021 9:15:00 AM 18.58 65.444 0.337 8.24 1382 7.45
4/29/2021 9:30:00 AM 18.57 65.426 0.385 8.24 1496 6.78
4/29/2021 9:45:00 AM 18.55 65.39 0.373 8.24 1451 8.09
4/29/2021 10:00:00 AM 18.55 65.39 0.335 8.23 1916 7.1
4/29/2021 10:15:00 AM 18.54 65.372 0.366 8.24 1513 7.52
4/29/2021 10:30:00 AM 18.53 65.354 0.352 8.23 1673 7.85
4/29/2021 10:45:00 AM 18.49 65.282 0.376 8.23 1671 8.13
4/29/2021 11:00:00 AM 18.48 65.264 0.366 8.22 1643 7.91
4/29/2021 11:15:00 AM 18.47 65.246 0.379 8.22 1623 8.32
4/29/2021 11:30:00 AM 18.45 65.21 0.379 8.21 1527 8.3
4/29/2021 11:45:00 AM 18.43 65.174 0.365 8.2 1616 8.16
4/29/2021 12:00:00 PM 18.4 65.12 0.37 8.2 1631 8.31
4/29/2021 12:15:00 PM 18.41 65.138 0.374 8.2 1787 8.49
4/29/2021 12:30:00 PM 18.38 65.084 0.373 8.18 1804 8.29
4/29/2021 12:45:00 PM 18.37 65.066 0.373 8.19 1768 8.29
4/29/2021 1:00:00 PM 18.36 65.048 0.367 8.2 1817 8.57
4/29/2021 1:15:00 PM 18.36 65.048 0.366 8.21 1813 8.58
4/29/2021 1:30:00 PM 18.35 65.03 0.374 8.19 1780 8.57
4/29/2021 1:45:00 PM 18.34 65.012 0.352 8.19 1781 8.39
4/29/2021 2:00:00 PM 18.32 64.976 0.367 8.18 1787 8.1
4/29/2021 2:15:00 PM 18.32 64.976 0.378 8.19 1810 8.37
4/29/2021 2:30:00 PM 18.32 64.976 0.366 8.18 1825 8.3
4/29/2021 2:45:00 PM 18.35 65.03 0.351 8.18 1800 8.49
4/29/2021 3:00:00 PM 18.34 65.012 0.333 8.18 1793 8.49
4/29/2021 3:15:00 PM 18.35 65.03 0.326 8.18 1802 8.49
4/29/2021 3:30:00 PM 18.36 65.048 0.306 8.19 1775 8.47
4/29/2021 3:45:00 PM 18.38 65.084 0.315 8.2 1753 8.43
4/29/2021 4:00:00 PM 18.39 65.102 0.327 8.2 1688 8.7
4/29/2021 4:15:00 PM 18.38 65.084 0.327 8.2 1702 8.67
4/29/2021 4:30:00 PM 18.36 65.048 0.329 8.19 1724 8.46
4/29/2021 4:45:00 PM 18.33 64.994 0.311 8.18 1724 8.25
4/29/2021 5:00:00 PM 18.31 64.958 0.311 8.17 1850 8.17
4/29/2021 5:15:00 PM 18.29 64.922 0.352 8.16 1850 8.16
4/29/2021 5:30:00 PM 18.24 64.832 0.323 8.15 1920 7.97
4/29/2021 5:45:00 PM 18.23 64.814 0.282 8.15 1965 7.94
4/29/2021 6:00:00 PM 18.23 64.814 0.294 8.14 1665 8.02
4/29/2021 6:15:00 PM 18.23 64.814 0.303 8.14 1334 8.07
4/29/2021 6:30:00 PM 18.23 64.814 0.316 8.15 1522 8.17
4/29/2021 6:45:00 PM 18.22 64.796 0.294 8.14 1545 8.08
4/29/2021 7:00:00 PM 18.2 64.76 0.29 8.13 1549 8.06
4/29/2021 7:15:00 PM 18.18 64.724 0.309 8.12 1590 7.95
4/29/2021 7:30:00 PM 18.16 64.688 0.307 8.12 1595 7.86
4/29/2021 7:45:00 PM 18.14 64.652 0.307 8.12 1612 7.78
4/29/2021 8:00:00 PM 18.13 64.634 0.31 8.1 1608 7.67
4/29/2021 8:15:00 PM 18.1 64.58 0.389 8.11 1635 7.77
4/29/2021 8:30:00 PM 18.1 64.58 0.379 8.1 1710 7.7
4/29/2021 8:45:00 PM 18.09 64.562 0.341 8.09 1625 7.61
4/29/2021 9:00:00 PM 18.08 64.544 0.392 8.1 1847 7.58
4/29/2021 9:15:00 PM 18.08 64.544 0.362 8.1 1868 7.63
4/29/2021 9:30:00 PM 18.08 64.544 0.321 8.09 1884 7.54
4/29/2021 9:45:00 PM 18.07 64.526 0.334 8.1 1879 7.61
4/29/2021 10:00:00 PM 18.06 64.508 0.35 8.1 1879 7.62
4/29/2021 10:15:00 PM 18.06 64.508 0.351 8.1 1866 7.61
4/29/2021 10:30:00 PM 18.05 64.49 0.34 8.11 1889 7.66
4/29/2021 10:45:00 PM 18.05 64.49 0.336 8.11 1904 7.7
4/29/2021 11:00:00 PM 18.04 64.472 0.376 8.11 1912 7.57
4/29/2021 11:15:00 PM 18.03 64.454 0.343 8.12 1903 7.67
4/29/2021 11:30:00 PM 18.01 64.418 0.351 8.11 1929 7.57
4/29/2021 11:45:00 PM 18 64.4 0.379 8.13 1927 7.63
4/30/2021 12:00:00 AM 17.98 64.364 0.37 8.13 1990 7.6
4/30/2021 12:15:00 AM 17.96 64.328 0.347 8.15 1989 7.77
4/30/2021 12:30:00 AM 17.97 64.346 0.368 8.15 1919 7.73
4/30/2021 12:45:00 AM 17.96 64.328 0.347 8.14 1931 7.73
4/30/2021 1:00:00 AM 17.96 64.328 0.327 8.15 1939 7.75
4/30/2021 1:15:00 AM 17.96 64.328 0.334 8.15 1955 7.72
4/30/2021 1:30:00 AM 17.93 64.274 0.346 8.16 1935 7.78
4/30/2021 1:45:00 AM 17.93 64.274 0.345 8.17 1941 7.81
4/30/2021 2:00:00 AM 17.91 64.238 0.34 8.17 1948 7.78
4/30/2021 2:15:00 AM 17.88 64.184 0.366 8.17 1952 7.82
4/30/2021 2:30:00 AM 17.85 64.13 0.363 8.17 1956 7.82
4/30/2021 2:45:00 AM 17.81 64.058 0.369 8.17 1958 7.8
4/30/2021 3:00:00 AM 17.76 63.968 0.344 8.17 1967 7.79
4/30/2021 3:15:00 AM 17.73 63.914 0.343 8.17 2002 7.79
4/30/2021 3:30:00 AM 17.7 63.86 0.341 8.18 2003 7.81
4/30/2021 3:45:00 AM 17.66 63.788 0.329 8.17 1974 7.76
4/30/2021 4:00:00 AM 17.61 63.698 0.335 8.17 1968 7.85
4/30/2021 4:15:00 AM 17.58 63.644 0.367 8.17 1954 7.83
4/30/2021 4:30:00 AM 17.56 63.608 0.337 8.17 1968 7.81
4/30/2021 4:45:00 AM 17.53 63.554 0.31 8.17 1957 7.79
4/30/2021 5:00:00 AM 17.5 63.5 0.348 8.17 2015 7.8
4/30/2021 5:15:00 AM 17.47 63.446 0.317 8.16 2004 7.7
4/30/2021 5:30:00 AM 17.42 63.356 0.333 8.16 2045 7.69
4/30/2021 5:45:00 AM 17.38 63.284 0.344 8.15 2045 7.64
4/30/2021 6:00:00 AM 17.34 63.212 0.358 8.14 2039 7.4
4/30/2021 6:15:00 AM 17.3 63.14 0.328 8.14 2037 7.28
4/30/2021 6:30:00 AM 17.27 63.086 0.333 8.14 2044 6.66
4/30/2021 6:45:00 AM 17.23 63.014 0.326 8.13 2030 7.63
4/30/2021 7:00:00 AM 17.22 62.996 0.332 8.13 2012 7.74
4/30/2021 7:15:00 AM 17.2 62.96 0.331 8.13 2026 7.72
4/30/2021 7:30:00 AM 17.19 62.942 0.343 8.13 2027 7.73
4/30/2021 7:45:00 AM 17.18 62.924 0.348 8.14 1976 7.8
4/30/2021 8:00:00 AM 17.18 62.924 0.354 8.14 2019 7.9
4/30/2021 8:15:00 AM 17.18 62.924 0.366 8.15 2023 8.01
4/30/2021 8:30:00 AM 17.16 62.888 0.375 8.16 2010 8.17
4/30/2021 8:45:00 AM 17.15 62.87 0.371 8.17 2010 8.18
4/30/2021 9:00:00 AM 17.17 62.906 0.367 8.17 2026 8.4
4/30/2021 9:15:00 AM 17.17 62.906 0.381 8.18 2003 7.84
4/30/2021 9:30:00 AM 17.14 62.852 0.382 8.19 2025 8.31
4/30/2021 9:45:00 AM 17.15 62.87 0.385 8.19 1994 8.51
4/30/2021 10:00:00 AM 17.23 63.014 0.381 8.21 2010 8.69
4/30/2021 10:15:00 AM 17.3 63.14 0.38 8.21 2019 8.7
4/30/2021 10:30:00 AM 17.31 63.158 0.381 8.22 2027 8.9
4/30/2021 10:45:00 AM 17.35 63.23 0.379 8.23 2011 8.79
4/30/2021 11:00:00 AM 17.35 63.23 0.379 8.23 2015 8.93
4/30/2021 11:15:00 AM 17.29 63.122 0.361 8.23 2038 8.82
4/30/2021 11:30:00 AM 17.26 63.068 0.371 8.23 2034 8.88
4/30/2021 11:45:00 AM 17.29 63.122 0.349 8.23 2020 8
4/30/2021 12:00:00 PM 17.26 63.068 0.375 8.23 2003 8.87
4/30/2021 12:15:00 PM 17.37 63.266 0.378 8.23 1997 8.89
4/30/2021 12:30:00 PM 17.46 63.428 0.377 8.24 1999 8.7
4/30/2021 12:45:00 PM 17.57 63.626 0.376 8.24 2015 8.73
4/30/2021 1:00:00 PM 17.68 63.824 0.39 8.25 2008 8.73
4/30/2021 1:15:00 PM 17.65 63.77 0.365 8.24 2028 8.75
4/30/2021 1:30:00 PM 17.65 63.77 0.375 8.25 2004 9.2
4/30/2021 1:45:00 PM 17.82 64.076 0.373 8.25 1994 9.11
4/30/2021 2:00:00 PM 17.82 64.076 0.35 8.26 1985 9.18
4/30/2021 2:15:00 PM 17.83 64.094 0.375 8.26 2017 9.14
4/30/2021 2:30:00 PM 18.03 64.454 0.381 8.26 2039 9.11
4/30/2021 2:45:00 PM 18.19 64.742 0.379 8.27 2012 9.26
4/30/2021 3:00:00 PM 18.27 64.886 0.38 8.27 2089 9.25
4/30/2021 3:15:00 PM 18.31 64.958 0.38 8.28 2128 9.34
4/30/2021 3:30:00 PM 18.35 65.03 0.383 8.28 2053 9.27
4/30/2021 3:45:00 PM 18.37 65.066 0.38 8.29 2048 9.37
4/30/2021 4:00:00 PM 18.42 65.156 0.381 8.3 2053 9.48
4/30/2021 4:15:00 PM 18.43 65.174 0.385 8.3 1955 9.38
4/30/2021 4:30:00 PM 18.39 65.102 0.381 8.3 1955 9.45
4/30/2021 4:45:00 PM 18.28 64.904 0.381 8.29 1887 9.27
4/30/2021 5:00:00 PM 18.07 64.526 0.378 8.28 1963 9.24
4/30/2021 5:15:00 PM 17.9 64.22 0.379 8.28 1974 9.23
4/30/2021 5:30:00 PM 17.64 63.752 0.38 8.28 1914 9.23
4/30/2021 5:45:00 PM 17.49 63.482 0.389 8.29 1971 9.17
4/30/2021 6:00:00 PM 17.38 63.284 0.391 8.29 1935 9.08
4/30/2021 6:15:00 PM 17.28 63.104 0.382 8.3 1900 9.09
4/30/2021 6:30:00 PM 17.11 62.798 0.379 8.29 1892 8.97
4/30/2021 6:45:00 PM 16.98 62.564 0.379 8.3 1927 8.95
4/30/2021 7:00:00 PM 16.87 62.366 0.378 8.3 1935 8.88
4/30/2021 7:15:00 PM 16.73 62.114 0.379 8.29 1953 8.7
4/30/2021 7:30:00 PM 16.61 61.898 0.383 8.28 1980 8.62
4/30/2021 7:45:00 PM 16.5 61.7 0.383 8.27 1993 8.48
4/30/2021 8:00:00 PM 16.39 61.502 0.363 8.26 2008 8.43
4/30/2021 8:15:00 PM 16.27 61.286 0.385 8.25 2011 8.38
4/30/2021 8:30:00 PM 16.23 61.214 0.38 8.23 2020 8.32
4/30/2021 8:45:00 PM 16.13 61.034 0.342 8.24 2010 8.24
4/30/2021 9:00:00 PM 16.07 60.926 0.359 8.24 1996 8.21
4/30/2021 9:15:00 PM 16 60.8 0.363 8.23 1992 8.17
4/30/2021 9:30:00 PM 15.94 60.692 0.348 8.24 1980 8.17
4/30/2021 9:45:00 PM 15.92 60.656 0.297 8.25 2024 8.17
4/30/2021 10:00:00 PM 15.89 60.602 0.363 8.26 1986 8.2
4/30/2021 10:15:00 PM 15.82 60.476 0.366 8.26 2144 8.18
4/30/2021 10:30:00 PM 15.79 60.422 0.349 8.28 1991 8.07
4/30/2021 10:45:00 PM 15.72 60.296 0.336 8.28 2019 8.25
4/30/2021 11:00:00 PM 15.65 60.17 0.335 8.28 1966 8.26
4/30/2021 11:15:00 PM 15.6 60.08 0.373 8.29 1926 8.26
4/30/2021 11:30:00 PM 15.58 60.044 0.378 8.29 1946 8.29
4/30/2021 11:45:00 PM 15.56 60.008 0.376 8.31 1940 8.34
5/1/2021 12:00:00 AM 15.53 59.954 0.386 8.31 1964 8.35
5/1/2021 12:15:00 AM 15.49 59.882 0.37 8.32 1946 8.34
5/1/2021 12:30:00 AM 15.49 59.882 0.382 8.32 1970 8.29
5/1/2021 12:45:00 AM 15.45 59.81 0.384 8.32 1957 8.35
5/1/2021 1:00:00 AM 15.41 59.738 0.386 8.33 1960 8.36
5/1/2021 1:15:00 AM 15.38 59.684 0.381 8.33 1963 8.34
5/1/2021 1:30:00 AM 15.33 59.594 0.362 8.33 1958 8.34
5/1/2021 1:45:00 AM 15.3 59.54 0.355 8.34 1949 8.43
5/1/2021 2:00:00 AM 15.28 59.504 0.359 8.35 1864 8.4
5/1/2021 2:15:00 AM 15.24 59.432 0.363 8.36 1880 8.49
5/1/2021 2:30:00 AM 15.17 59.306 0.361 8.36 1886 8.52
5/1/2021 2:45:00 AM 15.11 59.198 0.368 8.36 1901 8.46
5/1/2021 3:00:00 AM 15.05 59.09 0.368 8.35 1900 8.44
5/1/2021 3:15:00 AM 15 59 0.359 8.36 1868 8.52
5/1/2021 3:30:00 AM 14.97 58.946 0.353 8.36 1910 8.53
5/1/2021 3:45:00 AM 14.94 58.892 0.354 8.36 1908 8.53
5/1/2021 4:00:00 AM 14.92 58.856 0.363 8.36 1897 8.53
5/1/2021 4:15:00 AM 14.88 58.784 0.35 8.36 1907 8.15
5/1/2021 4:30:00 AM 14.83 58.694 0.352 8.35 1908 8.51
5/1/2021 4:45:00 AM 14.78 58.604 0.35 8.36 1906 8.57
5/1/2021 5:00:00 AM 14.71 58.478 0.358 8.35 1916 8.58
5/1/2021 5:15:00 AM 14.62 58.316 0.363 8.35 1913 8.53
5/1/2021 5:30:00 AM 14.53 58.154 0.385 8.36 1910 8.55
5/1/2021 5:45:00 AM 14.45 58.01 0.38 8.35 1893 8.53
5/1/2021 6:00:00 AM 14.38 57.884 0.381 8.34 1897 8.57
5/1/2021 6:15:00 AM 14.3 57.74 0.383 8.33 1888 8.52
5/1/2021 6:30:00 AM 14.25 57.65 0.385 8.33 1868 8.58
5/1/2021 6:45:00 AM 14.18 57.524 0.387 8.33 1822 8.61
5/1/2021 7:00:00 AM 14.12 57.416 0.388 8.32 1809 8.64
5/1/2021 7:15:00 AM 14.06 57.308 0.387 8.32 1816 8.65
5/1/2021 7:30:00 AM 13.97 57.146 0.386 8.33 1786 8.75
5/1/2021 7:45:00 AM 13.91 57.038 0.38 8.32 1798 8.73
5/1/2021 8:00:00 AM 13.86 56.948 0.343 8.33 1887 8.87
5/1/2021 8:15:00 AM 13.83 56.894 0.369 8.33 1872 8.88
5/1/2021 8:30:00 AM 13.8 56.84 0.386 8.34 1872 8.99
5/1/2021 8:45:00 AM 13.78 56.804 0.386 8.34 1866 9.1
5/1/2021 9:00:00 AM 13.75 56.75 0.374 8.34 1882 9.17
5/1/2021 9:15:00 AM 13.74 56.732 0.383 8.34 1892 9.13
5/1/2021 9:30:00 AM